<?xml version='1.0' encoding='UTF-8'?>
<gpx version="1.1" creator="https://www.komoot.de" xmlns="http://www.topografix.com/GPX/1/1" xmlns:xsi="http://www.w3.org/2001/XMLSchema-instance" xsi:schemaLocation="http://www.topografix.com/GPX/1/1 http://www.topografix.com/GPX/1/1/gpx.xsd">
  <metadata>
    <name>48_480MuttenzWartenbSchhhoenmatt</name>
    <author>
      <link href="https://www.komoot.de">
        <text>komoot</text>
        <type>text/html</type>
      </link>
    </author>
  </metadata>
  <trk>
    <name>48_480MuttenzWartenbSchhhoenmatt</name>
    <trkseg>
      <trkpt lat="47.541953" lon="7.871286">
        <ele>343.128751</ele>
        <time>2021-11-08T20:52:35.308Z</time>
      </trkpt>
      <trkpt lat="47.541953" lon="7.871286">
        <ele>343.128751</ele>
        <time>2021-11-08T20:52:35.322Z</time>
      </trkpt>
      <trkpt lat="47.542039" lon="7.871556">
        <ele>343.128751</ele>
        <time>2021-11-08T20:52:40.191Z</time>
      </trkpt>
      <trkpt lat="47.542067" lon="7.871664">
        <ele>343.128751</ele>
        <time>2021-11-08T20:52:41.884Z</time>
      </trkpt>
      <trkpt lat="47.542091" lon="7.871721">
        <ele>343.128751</ele>
        <time>2021-11-08T20:52:42.533Z</time>
      </trkpt>
      <trkpt lat="47.542218" lon="7.871866">
        <ele>343.128751</ele>
        <time>2021-11-08T20:52:48.086Z</time>
      </trkpt>
      <trkpt lat="47.542394" lon="7.872341">
        <ele>343.128751</ele>
        <time>2021-11-08T20:52:58.830Z</time>
      </trkpt>
      <trkpt lat="47.542436" lon="7.872494">
        <ele>343.463162</ele>
        <time>2021-11-08T20:53:02.328Z</time>
      </trkpt>
      <trkpt lat="47.542537" lon="7.872430">
        <ele>344.043780</ele>
        <time>2021-11-08T20:53:04.510Z</time>
      </trkpt>
      <trkpt lat="47.542714" lon="7.872334">
        <ele>345.040034</ele>
        <time>2021-11-08T20:53:11.754Z</time>
      </trkpt>
      <trkpt lat="47.542814" lon="7.872280">
        <ele>345.602599</ele>
        <time>2021-11-08T20:53:14.710Z</time>
      </trkpt>
      <trkpt lat="47.542919" lon="7.872226">
        <ele>346.190063</ele>
        <time>2021-11-08T20:53:18.614Z</time>
      </trkpt>
      <trkpt lat="47.542919" lon="7.872225">
        <ele>346.193631</ele>
        <time>2021-11-08T20:53:18.618Z</time>
      </trkpt>
      <trkpt lat="47.543013" lon="7.872182">
        <ele>346.713611</ele>
        <time>2021-11-08T20:53:22.288Z</time>
      </trkpt>
      <trkpt lat="47.543233" lon="7.872082">
        <ele>347.929915</ele>
        <time>2021-11-08T20:53:29.386Z</time>
      </trkpt>
      <trkpt lat="47.543251" lon="7.872152">
        <ele>348.197172</ele>
        <time>2021-11-08T20:53:32.742Z</time>
      </trkpt>
      <trkpt lat="47.543332" lon="7.872237">
        <ele>348.721823</ele>
        <time>2021-11-08T20:53:36.210Z</time>
      </trkpt>
      <trkpt lat="47.544390" lon="7.872423">
        <ele>354.865013</ele>
        <time>2021-11-08T20:54:17.842Z</time>
      </trkpt>
      <trkpt lat="47.544883" lon="7.872555">
        <ele>358.302166</ele>
        <time>2021-11-08T20:54:40.185Z</time>
      </trkpt>
      <trkpt lat="47.545131" lon="7.872664">
        <ele>360.076935</ele>
        <time>2021-11-08T20:54:51.189Z</time>
      </trkpt>
      <trkpt lat="47.545375" lon="7.872836">
        <ele>361.930808</ele>
        <time>2021-11-08T20:55:02.129Z</time>
      </trkpt>
      <trkpt lat="47.545478" lon="7.872968">
        <ele>362.865180</ele>
        <time>2021-11-08T20:55:08.937Z</time>
      </trkpt>
      <trkpt lat="47.545515" lon="7.873015">
        <ele>363.199567</ele>
        <time>2021-11-08T20:55:10.893Z</time>
      </trkpt>
      <trkpt lat="47.545746" lon="7.873302">
        <ele>365.214287</ele>
        <time>2021-11-08T20:55:24.093Z</time>
      </trkpt>
      <trkpt lat="47.545934" lon="7.873549">
        <ele>366.621954</ele>
        <time>2021-11-08T20:55:34.193Z</time>
      </trkpt>
      <trkpt lat="47.546077" lon="7.873763">
        <ele>367.760618</ele>
        <time>2021-11-08T20:55:43.390Z</time>
      </trkpt>
      <trkpt lat="47.546135" lon="7.873859">
        <ele>368.247800</ele>
        <time>2021-11-08T20:55:46.629Z</time>
      </trkpt>
      <trkpt lat="47.546309" lon="7.874154">
        <ele>369.729169</ele>
        <time>2021-11-08T20:55:57.743Z</time>
      </trkpt>
      <trkpt lat="47.547126" lon="7.875801">
        <ele>375.878826</ele>
        <time>2021-11-08T20:56:43.505Z</time>
      </trkpt>
      <trkpt lat="47.547574" lon="7.876801">
        <ele>377.439197</ele>
        <time>2021-11-08T20:57:02.500Z</time>
      </trkpt>
      <trkpt lat="47.547992" lon="7.877974">
        <ele>377.444148</ele>
        <time>2021-11-08T20:57:15.301Z</time>
      </trkpt>
      <trkpt lat="47.548234" lon="7.878638">
        <ele>375.821376</ele>
        <time>2021-11-08T20:57:20.565Z</time>
      </trkpt>
      <trkpt lat="47.548422" lon="7.878959">
        <ele>374.907441</ele>
        <time>2021-11-08T20:57:23.335Z</time>
      </trkpt>
      <trkpt lat="47.548718" lon="7.879258">
        <ele>373.766043</ele>
        <time>2021-11-08T20:57:26.750Z</time>
      </trkpt>
      <trkpt lat="47.549140" lon="7.879391">
        <ele>372.255897</ele>
        <time>2021-11-08T20:57:30.819Z</time>
      </trkpt>
      <trkpt lat="47.549318" lon="7.879398">
        <ele>371.493306</ele>
        <time>2021-11-08T20:57:32.432Z</time>
      </trkpt>
      <trkpt lat="47.549426" lon="7.879394">
        <ele>371.030629</ele>
        <time>2021-11-08T20:57:33.476Z</time>
      </trkpt>
      <trkpt lat="47.549694" lon="7.879391">
        <ele>369.882829</ele>
        <time>2021-11-08T20:57:36.001Z</time>
      </trkpt>
      <trkpt lat="47.549920" lon="7.879395">
        <ele>368.914868</ele>
        <time>2021-11-08T20:57:38.195Z</time>
      </trkpt>
      <trkpt lat="47.549993" lon="7.879403">
        <ele>368.601376</ele>
        <time>2021-11-08T20:57:38.870Z</time>
      </trkpt>
      <trkpt lat="47.550458" lon="7.879428">
        <ele>366.608605</ele>
        <time>2021-11-08T20:57:43.370Z</time>
      </trkpt>
      <trkpt lat="47.550948" lon="7.879456">
        <ele>364.800437</ele>
        <time>2021-11-08T20:57:48.278Z</time>
      </trkpt>
      <trkpt lat="47.551453" lon="7.879539">
        <ele>363.731643</ele>
        <time>2021-11-08T20:57:53.900Z</time>
      </trkpt>
      <trkpt lat="47.551499" lon="7.879547">
        <ele>363.634217</ele>
        <time>2021-11-08T20:57:54.419Z</time>
      </trkpt>
      <trkpt lat="47.552616" lon="7.879896">
        <ele>361.207524</ele>
        <time>2021-11-08T20:58:07.438Z</time>
      </trkpt>
      <trkpt lat="47.553292" lon="7.880216">
        <ele>359.139040</ele>
        <time>2021-11-08T20:58:15.109Z</time>
      </trkpt>
      <trkpt lat="47.554555" lon="7.880902">
        <ele>354.907774</ele>
        <time>2021-11-08T20:58:28.535Z</time>
      </trkpt>
      <trkpt lat="47.554711" lon="7.880958">
        <ele>354.266621</ele>
        <time>2021-11-08T20:58:30.145Z</time>
      </trkpt>
      <trkpt lat="47.554840" lon="7.880981">
        <ele>353.747626</ele>
        <time>2021-11-08T20:58:31.361Z</time>
      </trkpt>
      <trkpt lat="47.554892" lon="7.880986">
        <ele>353.539480</ele>
        <time>2021-11-08T20:58:31.856Z</time>
      </trkpt>
      <trkpt lat="47.555165" lon="7.880954">
        <ele>352.445602</ele>
        <time>2021-11-08T20:58:34.536Z</time>
      </trkpt>
      <trkpt lat="47.555425" lon="7.880859">
        <ele>351.375948</ele>
        <time>2021-11-08T20:58:37.143Z</time>
      </trkpt>
      <trkpt lat="47.555605" lon="7.880857">
        <ele>350.656935</ele>
        <time>2021-11-08T20:58:38.847Z</time>
      </trkpt>
      <trkpt lat="47.555842" lon="7.880916">
        <ele>349.696994</ele>
        <time>2021-11-08T20:58:41.234Z</time>
      </trkpt>
      <trkpt lat="47.555895" lon="7.880943">
        <ele>349.473129</ele>
        <time>2021-11-08T20:58:41.757Z</time>
      </trkpt>
      <trkpt lat="47.556017" lon="7.881027">
        <ele>348.935772</ele>
        <time>2021-11-08T20:58:43.038Z</time>
      </trkpt>
      <trkpt lat="47.556273" lon="7.881274">
        <ele>347.812058</ele>
        <time>2021-11-08T20:58:46.026Z</time>
      </trkpt>
      <trkpt lat="47.557683" lon="7.883801">
        <ele>340.223450</ele>
        <time>2021-11-08T20:59:08.081Z</time>
      </trkpt>
      <trkpt lat="47.557899" lon="7.884061">
        <ele>339.407248</ele>
        <time>2021-11-08T20:59:10.943Z</time>
      </trkpt>
      <trkpt lat="47.557948" lon="7.884120">
        <ele>339.222068</ele>
        <time>2021-11-08T20:59:11.605Z</time>
      </trkpt>
      <trkpt lat="47.558177" lon="7.884403">
        <ele>338.347497</ele>
        <time>2021-11-08T20:59:16.094Z</time>
      </trkpt>
      <trkpt lat="47.558217" lon="7.884461">
        <ele>338.183355</ele>
        <time>2021-11-08T20:59:16.682Z</time>
      </trkpt>
      <trkpt lat="47.558492" lon="7.884797">
        <ele>337.137969</ele>
        <time>2021-11-08T20:59:20.492Z</time>
      </trkpt>
      <trkpt lat="47.558762" lon="7.885100">
        <ele>336.440454</ele>
        <time>2021-11-08T20:59:24.135Z</time>
      </trkpt>
      <trkpt lat="47.559366" lon="7.885628">
        <ele>335.085515</ele>
        <time>2021-11-08T20:59:31.874Z</time>
      </trkpt>
      <trkpt lat="47.559578" lon="7.885821">
        <ele>334.604779</ele>
        <time>2021-11-08T20:59:34.736Z</time>
      </trkpt>
      <trkpt lat="47.559831" lon="7.886054">
        <ele>334.029238</ele>
        <time>2021-11-08T20:59:38.108Z</time>
      </trkpt>
      <trkpt lat="47.560259" lon="7.886453">
        <ele>333.143075</ele>
        <time>2021-11-08T20:59:43.703Z</time>
      </trkpt>
      <trkpt lat="47.560668" lon="7.886926">
        <ele>332.328716</ele>
        <time>2021-11-08T20:59:49.580Z</time>
      </trkpt>
      <trkpt lat="47.560792" lon="7.887135">
        <ele>332.033940</ele>
        <time>2021-11-08T20:59:51.605Z</time>
      </trkpt>
      <trkpt lat="47.560813" lon="7.887166">
        <ele>331.987412</ele>
        <time>2021-11-08T20:59:51.953Z</time>
      </trkpt>
      <trkpt lat="47.561031" lon="7.887508">
        <ele>331.489093</ele>
        <time>2021-11-08T20:59:55.498Z</time>
      </trkpt>
      <trkpt lat="47.562511" lon="7.889545">
        <ele>329.408248</ele>
        <time>2021-11-08T21:00:20.047Z</time>
      </trkpt>
      <trkpt lat="47.562675" lon="7.889844">
        <ele>329.185848</ele>
        <time>2021-11-08T21:00:23.773Z</time>
      </trkpt>
      <trkpt lat="47.562802" lon="7.890077">
        <ele>329.234228</ele>
        <time>2021-11-08T21:00:26.649Z</time>
      </trkpt>
      <trkpt lat="47.562868" lon="7.890182">
        <ele>329.264786</ele>
        <time>2021-11-08T21:00:28.152Z</time>
      </trkpt>
      <trkpt lat="47.563039" lon="7.889397">
        <ele>329.440447</ele>
        <time>2021-11-08T21:00:36.593Z</time>
      </trkpt>
      <trkpt lat="47.563560" lon="7.887288">
        <ele>330.516002</ele>
        <time>2021-11-08T21:01:03.082Z</time>
      </trkpt>
      <trkpt lat="47.563657" lon="7.886867">
        <ele>330.931348</ele>
        <time>2021-11-08T21:01:09.077Z</time>
      </trkpt>
      <trkpt lat="47.563909" lon="7.886506">
        <ele>331.416296</ele>
        <time>2021-11-08T21:01:16.366Z</time>
      </trkpt>
      <trkpt lat="47.565560" lon="7.884206">
        <ele>335.891884</ele>
        <time>2021-11-08T21:02:08.749Z</time>
      </trkpt>
      <trkpt lat="47.566604" lon="7.882741">
        <ele>339.757840</ele>
        <time>2021-11-08T21:02:46.242Z</time>
      </trkpt>
      <trkpt lat="47.566690" lon="7.882620">
        <ele>340.082236</ele>
        <time>2021-11-08T21:02:49.627Z</time>
      </trkpt>
      <trkpt lat="47.567774" lon="7.881098">
        <ele>343.213524</ele>
        <time>2021-11-08T21:03:28.256Z</time>
      </trkpt>
      <trkpt lat="47.568855" lon="7.879614">
        <ele>343.943597</ele>
        <time>2021-11-08T21:03:52.659Z</time>
      </trkpt>
      <trkpt lat="47.569889" lon="7.878149">
        <ele>342.597725</ele>
        <time>2021-11-08T21:04:08.951Z</time>
      </trkpt>
      <trkpt lat="47.569974" lon="7.878003">
        <ele>342.393775</ele>
        <time>2021-11-08T21:04:10.387Z</time>
      </trkpt>
      <trkpt lat="47.570440" lon="7.877017">
        <ele>341.120588</ele>
        <time>2021-11-08T21:04:19.584Z</time>
      </trkpt>
      <trkpt lat="47.570733" lon="7.876421">
        <ele>340.369712</ele>
        <time>2021-11-08T21:04:25.389Z</time>
      </trkpt>
      <trkpt lat="47.571754" lon="7.874288">
        <ele>338.284256</ele>
        <time>2021-11-08T21:04:46.481Z</time>
      </trkpt>
      <trkpt lat="47.572765" lon="7.872183">
        <ele>336.899854</ele>
        <time>2021-11-08T21:05:08.160Z</time>
      </trkpt>
      <trkpt lat="47.572867" lon="7.871849">
        <ele>337.056883</ele>
        <time>2021-11-08T21:05:11.610Z</time>
      </trkpt>
      <trkpt lat="47.573081" lon="7.871074">
        <ele>337.457872</ele>
        <time>2021-11-08T21:05:20.707Z</time>
      </trkpt>
      <trkpt lat="47.573242" lon="7.870224">
        <ele>337.880629</ele>
        <time>2021-11-08T21:05:32.187Z</time>
      </trkpt>
      <trkpt lat="47.573270" lon="7.869980">
        <ele>337.999146</ele>
        <time>2021-11-08T21:05:35.633Z</time>
      </trkpt>
      <trkpt lat="47.573327" lon="7.869478">
        <ele>338.222890</ele>
        <time>2021-11-08T21:05:43.129Z</time>
      </trkpt>
      <trkpt lat="47.573388" lon="7.869020">
        <ele>338.387717</ele>
        <time>2021-11-08T21:05:50.066Z</time>
      </trkpt>
      <trkpt lat="47.573580" lon="7.868234">
        <ele>338.682861</ele>
        <time>2021-11-08T21:06:01.319Z</time>
      </trkpt>
      <trkpt lat="47.573902" lon="7.867343">
        <ele>339.039737</ele>
        <time>2021-11-08T21:06:12.502Z</time>
      </trkpt>
      <trkpt lat="47.574034" lon="7.867032">
        <ele>338.617662</ele>
        <time>2021-11-08T21:06:15.559Z</time>
      </trkpt>
      <trkpt lat="47.574854" lon="7.865675">
        <ele>333.486102</ele>
        <time>2021-11-08T21:06:27.897Z</time>
      </trkpt>
      <trkpt lat="47.575475" lon="7.864127">
        <ele>325.446770</ele>
        <time>2021-11-08T21:06:38.621Z</time>
      </trkpt>
      <trkpt lat="47.575527" lon="7.863840">
        <ele>323.830143</ele>
        <time>2021-11-08T21:06:40.441Z</time>
      </trkpt>
      <trkpt lat="47.575529" lon="7.863765">
        <ele>323.421820</ele>
        <time>2021-11-08T21:06:40.863Z</time>
      </trkpt>
      <trkpt lat="47.575529" lon="7.863690">
        <ele>323.013816</ele>
        <time>2021-11-08T21:06:41.291Z</time>
      </trkpt>
      <trkpt lat="47.575296" lon="7.862440">
        <ele>316.381466</ele>
        <time>2021-11-08T21:06:48.970Z</time>
      </trkpt>
      <trkpt lat="47.575288" lon="7.862118">
        <ele>315.281100</ele>
        <time>2021-11-08T21:06:50.850Z</time>
      </trkpt>
      <trkpt lat="47.575373" lon="7.861941">
        <ele>314.539146</ele>
        <time>2021-11-08T21:06:52.209Z</time>
      </trkpt>
      <trkpt lat="47.576083" lon="7.861029">
        <ele>309.783419</ele>
        <time>2021-11-08T21:07:01.139Z</time>
      </trkpt>
      <trkpt lat="47.576292" lon="7.860775">
        <ele>308.415332</ele>
        <time>2021-11-08T21:07:03.970Z</time>
      </trkpt>
      <trkpt lat="47.576060" lon="7.860505">
        <ele>307.911551</ele>
        <time>2021-11-08T21:07:09.033Z</time>
      </trkpt>
      <trkpt lat="47.575661" lon="7.860260">
        <ele>307.752534</ele>
        <time>2021-11-08T21:07:16.416Z</time>
      </trkpt>
      <trkpt lat="47.575482" lon="7.860014">
        <ele>307.662658</ele>
        <time>2021-11-08T21:07:21.449Z</time>
      </trkpt>
      <trkpt lat="47.575090" lon="7.859216">
        <ele>307.417459</ele>
        <time>2021-11-08T21:07:36.341Z</time>
      </trkpt>
      <trkpt lat="47.574369" lon="7.857634">
        <ele>307.515421</ele>
        <time>2021-11-08T21:08:05.016Z</time>
      </trkpt>
      <trkpt lat="47.574089" lon="7.857293">
        <ele>307.580985</ele>
        <time>2021-11-08T21:08:11.946Z</time>
      </trkpt>
      <trkpt lat="47.573544" lon="7.856804">
        <ele>307.565232</ele>
        <time>2021-11-08T21:08:24.099Z</time>
      </trkpt>
      <trkpt lat="47.572923" lon="7.856141">
        <ele>307.290795</ele>
        <time>2021-11-08T21:08:39.242Z</time>
      </trkpt>
      <trkpt lat="47.572248" lon="7.855212">
        <ele>306.877961</ele>
        <time>2021-11-08T21:08:56.255Z</time>
      </trkpt>
      <trkpt lat="47.571837" lon="7.854626">
        <ele>306.313135</ele>
        <time>2021-11-08T21:09:06.304Z</time>
      </trkpt>
      <trkpt lat="47.571655" lon="7.854341">
        <ele>306.050914</ele>
        <time>2021-11-08T21:09:10.732Z</time>
      </trkpt>
      <trkpt lat="47.571552" lon="7.854175">
        <ele>305.900213</ele>
        <time>2021-11-08T21:09:13.371Z</time>
      </trkpt>
      <trkpt lat="47.571426" lon="7.854000">
        <ele>305.729193</ele>
        <time>2021-11-08T21:09:16.262Z</time>
      </trkpt>
      <trkpt lat="47.570995" lon="7.853612">
        <ele>305.229753</ele>
        <time>2021-11-08T21:09:25.007Z</time>
      </trkpt>
      <trkpt lat="47.571006" lon="7.853563">
        <ele>305.207636</ele>
        <time>2021-11-08T21:09:25.518Z</time>
      </trkpt>
      <trkpt lat="47.571040" lon="7.853377">
        <ele>305.130908</ele>
        <time>2021-11-08T21:09:27.684Z</time>
      </trkpt>
      <trkpt lat="47.570248" lon="7.851287">
        <ele>304.176472</ele>
        <time>2021-11-08T21:09:57.493Z</time>
      </trkpt>
      <trkpt lat="47.569969" lon="7.850553">
        <ele>304.026815</ele>
        <time>2021-11-08T21:10:08.784Z</time>
      </trkpt>
      <trkpt lat="47.569218" lon="7.848472">
        <ele>303.560107</ele>
        <time>2021-11-08T21:10:39.661Z</time>
      </trkpt>
      <trkpt lat="47.569190" lon="7.848402">
        <ele>303.535576</ele>
        <time>2021-11-08T21:10:40.644Z</time>
      </trkpt>
      <trkpt lat="47.568515" lon="7.846479">
        <ele>302.899782</ele>
        <time>2021-11-08T21:11:07.640Z</time>
      </trkpt>
      <trkpt lat="47.568494" lon="7.846252">
        <ele>302.875849</ele>
        <time>2021-11-08T21:11:10.659Z</time>
      </trkpt>
      <trkpt lat="47.568507" lon="7.846212">
        <ele>302.871212</ele>
        <time>2021-11-08T21:11:11.158Z</time>
      </trkpt>
      <trkpt lat="47.568447" lon="7.846163">
        <ele>302.860606</ele>
        <time>2021-11-08T21:11:12.515Z</time>
      </trkpt>
      <trkpt lat="47.568380" lon="7.846056">
        <ele>302.845358</ele>
        <time>2021-11-08T21:11:14.466Z</time>
      </trkpt>
      <trkpt lat="47.568337" lon="7.845953">
        <ele>302.832707</ele>
        <time>2021-11-08T21:11:16.074Z</time>
      </trkpt>
      <trkpt lat="47.568270" lon="7.845762">
        <ele>302.810221</ele>
        <time>2021-11-08T21:11:18.883Z</time>
      </trkpt>
      <trkpt lat="47.567488" lon="7.843506">
        <ele>302.495769</ele>
        <time>2021-11-08T21:11:53.069Z</time>
      </trkpt>
      <trkpt lat="47.567439" lon="7.843376">
        <ele>302.471194</ele>
        <time>2021-11-08T21:11:55.037Z</time>
      </trkpt>
      <trkpt lat="47.566996" lon="7.842102">
        <ele>302.234658</ele>
        <time>2021-11-08T21:12:13.767Z</time>
      </trkpt>
      <trkpt lat="47.566903" lon="7.841865">
        <ele>302.188444</ele>
        <time>2021-11-08T21:12:17.132Z</time>
      </trkpt>
      <trkpt lat="47.566452" lon="7.840785">
        <ele>301.826836</ele>
        <time>2021-11-08T21:12:32.820Z</time>
      </trkpt>
      <trkpt lat="47.566401" lon="7.840664">
        <ele>301.786218</ele>
        <time>2021-11-08T21:12:34.576Z</time>
      </trkpt>
      <trkpt lat="47.566359" lon="7.840483">
        <ele>301.731724</ele>
        <time>2021-11-08T21:12:37.087Z</time>
      </trkpt>
      <trkpt lat="47.566350" lon="7.840350">
        <ele>301.693668</ele>
        <time>2021-11-08T21:12:38.849Z</time>
      </trkpt>
      <trkpt lat="47.566450" lon="7.840326">
        <ele>301.650922</ele>
        <time>2021-11-08T21:12:40.240Z</time>
      </trkpt>
      <trkpt lat="47.566515" lon="7.840312">
        <ele>301.623207</ele>
        <time>2021-11-08T21:12:41.087Z</time>
      </trkpt>
      <trkpt lat="47.566592" lon="7.840279">
        <ele>301.589386</ele>
        <time>2021-11-08T21:12:42.235Z</time>
      </trkpt>
      <trkpt lat="47.566826" lon="7.840179">
        <ele>301.486626</ele>
        <time>2021-11-08T21:12:45.589Z</time>
      </trkpt>
      <trkpt lat="47.567111" lon="7.839998">
        <ele>301.367039</ele>
        <time>2021-11-08T21:12:49.905Z</time>
      </trkpt>
      <trkpt lat="47.567406" lon="7.839778">
        <ele>301.248311</ele>
        <time>2021-11-08T21:12:54.448Z</time>
      </trkpt>
      <trkpt lat="47.567481" lon="7.839664">
        <ele>301.209687</ele>
        <time>2021-11-08T21:12:55.882Z</time>
      </trkpt>
      <trkpt lat="47.567510" lon="7.839548">
        <ele>301.179679</ele>
        <time>2021-11-08T21:12:57.090Z</time>
      </trkpt>
      <trkpt lat="47.567530" lon="7.839459">
        <ele>301.156924</ele>
        <time>2021-11-08T21:12:57.940Z</time>
      </trkpt>
      <trkpt lat="47.567564" lon="7.839283">
        <ele>301.112515</ele>
        <time>2021-11-08T21:12:59.573Z</time>
      </trkpt>
      <trkpt lat="47.567626" lon="7.839064">
        <ele>301.054904</ele>
        <time>2021-11-08T21:13:01.839Z</time>
      </trkpt>
      <trkpt lat="47.567634" lon="7.839037">
        <ele>301.047751</ele>
        <time>2021-11-08T21:13:02.071Z</time>
      </trkpt>
      <trkpt lat="47.567823" lon="7.838648">
        <ele>300.931470</ele>
        <time>2021-11-08T21:13:06.677Z</time>
      </trkpt>
      <trkpt lat="47.567846" lon="7.838609">
        <ele>300.918905</ele>
        <time>2021-11-08T21:13:07.113Z</time>
      </trkpt>
      <trkpt lat="47.567936" lon="7.838380">
        <ele>300.854619</ele>
        <time>2021-11-08T21:13:09.572Z</time>
      </trkpt>
      <trkpt lat="47.567961" lon="7.838248">
        <ele>300.821362</ele>
        <time>2021-11-08T21:13:10.941Z</time>
      </trkpt>
      <trkpt lat="47.567944" lon="7.838073">
        <ele>300.772613</ele>
        <time>2021-11-08T21:13:12.521Z</time>
      </trkpt>
      <trkpt lat="47.567822" lon="7.837479">
        <ele>300.489769</ele>
        <time>2021-11-08T21:13:17.936Z</time>
      </trkpt>
      <trkpt lat="47.567670" lon="7.836721">
        <ele>300.129548</ele>
        <time>2021-11-08T21:13:24.556Z</time>
      </trkpt>
      <trkpt lat="47.567647" lon="7.836576">
        <ele>300.061695</ele>
        <time>2021-11-08T21:13:25.818Z</time>
      </trkpt>
      <trkpt lat="47.567583" lon="7.836155">
        <ele>299.865108</ele>
        <time>2021-11-08T21:13:29.515Z</time>
      </trkpt>
      <trkpt lat="47.567562" lon="7.835760">
        <ele>299.684615</ele>
        <time>2021-11-08T21:13:32.968Z</time>
      </trkpt>
      <trkpt lat="47.567566" lon="7.835567">
        <ele>299.596655</ele>
        <time>2021-11-08T21:13:34.630Z</time>
      </trkpt>
      <trkpt lat="47.567674" lon="7.835182">
        <ele>299.448911</ele>
        <time>2021-11-08T21:13:38.280Z</time>
      </trkpt>
      <trkpt lat="47.567558" lon="7.835042">
        <ele>299.373881</ele>
        <time>2021-11-08T21:13:40.265Z</time>
      </trkpt>
      <trkpt lat="47.567438" lon="7.834799">
        <ele>299.271976</ele>
        <time>2021-11-08T21:13:42.892Z</time>
      </trkpt>
      <trkpt lat="47.567179" lon="7.834275">
        <ele>299.052160</ele>
        <time>2021-11-08T21:13:48.610Z</time>
      </trkpt>
      <trkpt lat="47.566744" lon="7.833235">
        <ele>298.668522</ele>
        <time>2021-11-08T21:13:59.812Z</time>
      </trkpt>
      <trkpt lat="47.566366" lon="7.832333">
        <ele>298.666506</ele>
        <time>2021-11-08T21:14:10.087Z</time>
      </trkpt>
      <trkpt lat="47.566013" lon="7.831442">
        <ele>298.664544</ele>
        <time>2021-11-08T21:14:20.758Z</time>
      </trkpt>
      <trkpt lat="47.565951" lon="7.831248">
        <ele>298.664136</ele>
        <time>2021-11-08T21:14:22.959Z</time>
      </trkpt>
      <trkpt lat="47.565741" lon="7.830588">
        <ele>298.756821</ele>
        <time>2021-11-08T21:14:30.543Z</time>
      </trkpt>
      <trkpt lat="47.565639" lon="7.830099">
        <ele>298.859572</ele>
        <time>2021-11-08T21:14:36.103Z</time>
      </trkpt>
      <trkpt lat="47.565511" lon="7.829497">
        <ele>298.986283</ele>
        <time>2021-11-08T21:14:42.999Z</time>
      </trkpt>
      <trkpt lat="47.565384" lon="7.828869">
        <ele>299.117896</ele>
        <time>2021-11-08T21:14:50.011Z</time>
      </trkpt>
      <trkpt lat="47.565225" lon="7.828079">
        <ele>299.689057</ele>
        <time>2021-11-08T21:14:58.712Z</time>
      </trkpt>
      <trkpt lat="47.565215" lon="7.828033">
        <ele>299.745266</ele>
        <time>2021-11-08T21:14:59.224Z</time>
      </trkpt>
      <trkpt lat="47.565115" lon="7.827488">
        <ele>300.402152</ele>
        <time>2021-11-08T21:15:06.022Z</time>
      </trkpt>
      <trkpt lat="47.565054" lon="7.827194">
        <ele>300.759894</ele>
        <time>2021-11-08T21:15:09.995Z</time>
      </trkpt>
      <trkpt lat="47.564863" lon="7.826667">
        <ele>301.455652</ele>
        <time>2021-11-08T21:15:19.350Z</time>
      </trkpt>
      <trkpt lat="47.564836" lon="7.826621">
        <ele>301.526562</ele>
        <time>2021-11-08T21:15:20.328Z</time>
      </trkpt>
      <trkpt lat="47.564805" lon="7.826569">
        <ele>301.607266</ele>
        <time>2021-11-08T21:15:21.537Z</time>
      </trkpt>
      <trkpt lat="47.564837" lon="7.826491">
        <ele>301.713437</ele>
        <time>2021-11-08T21:15:23.526Z</time>
      </trkpt>
      <trkpt lat="47.564804" lon="7.826144">
        <ele>302.121011</ele>
        <time>2021-11-08T21:15:31.404Z</time>
      </trkpt>
      <trkpt lat="47.564761" lon="7.826044">
        <ele>302.258927</ele>
        <time>2021-11-08T21:15:34.031Z</time>
      </trkpt>
      <trkpt lat="47.564726" lon="7.825870">
        <ele>302.646934</ele>
        <time>2021-11-08T21:15:38.514Z</time>
      </trkpt>
      <trkpt lat="47.564632" lon="7.824882">
        <ele>305.007249</ele>
        <time>2021-11-08T21:16:02.690Z</time>
      </trkpt>
      <trkpt lat="47.564621" lon="7.824630">
        <ele>305.604622</ele>
        <time>2021-11-08T21:16:09.320Z</time>
      </trkpt>
      <trkpt lat="47.564603" lon="7.824196">
        <ele>306.633224</ele>
        <time>2021-11-08T21:16:19.906Z</time>
      </trkpt>
      <trkpt lat="47.564596" lon="7.823971">
        <ele>307.166047</ele>
        <time>2021-11-08T21:16:25.133Z</time>
      </trkpt>
      <trkpt lat="47.564551" lon="7.823574">
        <ele>308.118344</ele>
        <time>2021-11-08T21:16:35.372Z</time>
      </trkpt>
      <trkpt lat="47.564531" lon="7.823338">
        <ele>308.624959</ele>
        <time>2021-11-08T21:16:40.742Z</time>
      </trkpt>
      <trkpt lat="47.564338" lon="7.820810">
        <ele>310.216763</ele>
        <time>2021-11-08T21:17:21.531Z</time>
      </trkpt>
      <trkpt lat="47.564264" lon="7.820324">
        <ele>309.876847</ele>
        <time>2021-11-08T21:17:27.062Z</time>
      </trkpt>
      <trkpt lat="47.564207" lon="7.820139">
        <ele>309.680036</ele>
        <time>2021-11-08T21:17:29.265Z</time>
      </trkpt>
      <trkpt lat="47.564083" lon="7.819689">
        <ele>309.209646</ele>
        <time>2021-11-08T21:17:34.546Z</time>
      </trkpt>
      <trkpt lat="47.563846" lon="7.818890">
        <ele>308.365018</ele>
        <time>2021-11-08T21:17:43.990Z</time>
      </trkpt>
      <trkpt lat="47.563292" lon="7.817642">
        <ele>307.160568</ele>
        <time>2021-11-08T21:18:00.147Z</time>
      </trkpt>
      <trkpt lat="47.562585" lon="7.816208">
        <ele>305.977684</ele>
        <time>2021-11-08T21:18:21.340Z</time>
      </trkpt>
      <trkpt lat="47.562165" lon="7.815429">
        <ele>306.266261</ele>
        <time>2021-11-08T21:18:35.632Z</time>
      </trkpt>
      <trkpt lat="47.561915" lon="7.815075">
        <ele>306.463182</ele>
        <time>2021-11-08T21:18:43.619Z</time>
      </trkpt>
      <trkpt lat="47.561796" lon="7.814938">
        <ele>306.549001</ele>
        <time>2021-11-08T21:18:47.235Z</time>
      </trkpt>
      <trkpt lat="47.561285" lon="7.814314">
        <ele>306.926090</ele>
        <time>2021-11-08T21:19:03.305Z</time>
      </trkpt>
      <trkpt lat="47.561222" lon="7.814241">
        <ele>306.952775</ele>
        <time>2021-11-08T21:19:05.432Z</time>
      </trkpt>
      <trkpt lat="47.560566" lon="7.813439">
        <ele>307.128626</ele>
        <time>2021-11-08T21:19:26.016Z</time>
      </trkpt>
      <trkpt lat="47.560089" lon="7.812856">
        <ele>307.256480</ele>
        <time>2021-11-08T21:19:37.535Z</time>
      </trkpt>
      <trkpt lat="47.559685" lon="7.812338">
        <ele>307.149159</ele>
        <time>2021-11-08T21:19:47.011Z</time>
      </trkpt>
      <trkpt lat="47.559556" lon="7.812039">
        <ele>306.995195</ele>
        <time>2021-11-08T21:19:51.319Z</time>
      </trkpt>
      <trkpt lat="47.559352" lon="7.811707">
        <ele>306.800396</ele>
        <time>2021-11-08T21:19:56.506Z</time>
      </trkpt>
      <trkpt lat="47.559226" lon="7.811439">
        <ele>306.658691</ele>
        <time>2021-11-08T21:20:20.802Z</time>
      </trkpt>
      <trkpt lat="47.559209" lon="7.811347">
        <ele>306.617308</ele>
        <time>2021-11-08T21:20:27.877Z</time>
      </trkpt>
      <trkpt lat="47.559195" lon="7.811248">
        <ele>306.573424</ele>
        <time>2021-11-08T21:20:34.912Z</time>
      </trkpt>
      <trkpt lat="47.559169" lon="7.811255">
        <ele>306.556436</ele>
        <time>2021-11-08T21:20:35.699Z</time>
      </trkpt>
      <trkpt lat="47.559109" lon="7.811205">
        <ele>306.512181</ele>
        <time>2021-11-08T21:20:36.635Z</time>
      </trkpt>
      <trkpt lat="47.558535" lon="7.810133">
        <ele>305.943055</ele>
        <time>2021-11-08T21:20:48.641Z</time>
      </trkpt>
      <trkpt lat="47.558370" lon="7.809826">
        <ele>305.790281</ele>
        <time>2021-11-08T21:20:52.224Z</time>
      </trkpt>
      <trkpt lat="47.558021" lon="7.809164">
        <ele>305.463274</ele>
        <time>2021-11-08T21:21:00.598Z</time>
      </trkpt>
      <trkpt lat="47.557309" lon="7.807844">
        <ele>304.189977</ele>
        <time>2021-11-08T21:21:14.475Z</time>
      </trkpt>
      <trkpt lat="47.557003" lon="7.807269">
        <ele>303.347281</ele>
        <time>2021-11-08T21:21:20.011Z</time>
      </trkpt>
      <trkpt lat="47.556616" lon="7.806548">
        <ele>302.287113</ele>
        <time>2021-11-08T21:21:26.688Z</time>
      </trkpt>
      <trkpt lat="47.556451" lon="7.806250">
        <ele>301.791500</ele>
        <time>2021-11-08T21:21:29.557Z</time>
      </trkpt>
      <trkpt lat="47.556315" lon="7.806002">
        <ele>301.332420</ele>
        <time>2021-11-08T21:21:31.894Z</time>
      </trkpt>
      <trkpt lat="47.556119" lon="7.805632">
        <ele>300.656671</ele>
        <time>2021-11-08T21:21:35.335Z</time>
      </trkpt>
      <trkpt lat="47.556046" lon="7.805515">
        <ele>300.427756</ele>
        <time>2021-11-08T21:21:36.520Z</time>
      </trkpt>
      <trkpt lat="47.555971" lon="7.805417">
        <ele>300.214889</ele>
        <time>2021-11-08T21:21:37.599Z</time>
      </trkpt>
      <trkpt lat="47.555886" lon="7.805343">
        <ele>300.005024</ele>
        <time>2021-11-08T21:21:38.653Z</time>
      </trkpt>
      <trkpt lat="47.555741" lon="7.805266">
        <ele>299.677130</ele>
        <time>2021-11-08T21:21:40.373Z</time>
      </trkpt>
      <trkpt lat="47.555230" lon="7.805228">
        <ele>298.587962</ele>
        <time>2021-11-08T21:21:45.892Z</time>
      </trkpt>
      <trkpt lat="47.554916" lon="7.805195">
        <ele>297.988733</ele>
        <time>2021-11-08T21:21:49.292Z</time>
      </trkpt>
      <trkpt lat="47.554809" lon="7.805192">
        <ele>297.813647</ele>
        <time>2021-11-08T21:21:50.440Z</time>
      </trkpt>
      <trkpt lat="47.554810" lon="7.805056">
        <ele>297.663476</ele>
        <time>2021-11-08T21:21:51.943Z</time>
      </trkpt>
      <trkpt lat="47.554808" lon="7.804930">
        <ele>297.524317</ele>
        <time>2021-11-08T21:21:53.217Z</time>
      </trkpt>
      <trkpt lat="47.554769" lon="7.804587">
        <ele>297.140263</ele>
        <time>2021-11-08T21:21:56.929Z</time>
      </trkpt>
      <trkpt lat="47.554726" lon="7.804275">
        <ele>296.788664</ele>
        <time>2021-11-08T21:22:00.324Z</time>
      </trkpt>
      <trkpt lat="47.554639" lon="7.803656">
        <ele>296.090541</ele>
        <time>2021-11-08T21:22:07.351Z</time>
      </trkpt>
      <trkpt lat="47.554459" lon="7.802666">
        <ele>295.232043</ele>
        <time>2021-11-08T21:22:18.937Z</time>
      </trkpt>
      <trkpt lat="47.554402" lon="7.802456">
        <ele>295.193813</ele>
        <time>2021-11-08T21:22:21.957Z</time>
      </trkpt>
      <trkpt lat="47.554367" lon="7.802333">
        <ele>295.171267</ele>
        <time>2021-11-08T21:22:23.715Z</time>
      </trkpt>
      <trkpt lat="47.553823" lon="7.801201">
        <ele>294.936551</ele>
        <time>2021-11-08T21:22:42.737Z</time>
      </trkpt>
      <trkpt lat="47.553782" lon="7.800961">
        <ele>294.894735</ele>
        <time>2021-11-08T21:22:46.400Z</time>
      </trkpt>
      <trkpt lat="47.553794" lon="7.800894">
        <ele>294.883027</ele>
        <time>2021-11-08T21:22:47.176Z</time>
      </trkpt>
      <trkpt lat="47.553712" lon="7.800873">
        <ele>294.862201</ele>
        <time>2021-11-08T21:22:48.889Z</time>
      </trkpt>
      <trkpt lat="47.553618" lon="7.800833">
        <ele>294.837725</ele>
        <time>2021-11-08T21:22:51.124Z</time>
      </trkpt>
      <trkpt lat="47.553550" lon="7.800790">
        <ele>294.776168</ele>
        <time>2021-11-08T21:22:52.933Z</time>
      </trkpt>
      <trkpt lat="47.553424" lon="7.800651">
        <ele>294.596848</ele>
        <time>2021-11-08T21:22:55.778Z</time>
      </trkpt>
      <trkpt lat="47.553292" lon="7.800469">
        <ele>294.391018</ele>
        <time>2021-11-08T21:22:59.876Z</time>
      </trkpt>
      <trkpt lat="47.553160" lon="7.800232">
        <ele>294.154281</ele>
        <time>2021-11-08T21:23:03.611Z</time>
      </trkpt>
      <trkpt lat="47.552829" lon="7.799559">
        <ele>293.512715</ele>
        <time>2021-11-08T21:23:13.341Z</time>
      </trkpt>
      <trkpt lat="47.552439" lon="7.798990">
        <ele>292.887916</ele>
        <time>2021-11-08T21:23:22.212Z</time>
      </trkpt>
      <trkpt lat="47.552289" lon="7.798703">
        <ele>292.281518</ele>
        <time>2021-11-08T21:23:25.854Z</time>
      </trkpt>
      <trkpt lat="47.552186" lon="7.798449">
        <ele>291.614064</ele>
        <time>2021-11-08T21:23:28.844Z</time>
      </trkpt>
      <trkpt lat="47.552152" lon="7.798359">
        <ele>291.381745</ele>
        <time>2021-11-08T21:23:29.763Z</time>
      </trkpt>
      <trkpt lat="47.552120" lon="7.798162">
        <ele>290.925338</ele>
        <time>2021-11-08T21:23:31.838Z</time>
      </trkpt>
      <trkpt lat="47.552084" lon="7.798083">
        <ele>290.710630</ele>
        <time>2021-11-08T21:23:32.739Z</time>
      </trkpt>
      <trkpt lat="47.552147" lon="7.797891">
        <ele>290.229754</ele>
        <time>2021-11-08T21:23:34.193Z</time>
      </trkpt>
      <trkpt lat="47.552152" lon="7.797876">
        <ele>290.192070</ele>
        <time>2021-11-08T21:23:34.288Z</time>
      </trkpt>
      <trkpt lat="47.552493" lon="7.797048">
        <ele>288.007229</ele>
        <time>2021-11-08T21:23:40.719Z</time>
      </trkpt>
      <trkpt lat="47.552762" lon="7.796425">
        <ele>286.516094</ele>
        <time>2021-11-08T21:23:45.668Z</time>
      </trkpt>
      <trkpt lat="47.552817" lon="7.796239">
        <ele>286.242870</ele>
        <time>2021-11-08T21:23:47.080Z</time>
      </trkpt>
      <trkpt lat="47.552886" lon="7.795976">
        <ele>285.863215</ele>
        <time>2021-11-08T21:23:49.075Z</time>
      </trkpt>
      <trkpt lat="47.552930" lon="7.795600">
        <ele>285.349769</ele>
        <time>2021-11-08T21:23:51.969Z</time>
      </trkpt>
      <trkpt lat="47.552917" lon="7.795354">
        <ele>285.017770</ele>
        <time>2021-11-08T21:23:53.870Z</time>
      </trkpt>
      <trkpt lat="47.552909" lon="7.795229">
        <ele>284.848832</ele>
        <time>2021-11-08T21:23:54.851Z</time>
      </trkpt>
      <trkpt lat="47.552892" lon="7.795106">
        <ele>284.679904</ele>
        <time>2021-11-08T21:23:55.776Z</time>
      </trkpt>
      <trkpt lat="47.552861" lon="7.794992">
        <ele>284.514538</ele>
        <time>2021-11-08T21:23:56.663Z</time>
      </trkpt>
      <trkpt lat="47.552837" lon="7.794925">
        <ele>284.412481</ele>
        <time>2021-11-08T21:23:57.240Z</time>
      </trkpt>
      <trkpt lat="47.552826" lon="7.794894">
        <ele>284.365358</ele>
        <time>2021-11-08T21:23:57.505Z</time>
      </trkpt>
      <trkpt lat="47.552786" lon="7.794796">
        <ele>284.211264</ele>
        <time>2021-11-08T21:23:58.346Z</time>
      </trkpt>
      <trkpt lat="47.552763" lon="7.794750">
        <ele>284.134238</ele>
        <time>2021-11-08T21:23:58.867Z</time>
      </trkpt>
      <trkpt lat="47.552644" lon="7.794507">
        <ele>283.730287</ele>
        <time>2021-11-08T21:24:01.137Z</time>
      </trkpt>
      <trkpt lat="47.552532" lon="7.794285">
        <ele>283.357362</ele>
        <time>2021-11-08T21:24:03.310Z</time>
      </trkpt>
      <trkpt lat="47.552494" lon="7.794200">
        <ele>283.220182</ele>
        <time>2021-11-08T21:24:04.123Z</time>
      </trkpt>
      <trkpt lat="47.552384" lon="7.793915">
        <ele>283.071642</ele>
        <time>2021-11-08T21:24:06.862Z</time>
      </trkpt>
      <trkpt lat="47.552369" lon="7.793872">
        <ele>283.052955</ele>
        <time>2021-11-08T21:24:07.500Z</time>
      </trkpt>
      <trkpt lat="47.552292" lon="7.793607">
        <ele>282.941569</ele>
        <time>2021-11-08T21:24:09.899Z</time>
      </trkpt>
      <trkpt lat="47.552233" lon="7.793294">
        <ele>282.816107</ele>
        <time>2021-11-08T21:24:13.314Z</time>
      </trkpt>
      <trkpt lat="47.552216" lon="7.793160">
        <ele>282.763468</ele>
        <time>2021-11-08T21:24:14.474Z</time>
      </trkpt>
      <trkpt lat="47.552198" lon="7.792976">
        <ele>282.691690</ele>
        <time>2021-11-08T21:24:16.208Z</time>
      </trkpt>
      <trkpt lat="47.552184" lon="7.792540">
        <ele>282.523175</ele>
        <time>2021-11-08T21:24:20.615Z</time>
      </trkpt>
      <trkpt lat="47.552180" lon="7.792294">
        <ele>282.428175</ele>
        <time>2021-11-08T21:24:23.135Z</time>
      </trkpt>
      <trkpt lat="47.552182" lon="7.792040">
        <ele>282.330108</ele>
        <time>2021-11-08T21:24:25.300Z</time>
      </trkpt>
      <trkpt lat="47.552201" lon="7.791031">
        <ele>281.863600</ele>
        <time>2021-11-08T21:24:33.798Z</time>
      </trkpt>
      <trkpt lat="47.552135" lon="7.790302">
        <ele>281.480645</ele>
        <time>2021-11-08T21:24:40.227Z</time>
      </trkpt>
      <trkpt lat="47.552036" lon="7.789826">
        <ele>281.221314</ele>
        <time>2021-11-08T21:24:44.556Z</time>
      </trkpt>
      <trkpt lat="47.551858" lon="7.788906">
        <ele>280.699133</ele>
        <time>2021-11-08T21:24:52.588Z</time>
      </trkpt>
      <trkpt lat="47.551712" lon="7.788013">
        <ele>279.993218</ele>
        <time>2021-11-08T21:25:00.089Z</time>
      </trkpt>
      <trkpt lat="47.551694" lon="7.787879">
        <ele>279.888249</ele>
        <time>2021-11-08T21:25:01.202Z</time>
      </trkpt>
      <trkpt lat="47.551690" lon="7.787827">
        <ele>279.848040</ele>
        <time>2021-11-08T21:25:01.629Z</time>
      </trkpt>
      <trkpt lat="47.551672" lon="7.787603">
        <ele>279.674729</ele>
        <time>2021-11-08T21:25:03.382Z</time>
      </trkpt>
      <trkpt lat="47.551498" lon="7.785081">
        <ele>277.969515</ele>
        <time>2021-11-08T21:25:23.819Z</time>
      </trkpt>
      <trkpt lat="47.551479" lon="7.784929">
        <ele>277.879585</ele>
        <time>2021-11-08T21:25:25.074Z</time>
      </trkpt>
      <trkpt lat="47.551510" lon="7.784910">
        <ele>277.850668</ele>
        <time>2021-11-08T21:25:25.546Z</time>
      </trkpt>
      <trkpt lat="47.551531" lon="7.784884">
        <ele>277.827079</ele>
        <time>2021-11-08T21:25:25.898Z</time>
      </trkpt>
      <trkpt lat="47.551548" lon="7.784841">
        <ele>277.798088</ele>
        <time>2021-11-08T21:25:26.361Z</time>
      </trkpt>
      <trkpt lat="47.551554" lon="7.784788">
        <ele>277.766824</ele>
        <time>2021-11-08T21:25:26.831Z</time>
      </trkpt>
      <trkpt lat="47.551547" lon="7.784737">
        <ele>277.736548</ele>
        <time>2021-11-08T21:25:27.279Z</time>
      </trkpt>
      <trkpt lat="47.551525" lon="7.784691">
        <ele>277.703749</ele>
        <time>2021-11-08T21:25:27.787Z</time>
      </trkpt>
      <trkpt lat="47.551500" lon="7.784666">
        <ele>277.677752</ele>
        <time>2021-11-08T21:25:28.166Z</time>
      </trkpt>
      <trkpt lat="47.551472" lon="7.784654">
        <ele>277.652628</ele>
        <time>2021-11-08T21:25:28.531Z</time>
      </trkpt>
      <trkpt lat="47.551437" lon="7.784657">
        <ele>277.622409</ele>
        <time>2021-11-08T21:25:28.959Z</time>
      </trkpt>
      <trkpt lat="47.551439" lon="7.784323">
        <ele>277.428095</ele>
        <time>2021-11-08T21:25:31.883Z</time>
      </trkpt>
      <trkpt lat="47.551302" lon="7.782671">
        <ele>276.980893</ele>
        <time>2021-11-08T21:25:47.423Z</time>
      </trkpt>
      <trkpt lat="47.551270" lon="7.782299">
        <ele>276.921580</ele>
        <time>2021-11-08T21:25:51.022Z</time>
      </trkpt>
      <trkpt lat="47.551230" lon="7.781831">
        <ele>276.846967</ele>
        <time>2021-11-08T21:25:55.605Z</time>
      </trkpt>
      <trkpt lat="47.551198" lon="7.781475">
        <ele>276.790162</ele>
        <time>2021-11-08T21:25:59.109Z</time>
      </trkpt>
      <trkpt lat="47.551270" lon="7.781390">
        <ele>276.768589</ele>
        <time>2021-11-08T21:26:00.881Z</time>
      </trkpt>
      <trkpt lat="47.551208" lon="7.780694">
        <ele>276.600105</ele>
        <time>2021-11-08T21:26:07.606Z</time>
      </trkpt>
      <trkpt lat="47.551085" lon="7.779125">
        <ele>276.201415</ele>
        <time>2021-11-08T21:26:22.105Z</time>
      </trkpt>
      <trkpt lat="47.550982" lon="7.777915">
        <ele>275.979033</ele>
        <time>2021-11-08T21:26:32.669Z</time>
      </trkpt>
      <trkpt lat="47.550963" lon="7.777797">
        <ele>275.962351</ele>
        <time>2021-11-08T21:26:33.679Z</time>
      </trkpt>
      <trkpt lat="47.550816" lon="7.776900">
        <ele>275.835411</ele>
        <time>2021-11-08T21:26:42.400Z</time>
      </trkpt>
      <trkpt lat="47.550782" lon="7.776690">
        <ele>275.805713</ele>
        <time>2021-11-08T21:26:44.449Z</time>
      </trkpt>
      <trkpt lat="47.550607" lon="7.775871">
        <ele>275.781799</ele>
        <time>2021-11-08T21:26:53.795Z</time>
      </trkpt>
      <trkpt lat="47.550598" lon="7.775828">
        <ele>275.797004</ele>
        <time>2021-11-08T21:26:54.277Z</time>
      </trkpt>
      <trkpt lat="47.550505" lon="7.775364">
        <ele>275.960486</ele>
        <time>2021-11-08T21:26:59.795Z</time>
      </trkpt>
      <trkpt lat="47.550320" lon="7.774602">
        <ele>276.234000</ele>
        <time>2021-11-08T21:27:09.257Z</time>
      </trkpt>
      <trkpt lat="47.550090" lon="7.773646">
        <ele>276.576794</ele>
        <time>2021-11-08T21:27:21.130Z</time>
      </trkpt>
      <trkpt lat="47.550061" lon="7.773283">
        <ele>276.670809</ele>
        <time>2021-11-08T21:27:25.268Z</time>
      </trkpt>
      <trkpt lat="47.550203" lon="7.772543">
        <ele>276.840991</ele>
        <time>2021-11-08T21:27:33.478Z</time>
      </trkpt>
      <trkpt lat="47.550199" lon="7.772076">
        <ele>276.944303</ele>
        <time>2021-11-08T21:27:38.452Z</time>
      </trkpt>
      <trkpt lat="47.550069" lon="7.771373">
        <ele>277.105545</ele>
        <time>2021-11-08T21:27:45.975Z</time>
      </trkpt>
      <trkpt lat="47.549845" lon="7.770734">
        <ele>277.372201</ele>
        <time>2021-11-08T21:27:54.019Z</time>
      </trkpt>
      <trkpt lat="47.549714" lon="7.770276">
        <ele>277.677809</ele>
        <time>2021-11-08T21:27:59.812Z</time>
      </trkpt>
      <trkpt lat="47.549678" lon="7.770148">
        <ele>277.763003</ele>
        <time>2021-11-08T21:28:01.521Z</time>
      </trkpt>
      <trkpt lat="47.549404" lon="7.769015">
        <ele>278.502427</ele>
        <time>2021-11-08T21:28:16.249Z</time>
      </trkpt>
      <trkpt lat="47.549363" lon="7.768846">
        <ele>278.612761</ele>
        <time>2021-11-08T21:28:18.832Z</time>
      </trkpt>
      <trkpt lat="47.549184" lon="7.768021">
        <ele>279.192063</ele>
        <time>2021-11-08T21:28:31.039Z</time>
      </trkpt>
      <trkpt lat="47.548990" lon="7.767248">
        <ele>279.777026</ele>
        <time>2021-11-08T21:28:43.168Z</time>
      </trkpt>
      <trkpt lat="47.548565" lon="7.765680">
        <ele>280.513102</ele>
        <time>2021-11-08T21:29:03.956Z</time>
      </trkpt>
      <trkpt lat="47.547927" lon="7.763277">
        <ele>278.712876</ele>
        <time>2021-11-08T21:29:24.549Z</time>
      </trkpt>
      <trkpt lat="47.547909" lon="7.763208">
        <ele>278.621323</ele>
        <time>2021-11-08T21:29:25.007Z</time>
      </trkpt>
      <trkpt lat="47.547848" lon="7.762928">
        <ele>278.257181</ele>
        <time>2021-11-08T21:29:27.249Z</time>
      </trkpt>
      <trkpt lat="47.547778" lon="7.762713">
        <ele>277.961750</ele>
        <time>2021-11-08T21:29:28.940Z</time>
      </trkpt>
      <trkpt lat="47.547577" lon="7.762307">
        <ele>277.338595</ele>
        <time>2021-11-08T21:29:32.704Z</time>
      </trkpt>
      <trkpt lat="47.547194" lon="7.761352">
        <ele>275.963748</ele>
        <time>2021-11-08T21:29:40.816Z</time>
      </trkpt>
      <trkpt lat="47.546989" lon="7.760612">
        <ele>275.795417</ele>
        <time>2021-11-08T21:29:47.289Z</time>
      </trkpt>
      <trkpt lat="47.546948" lon="7.760482">
        <ele>275.808759</ele>
        <time>2021-11-08T21:29:48.536Z</time>
      </trkpt>
      <trkpt lat="47.546870" lon="7.760301">
        <ele>275.828727</ele>
        <time>2021-11-08T21:29:50.437Z</time>
      </trkpt>
      <trkpt lat="47.546804" lon="7.760164">
        <ele>275.844378</ele>
        <time>2021-11-08T21:29:51.890Z</time>
      </trkpt>
      <trkpt lat="47.546552" lon="7.759727">
        <ele>275.897823</ele>
        <time>2021-11-08T21:29:57.874Z</time>
      </trkpt>
      <trkpt lat="47.546312" lon="7.759326">
        <ele>275.947657</ele>
        <time>2021-11-08T21:30:04.238Z</time>
      </trkpt>
      <trkpt lat="47.546264" lon="7.759224">
        <ele>275.959219</ele>
        <time>2021-11-08T21:30:05.872Z</time>
      </trkpt>
      <trkpt lat="47.545911" lon="7.758393">
        <ele>277.429979</ele>
        <time>2021-11-08T21:30:22.272Z</time>
      </trkpt>
      <trkpt lat="47.545677" lon="7.757815">
        <ele>278.828018</ele>
        <time>2021-11-08T21:30:34.724Z</time>
      </trkpt>
      <trkpt lat="47.545429" lon="7.757231">
        <ele>280.259189</ele>
        <time>2021-11-08T21:30:48.030Z</time>
      </trkpt>
      <trkpt lat="47.545360" lon="7.757065">
        <ele>280.663571</ele>
        <time>2021-11-08T21:30:52.689Z</time>
      </trkpt>
      <trkpt lat="47.545326" lon="7.756949">
        <ele>280.925894</ele>
        <time>2021-11-08T21:30:55.441Z</time>
      </trkpt>
      <trkpt lat="47.545304" lon="7.756852">
        <ele>281.138155</ele>
        <time>2021-11-08T21:30:57.642Z</time>
      </trkpt>
      <trkpt lat="47.545260" lon="7.756637">
        <ele>281.595550</ele>
        <time>2021-11-08T21:31:02.699Z</time>
      </trkpt>
      <trkpt lat="47.545021" lon="7.756243">
        <ele>282.590391</ele>
        <time>2021-11-08T21:31:13.789Z</time>
      </trkpt>
      <trkpt lat="47.544022" lon="7.753705">
        <ele>287.380246</ele>
        <time>2021-11-08T21:32:02.259Z</time>
      </trkpt>
      <trkpt lat="47.543798" lon="7.753068">
        <ele>288.111966</ele>
        <time>2021-11-08T21:32:11.999Z</time>
      </trkpt>
      <trkpt lat="47.543319" lon="7.751355">
        <ele>289.496186</ele>
        <time>2021-11-08T21:32:35.233Z</time>
      </trkpt>
      <trkpt lat="47.543222" lon="7.751091">
        <ele>289.601440</ele>
        <time>2021-11-08T21:32:38.466Z</time>
      </trkpt>
      <trkpt lat="47.543115" lon="7.750826">
        <ele>289.709570</ele>
        <time>2021-11-08T21:32:43.273Z</time>
      </trkpt>
      <trkpt lat="47.543033" lon="7.750614">
        <ele>289.795131</ele>
        <time>2021-11-08T21:32:45.794Z</time>
      </trkpt>
      <trkpt lat="47.542679" lon="7.749889">
        <ele>290.108464</ele>
        <time>2021-11-08T21:32:55.767Z</time>
      </trkpt>
      <trkpt lat="47.542614" lon="7.749755">
        <ele>290.164920</ele>
        <time>2021-11-08T21:32:57.341Z</time>
      </trkpt>
      <trkpt lat="47.542390" lon="7.749307">
        <ele>290.169306</ele>
        <time>2021-11-08T21:33:03.157Z</time>
      </trkpt>
      <trkpt lat="47.542347" lon="7.749227">
        <ele>290.170111</ele>
        <time>2021-11-08T21:33:04.720Z</time>
      </trkpt>
      <trkpt lat="47.542132" lon="7.748742">
        <ele>290.174676</ele>
        <time>2021-11-08T21:33:12.293Z</time>
      </trkpt>
      <trkpt lat="47.541758" lon="7.747784">
        <ele>290.183382</ele>
        <time>2021-11-08T21:33:26.944Z</time>
      </trkpt>
      <trkpt lat="47.541583" lon="7.747186">
        <ele>290.195953</ele>
        <time>2021-11-08T21:33:36.122Z</time>
      </trkpt>
      <trkpt lat="47.541511" lon="7.746885">
        <ele>290.205501</ele>
        <time>2021-11-08T21:33:40.593Z</time>
      </trkpt>
      <trkpt lat="47.541432" lon="7.746552">
        <ele>290.216055</ele>
        <time>2021-11-08T21:33:45.704Z</time>
      </trkpt>
      <trkpt lat="47.541167" lon="7.745463">
        <ele>290.250667</ele>
        <time>2021-11-08T21:34:01.515Z</time>
      </trkpt>
      <trkpt lat="47.541160" lon="7.745250">
        <ele>290.257043</ele>
        <time>2021-11-08T21:34:04.369Z</time>
      </trkpt>
      <trkpt lat="47.541148" lon="7.745144">
        <ele>290.260257</ele>
        <time>2021-11-08T21:34:05.898Z</time>
      </trkpt>
      <trkpt lat="47.541130" lon="7.745083">
        <ele>290.262247</ele>
        <time>2021-11-08T21:34:06.820Z</time>
      </trkpt>
      <trkpt lat="47.541038" lon="7.744940">
        <ele>290.267188</ele>
        <time>2021-11-08T21:34:09.203Z</time>
      </trkpt>
      <trkpt lat="47.541019" lon="7.744859">
        <ele>290.268812</ele>
        <time>2021-11-08T21:34:10.439Z</time>
      </trkpt>
      <trkpt lat="47.540913" lon="7.744421">
        <ele>290.277626</ele>
        <time>2021-11-08T21:34:16.990Z</time>
      </trkpt>
      <trkpt lat="47.540738" lon="7.743641">
        <ele>290.293196</ele>
        <time>2021-11-08T21:34:28.817Z</time>
      </trkpt>
      <trkpt lat="47.540617" lon="7.742875">
        <ele>290.308098</ele>
        <time>2021-11-08T21:34:39.768Z</time>
      </trkpt>
      <trkpt lat="47.540589" lon="7.742558">
        <ele>290.314154</ele>
        <time>2021-11-08T21:34:44.141Z</time>
      </trkpt>
      <trkpt lat="47.540552" lon="7.742240">
        <ele>290.199455</ele>
        <time>2021-11-08T21:34:48.400Z</time>
      </trkpt>
      <trkpt lat="47.540542" lon="7.742089">
        <ele>290.121166</ele>
        <time>2021-11-08T21:34:50.396Z</time>
      </trkpt>
      <trkpt lat="47.540438" lon="7.740453">
        <ele>289.273271</ele>
        <time>2021-11-08T21:35:10.265Z</time>
      </trkpt>
      <trkpt lat="47.540374" lon="7.739620">
        <ele>288.797845</ele>
        <time>2021-11-08T21:35:19.719Z</time>
      </trkpt>
      <trkpt lat="47.540372" lon="7.739490">
        <ele>288.702159</ele>
        <time>2021-11-08T21:35:21.267Z</time>
      </trkpt>
      <trkpt lat="47.540387" lon="7.739372">
        <ele>288.613802</ele>
        <time>2021-11-08T21:35:22.752Z</time>
      </trkpt>
      <trkpt lat="47.540394" lon="7.739259">
        <ele>288.530301</ele>
        <time>2021-11-08T21:35:24.081Z</time>
      </trkpt>
      <trkpt lat="47.540388" lon="7.739213">
        <ele>288.495826</ele>
        <time>2021-11-08T21:35:24.474Z</time>
      </trkpt>
      <trkpt lat="47.540032" lon="7.737141">
        <ele>286.991709</ele>
        <time>2021-11-08T21:35:48.997Z</time>
      </trkpt>
      <trkpt lat="47.539305" lon="7.734151">
        <ele>287.662255</ele>
        <time>2021-11-08T21:36:35.790Z</time>
      </trkpt>
      <trkpt lat="47.539263" lon="7.733885">
        <ele>287.803484</ele>
        <time>2021-11-08T21:36:40.191Z</time>
      </trkpt>
      <trkpt lat="47.539178" lon="7.733656">
        <ele>287.938588</ele>
        <time>2021-11-08T21:36:44.341Z</time>
      </trkpt>
      <trkpt lat="47.538887" lon="7.732454">
        <ele>288.598756</ele>
        <time>2021-11-08T21:37:05.028Z</time>
      </trkpt>
      <trkpt lat="47.538512" lon="7.730958">
        <ele>289.185422</ele>
        <time>2021-11-08T21:37:30.531Z</time>
      </trkpt>
      <trkpt lat="47.538339" lon="7.730082">
        <ele>289.494401</ele>
        <time>2021-11-08T21:37:43.908Z</time>
      </trkpt>
      <trkpt lat="47.538275" lon="7.729744">
        <ele>289.613239</ele>
        <time>2021-11-08T21:37:48.772Z</time>
      </trkpt>
      <trkpt lat="47.538248" lon="7.729713">
        <ele>289.630369</ele>
        <time>2021-11-08T21:37:49.387Z</time>
      </trkpt>
      <trkpt lat="47.538168" lon="7.729263">
        <ele>289.277321</ele>
        <time>2021-11-08T21:37:55.471Z</time>
      </trkpt>
      <trkpt lat="47.538148" lon="7.729131">
        <ele>289.169950</ele>
        <time>2021-11-08T21:37:57.140Z</time>
      </trkpt>
      <trkpt lat="47.538123" lon="7.729100">
        <ele>289.131619</ele>
        <time>2021-11-08T21:37:57.733Z</time>
      </trkpt>
      <trkpt lat="47.538083" lon="7.728919">
        <ele>288.980462</ele>
        <time>2021-11-08T21:38:00.065Z</time>
      </trkpt>
      <trkpt lat="47.538034" lon="7.728597">
        <ele>288.718484</ele>
        <time>2021-11-08T21:38:04.078Z</time>
      </trkpt>
      <trkpt lat="47.537932" lon="7.727936">
        <ele>288.180330</ele>
        <time>2021-11-08T21:38:11.878Z</time>
      </trkpt>
      <trkpt lat="47.537861" lon="7.727909">
        <ele>288.094152</ele>
        <time>2021-11-08T21:38:13.065Z</time>
      </trkpt>
      <trkpt lat="47.537824" lon="7.727674">
        <ele>287.902631</ele>
        <time>2021-11-08T21:38:14.919Z</time>
      </trkpt>
      <trkpt lat="47.537675" lon="7.726458">
        <ele>285.750680</ele>
        <time>2021-11-08T21:38:23.861Z</time>
      </trkpt>
      <trkpt lat="47.537323" lon="7.724748">
        <ele>281.557446</ele>
        <time>2021-11-08T21:38:35.603Z</time>
      </trkpt>
      <trkpt lat="47.537127" lon="7.723974">
        <ele>279.826119</ele>
        <time>2021-11-08T21:38:41.039Z</time>
      </trkpt>
      <trkpt lat="47.537106" lon="7.723875">
        <ele>279.613291</ele>
        <time>2021-11-08T21:38:41.723Z</time>
      </trkpt>
      <trkpt lat="47.537075" lon="7.723694">
        <ele>279.230314</ele>
        <time>2021-11-08T21:38:42.952Z</time>
      </trkpt>
      <trkpt lat="47.536854" lon="7.722329">
        <ele>276.351418</ele>
        <time>2021-11-08T21:38:52.865Z</time>
      </trkpt>
      <trkpt lat="47.536667" lon="7.721718">
        <ele>275.114377</ele>
        <time>2021-11-08T21:38:57.988Z</time>
      </trkpt>
      <trkpt lat="47.536590" lon="7.721558">
        <ele>274.778645</ele>
        <time>2021-11-08T21:38:59.505Z</time>
      </trkpt>
      <trkpt lat="47.536471" lon="7.721389">
        <ele>274.361403</ele>
        <time>2021-11-08T21:39:01.434Z</time>
      </trkpt>
      <trkpt lat="47.536092" lon="7.720862">
        <ele>273.045762</ele>
        <time>2021-11-08T21:39:06.821Z</time>
      </trkpt>
      <trkpt lat="47.535988" lon="7.720671">
        <ele>272.626490</ele>
        <time>2021-11-08T21:39:08.480Z</time>
      </trkpt>
      <trkpt lat="47.535897" lon="7.720461">
        <ele>272.200115</ele>
        <time>2021-11-08T21:39:10.184Z</time>
      </trkpt>
      <trkpt lat="47.535876" lon="7.720409">
        <ele>272.096581</ele>
        <time>2021-11-08T21:39:10.601Z</time>
      </trkpt>
      <trkpt lat="47.535806" lon="7.720212">
        <ele>271.716197</ele>
        <time>2021-11-08T21:39:12.129Z</time>
      </trkpt>
      <trkpt lat="47.535746" lon="7.719899">
        <ele>271.182590</ele>
        <time>2021-11-08T21:39:14.431Z</time>
      </trkpt>
      <trkpt lat="47.535713" lon="7.719682">
        <ele>270.891916</ele>
        <time>2021-11-08T21:39:15.974Z</time>
      </trkpt>
      <trkpt lat="47.535661" lon="7.719317">
        <ele>270.404440</ele>
        <time>2021-11-08T21:39:18.693Z</time>
      </trkpt>
      <trkpt lat="47.535608" lon="7.718948">
        <ele>269.911449</ele>
        <time>2021-11-08T21:39:21.461Z</time>
      </trkpt>
      <trkpt lat="47.535572" lon="7.718705">
        <ele>269.586347</ele>
        <time>2021-11-08T21:39:23.166Z</time>
      </trkpt>
      <trkpt lat="47.535558" lon="7.718578">
        <ele>269.418189</ele>
        <time>2021-11-08T21:39:24.253Z</time>
      </trkpt>
      <trkpt lat="47.535516" lon="7.718273">
        <ele>269.011416</ele>
        <time>2021-11-08T21:39:26.486Z</time>
      </trkpt>
      <trkpt lat="47.535494" lon="7.718111">
        <ele>268.795478</ele>
        <time>2021-11-08T21:39:27.644Z</time>
      </trkpt>
      <trkpt lat="47.535490" lon="7.718086">
        <ele>268.761904</ele>
        <time>2021-11-08T21:39:28.171Z</time>
      </trkpt>
      <trkpt lat="47.535419" lon="7.717562">
        <ele>268.063498</ele>
        <time>2021-11-08T21:39:32.192Z</time>
      </trkpt>
      <trkpt lat="47.535384" lon="7.717243">
        <ele>267.849286</ele>
        <time>2021-11-08T21:39:34.817Z</time>
      </trkpt>
      <trkpt lat="47.535370" lon="7.716931">
        <ele>268.081676</ele>
        <time>2021-11-08T21:39:38.093Z</time>
      </trkpt>
      <trkpt lat="47.535347" lon="7.716584">
        <ele>268.340807</ele>
        <time>2021-11-08T21:39:41.712Z</time>
      </trkpt>
      <trkpt lat="47.535313" lon="7.716133">
        <ele>268.678073</ele>
        <time>2021-11-08T21:39:48.862Z</time>
      </trkpt>
      <trkpt lat="47.535254" lon="7.715336">
        <ele>269.273955</ele>
        <time>2021-11-08T21:40:01.412Z</time>
      </trkpt>
      <trkpt lat="47.535269" lon="7.714924">
        <ele>269.580599</ele>
        <time>2021-11-08T21:40:07.544Z</time>
      </trkpt>
      <trkpt lat="47.535269" lon="7.714705">
        <ele>269.743360</ele>
        <time>2021-11-08T21:40:10.804Z</time>
      </trkpt>
      <trkpt lat="47.535269" lon="7.714432">
        <ele>269.945545</ele>
        <time>2021-11-08T21:40:14.454Z</time>
      </trkpt>
      <trkpt lat="47.535222" lon="7.713738">
        <ele>270.462006</ele>
        <time>2021-11-08T21:40:23.961Z</time>
      </trkpt>
      <trkpt lat="47.535202" lon="7.713540">
        <ele>270.610249</ele>
        <time>2021-11-08T21:40:26.651Z</time>
      </trkpt>
      <trkpt lat="47.535174" lon="7.713262">
        <ele>270.818377</ele>
        <time>2021-11-08T21:40:30.110Z</time>
      </trkpt>
      <trkpt lat="47.535128" lon="7.712889">
        <ele>271.099140</ele>
        <time>2021-11-08T21:40:34.904Z</time>
      </trkpt>
      <trkpt lat="47.535110" lon="7.712748">
        <ele>271.205396</ele>
        <time>2021-11-08T21:40:36.645Z</time>
      </trkpt>
      <trkpt lat="47.535067" lon="7.712436">
        <ele>271.441186</ele>
        <time>2021-11-08T21:40:40.680Z</time>
      </trkpt>
      <trkpt lat="47.535045" lon="7.712277">
        <ele>271.561367</ele>
        <time>2021-11-08T21:40:42.547Z</time>
      </trkpt>
      <trkpt lat="47.534965" lon="7.711682">
        <ele>271.833024</ele>
        <time>2021-11-08T21:40:49.749Z</time>
      </trkpt>
      <trkpt lat="47.534909" lon="7.711265">
        <ele>271.951074</ele>
        <time>2021-11-08T21:40:54.776Z</time>
      </trkpt>
      <trkpt lat="47.534768" lon="7.710504">
        <ele>272.170181</ele>
        <time>2021-11-08T21:41:03.876Z</time>
      </trkpt>
      <trkpt lat="47.534734" lon="7.710344">
        <ele>272.216754</ele>
        <time>2021-11-08T21:41:05.755Z</time>
      </trkpt>
      <trkpt lat="47.534641" lon="7.709912">
        <ele>272.342651</ele>
        <time>2021-11-08T21:41:10.594Z</time>
      </trkpt>
      <trkpt lat="47.534615" lon="7.709805">
        <ele>272.374226</ele>
        <time>2021-11-08T21:41:11.786Z</time>
      </trkpt>
      <trkpt lat="47.534577" lon="7.709613">
        <ele>272.429779</ele>
        <time>2021-11-08T21:41:13.863Z</time>
      </trkpt>
      <trkpt lat="47.534509" lon="7.709297">
        <ele>272.419932</ele>
        <time>2021-11-08T21:41:17.027Z</time>
      </trkpt>
      <trkpt lat="47.534390" lon="7.708741">
        <ele>272.285374</ele>
        <time>2021-11-08T21:41:22.424Z</time>
      </trkpt>
      <trkpt lat="47.534357" lon="7.708594">
        <ele>272.249636</ele>
        <time>2021-11-08T21:41:23.814Z</time>
      </trkpt>
      <trkpt lat="47.534132" lon="7.707553">
        <ele>271.997475</ele>
        <time>2021-11-08T21:41:33.623Z</time>
      </trkpt>
      <trkpt lat="47.534017" lon="7.707047">
        <ele>271.874305</ele>
        <time>2021-11-08T21:41:38.647Z</time>
      </trkpt>
      <trkpt lat="47.533747" lon="7.705801">
        <ele>271.465232</ele>
        <time>2021-11-08T21:41:50.381Z</time>
      </trkpt>
      <trkpt lat="47.533715" lon="7.705652">
        <ele>271.415312</ele>
        <time>2021-11-08T21:41:51.784Z</time>
      </trkpt>
      <trkpt lat="47.533704" lon="7.705593">
        <ele>271.395771</ele>
        <time>2021-11-08T21:41:52.331Z</time>
      </trkpt>
      <trkpt lat="47.533527" lon="7.704796">
        <ele>271.127903</ele>
        <time>2021-11-08T21:41:59.734Z</time>
      </trkpt>
      <trkpt lat="47.533301" lon="7.703780">
        <ele>270.815864</ele>
        <time>2021-11-08T21:42:09.521Z</time>
      </trkpt>
      <trkpt lat="47.532835" lon="7.701725">
        <ele>270.208227</ele>
        <time>2021-11-08T21:42:29.314Z</time>
      </trkpt>
      <trkpt lat="47.532793" lon="7.701522">
        <ele>270.136998</ele>
        <time>2021-11-08T21:42:31.192Z</time>
      </trkpt>
      <trkpt lat="47.532428" lon="7.699970">
        <ele>269.585645</ele>
        <time>2021-11-08T21:42:46.161Z</time>
      </trkpt>
      <trkpt lat="47.532407" lon="7.699875">
        <ele>269.552109</ele>
        <time>2021-11-08T21:42:47.054Z</time>
      </trkpt>
      <trkpt lat="47.532378" lon="7.699751">
        <ele>269.508084</ele>
        <time>2021-11-08T21:42:48.214Z</time>
      </trkpt>
      <trkpt lat="47.532326" lon="7.699504">
        <ele>269.421284</ele>
        <time>2021-11-08T21:42:50.576Z</time>
      </trkpt>
      <trkpt lat="47.532317" lon="7.699464">
        <ele>269.407139</ele>
        <time>2021-11-08T21:42:50.929Z</time>
      </trkpt>
      <trkpt lat="47.532234" lon="7.699115">
        <ele>269.140855</ele>
        <time>2021-11-08T21:42:54.124Z</time>
      </trkpt>
      <trkpt lat="47.532082" lon="7.698472">
        <ele>268.553795</ele>
        <time>2021-11-08T21:42:59.748Z</time>
      </trkpt>
      <trkpt lat="47.531987" lon="7.698056">
        <ele>268.175372</ele>
        <time>2021-11-08T21:43:03.257Z</time>
      </trkpt>
      <trkpt lat="47.531820" lon="7.697324">
        <ele>267.509559</ele>
        <time>2021-11-08T21:43:09.231Z</time>
      </trkpt>
      <trkpt lat="47.531503" lon="7.695640">
        <ele>266.176957</ele>
        <time>2021-11-08T21:43:22.477Z</time>
      </trkpt>
      <trkpt lat="47.531279" lon="7.693388">
        <ele>265.511428</ele>
        <time>2021-11-08T21:43:42.711Z</time>
      </trkpt>
      <trkpt lat="47.531252" lon="7.693049">
        <ele>265.653400</ele>
        <time>2021-11-08T21:43:47.283Z</time>
      </trkpt>
      <trkpt lat="47.531247" lon="7.692506">
        <ele>265.879261</ele>
        <time>2021-11-08T21:43:54.803Z</time>
      </trkpt>
      <trkpt lat="47.531250" lon="7.692032">
        <ele>266.076412</ele>
        <time>2021-11-08T21:44:01.280Z</time>
      </trkpt>
      <trkpt lat="47.531253" lon="7.691880">
        <ele>266.139658</ele>
        <time>2021-11-08T21:44:03.315Z</time>
      </trkpt>
      <trkpt lat="47.531254" lon="7.691721">
        <ele>266.205791</ele>
        <time>2021-11-08T21:44:05.316Z</time>
      </trkpt>
      <trkpt lat="47.531257" lon="7.691497">
        <ele>266.271200</ele>
        <time>2021-11-08T21:44:08.125Z</time>
      </trkpt>
      <trkpt lat="47.531218" lon="7.691259">
        <ele>266.297044</ele>
        <time>2021-11-08T21:44:10.896Z</time>
      </trkpt>
      <trkpt lat="47.531228" lon="7.690572">
        <ele>266.369557</ele>
        <time>2021-11-08T21:44:19.357Z</time>
      </trkpt>
      <trkpt lat="47.531244" lon="7.689927">
        <ele>266.437668</ele>
        <time>2021-11-08T21:44:25.936Z</time>
      </trkpt>
      <trkpt lat="47.531254" lon="7.689619">
        <ele>266.470208</ele>
        <time>2021-11-08T21:44:28.949Z</time>
      </trkpt>
      <trkpt lat="47.531264" lon="7.689333">
        <ele>266.500429</ele>
        <time>2021-11-08T21:44:31.623Z</time>
      </trkpt>
      <trkpt lat="47.531265" lon="7.689138">
        <ele>266.521007</ele>
        <time>2021-11-08T21:44:33.275Z</time>
      </trkpt>
      <trkpt lat="47.531267" lon="7.688842">
        <ele>266.510167</ele>
        <time>2021-11-08T21:44:35.974Z</time>
      </trkpt>
      <trkpt lat="47.531309" lon="7.687734">
        <ele>266.101606</ele>
        <time>2021-11-08T21:44:44.982Z</time>
      </trkpt>
      <trkpt lat="47.531311" lon="7.686964">
        <ele>265.818123</ele>
        <time>2021-11-08T21:44:51.562Z</time>
      </trkpt>
      <trkpt lat="47.531302" lon="7.686543">
        <ele>265.663051</ele>
        <time>2021-11-08T21:44:55.815Z</time>
      </trkpt>
      <trkpt lat="47.531297" lon="7.685934">
        <ele>265.664830</ele>
        <time>2021-11-08T21:45:02.343Z</time>
      </trkpt>
      <trkpt lat="47.531296" lon="7.684922">
        <ele>265.975149</ele>
        <time>2021-11-08T21:45:13.785Z</time>
      </trkpt>
      <trkpt lat="47.531277" lon="7.683432">
        <ele>266.477861</ele>
        <time>2021-11-08T21:45:30.948Z</time>
      </trkpt>
      <trkpt lat="47.531276" lon="7.682944">
        <ele>266.756319</ele>
        <time>2021-11-08T21:45:36.699Z</time>
      </trkpt>
      <trkpt lat="47.531275" lon="7.682615">
        <ele>266.944050</ele>
        <time>2021-11-08T21:45:40.679Z</time>
      </trkpt>
      <trkpt lat="47.531257" lon="7.681446">
        <ele>267.611264</ele>
        <time>2021-11-08T21:45:55.472Z</time>
      </trkpt>
      <trkpt lat="47.531222" lon="7.679157">
        <ele>268.627993</ele>
        <time>2021-11-08T21:46:24.020Z</time>
      </trkpt>
      <trkpt lat="47.531218" lon="7.678940">
        <ele>268.716631</ele>
        <time>2021-11-08T21:46:26.330Z</time>
      </trkpt>
      <trkpt lat="47.531215" lon="7.678292">
        <ele>268.981227</ele>
        <time>2021-11-08T21:46:32.845Z</time>
      </trkpt>
      <trkpt lat="47.531238" lon="7.677761">
        <ele>268.969337</ele>
        <time>2021-11-08T21:46:38.002Z</time>
      </trkpt>
      <trkpt lat="47.531253" lon="7.677527">
        <ele>268.961436</ele>
        <time>2021-11-08T21:46:40.377Z</time>
      </trkpt>
      <trkpt lat="47.531275" lon="7.677355">
        <ele>268.955552</ele>
        <time>2021-11-08T21:46:42.057Z</time>
      </trkpt>
      <trkpt lat="47.531314" lon="7.677106">
        <ele>268.946960</ele>
        <time>2021-11-08T21:46:44.921Z</time>
      </trkpt>
      <trkpt lat="47.531325" lon="7.677036">
        <ele>268.944544</ele>
        <time>2021-11-08T21:46:45.632Z</time>
      </trkpt>
      <trkpt lat="47.531397" lon="7.676665">
        <ele>268.931569</ele>
        <time>2021-11-08T21:46:49.588Z</time>
      </trkpt>
      <trkpt lat="47.531455" lon="7.676389">
        <ele>268.921853</ele>
        <time>2021-11-08T21:46:52.486Z</time>
      </trkpt>
      <trkpt lat="47.531545" lon="7.675929">
        <ele>268.905754</ele>
        <time>2021-11-08T21:46:57.685Z</time>
      </trkpt>
      <trkpt lat="47.531606" lon="7.675606">
        <ele>268.862501</ele>
        <time>2021-11-08T21:47:00.937Z</time>
      </trkpt>
      <trkpt lat="47.531635" lon="7.675449">
        <ele>268.793238</ele>
        <time>2021-11-08T21:47:02.272Z</time>
      </trkpt>
      <trkpt lat="47.531719" lon="7.675071">
        <ele>268.623900</ele>
        <time>2021-11-08T21:47:05.479Z</time>
      </trkpt>
      <trkpt lat="47.531825" lon="7.674498">
        <ele>268.371087</ele>
        <time>2021-11-08T21:47:10.258Z</time>
      </trkpt>
      <trkpt lat="47.531884" lon="7.674105">
        <ele>268.199771</ele>
        <time>2021-11-08T21:47:13.874Z</time>
      </trkpt>
      <trkpt lat="47.531942" lon="7.673731">
        <ele>268.036480</ele>
        <time>2021-11-08T21:47:17.451Z</time>
      </trkpt>
      <trkpt lat="47.531990" lon="7.673394">
        <ele>267.889921</ele>
        <time>2021-11-08T21:47:20.415Z</time>
      </trkpt>
      <trkpt lat="47.532036" lon="7.673089">
        <ele>267.766282</ele>
        <time>2021-11-08T21:47:23.326Z</time>
      </trkpt>
      <trkpt lat="47.532065" lon="7.672871">
        <ele>267.803465</ele>
        <time>2021-11-08T21:47:25.203Z</time>
      </trkpt>
      <trkpt lat="47.532239" lon="7.671669">
        <ele>268.009188</ele>
        <time>2021-11-08T21:47:36.001Z</time>
      </trkpt>
      <trkpt lat="47.532344" lon="7.670949">
        <ele>268.132456</ele>
        <time>2021-11-08T21:47:43.553Z</time>
      </trkpt>
      <trkpt lat="47.532378" lon="7.670762">
        <ele>268.164864</ele>
        <time>2021-11-08T21:47:46.514Z</time>
      </trkpt>
      <trkpt lat="47.532450" lon="7.670414">
        <ele>268.318931</ele>
        <time>2021-11-08T21:47:52.428Z</time>
      </trkpt>
      <trkpt lat="47.532528" lon="7.670085">
        <ele>268.710301</ele>
        <time>2021-11-08T21:47:58.526Z</time>
      </trkpt>
      <trkpt lat="47.532604" lon="7.669823">
        <ele>269.030358</ele>
        <time>2021-11-08T21:48:03.682Z</time>
      </trkpt>
      <trkpt lat="47.532727" lon="7.669421">
        <ele>269.525726</ele>
        <time>2021-11-08T21:48:10.879Z</time>
      </trkpt>
      <trkpt lat="47.532897" lon="7.668969">
        <ele>270.106447</ele>
        <time>2021-11-08T21:48:18.712Z</time>
      </trkpt>
      <trkpt lat="47.533053" lon="7.668607">
        <ele>270.588456</ele>
        <time>2021-11-08T21:48:24.008Z</time>
      </trkpt>
      <trkpt lat="47.533159" lon="7.668361">
        <ele>270.915999</ele>
        <time>2021-11-08T21:48:28.304Z</time>
      </trkpt>
      <trkpt lat="47.533253" lon="7.668149">
        <ele>271.199424</ele>
        <time>2021-11-08T21:48:30.990Z</time>
      </trkpt>
      <trkpt lat="47.533486" lon="7.667627">
        <ele>271.170453</ele>
        <time>2021-11-08T21:48:38.613Z</time>
      </trkpt>
      <trkpt lat="47.533740" lon="7.667075">
        <ele>271.139528</ele>
        <time>2021-11-08T21:48:46.136Z</time>
      </trkpt>
      <trkpt lat="47.533835" lon="7.666868">
        <ele>271.127940</ele>
        <time>2021-11-08T21:48:48.206Z</time>
      </trkpt>
      <trkpt lat="47.533775" lon="7.666807">
        <ele>271.122950</ele>
        <time>2021-11-08T21:48:49.527Z</time>
      </trkpt>
      <trkpt lat="47.533696" lon="7.666647">
        <ele>271.113773</ele>
        <time>2021-11-08T21:48:51.489Z</time>
      </trkpt>
      <trkpt lat="47.533398" lon="7.666305">
        <ele>271.087923</ele>
        <time>2021-11-08T21:48:55.996Z</time>
      </trkpt>
      <trkpt lat="47.533116" lon="7.665988">
        <ele>271.138919</ele>
        <time>2021-11-08T21:49:00.219Z</time>
      </trkpt>
      <trkpt lat="47.532925" lon="7.665760">
        <ele>271.223453</ele>
        <time>2021-11-08T21:49:03.308Z</time>
      </trkpt>
      <trkpt lat="47.532786" lon="7.665641">
        <ele>271.278779</ele>
        <time>2021-11-08T21:49:05.454Z</time>
      </trkpt>
      <trkpt lat="47.532672" lon="7.665583">
        <ele>271.320316</ele>
        <time>2021-11-08T21:49:07.086Z</time>
      </trkpt>
      <trkpt lat="47.532292" lon="7.665148">
        <ele>271.485816</ele>
        <time>2021-11-08T21:49:15.582Z</time>
      </trkpt>
      <trkpt lat="47.532140" lon="7.664972">
        <ele>271.552302</ele>
        <time>2021-11-08T21:49:19.023Z</time>
      </trkpt>
      <trkpt lat="47.531991" lon="7.664806">
        <ele>271.616552</ele>
        <time>2021-11-08T21:49:22.904Z</time>
      </trkpt>
      <trkpt lat="47.531765" lon="7.664540">
        <ele>271.814599</ele>
        <time>2021-11-08T21:49:28.641Z</time>
      </trkpt>
      <trkpt lat="47.530899" lon="7.663616">
        <ele>273.988060</ele>
        <time>2021-11-08T21:49:52.115Z</time>
      </trkpt>
      <trkpt lat="47.530793" lon="7.663521">
        <ele>274.240359</ele>
        <time>2021-11-08T21:49:55.642Z</time>
      </trkpt>
      <trkpt lat="47.530719" lon="7.663465">
        <ele>274.409582</ele>
        <time>2021-11-08T21:49:58.017Z</time>
      </trkpt>
      <trkpt lat="47.529792" lon="7.663087">
        <ele>276.573337</ele>
        <time>2021-11-08T21:50:27.139Z</time>
      </trkpt>
      <trkpt lat="47.529676" lon="7.663021">
        <ele>276.878007</ele>
        <time>2021-11-08T21:50:30.861Z</time>
      </trkpt>
      <trkpt lat="47.529624" lon="7.662986">
        <ele>277.018047</ele>
        <time>2021-11-08T21:50:32.260Z</time>
      </trkpt>
      <trkpt lat="47.529576" lon="7.662954">
        <ele>277.147105</ele>
        <time>2021-11-08T21:50:33.632Z</time>
      </trkpt>
      <trkpt lat="47.529502" lon="7.662906">
        <ele>277.345173</ele>
        <time>2021-11-08T21:50:35.790Z</time>
      </trkpt>
      <trkpt lat="47.528985" lon="7.662541">
        <ele>278.749389</ele>
        <time>2021-11-08T21:50:53.070Z</time>
      </trkpt>
      <trkpt lat="47.528693" lon="7.662320">
        <ele>279.553371</ele>
        <time>2021-11-08T21:51:02.808Z</time>
      </trkpt>
      <trkpt lat="47.528592" lon="7.662229">
        <ele>279.825586</ele>
        <time>2021-11-08T21:51:05.923Z</time>
      </trkpt>
      <trkpt lat="47.528425" lon="7.662035">
        <ele>280.223132</ele>
        <time>2021-11-08T21:51:10.730Z</time>
      </trkpt>
      <trkpt lat="47.528226" lon="7.661637">
        <ele>280.849477</ele>
        <time>2021-11-08T21:51:18.505Z</time>
      </trkpt>
      <trkpt lat="47.527912" lon="7.660639">
        <ele>282.241984</ele>
        <time>2021-11-08T21:51:35.676Z</time>
      </trkpt>
      <trkpt lat="47.527673" lon="7.659801">
        <ele>283.137826</ele>
        <time>2021-11-08T21:51:48.962Z</time>
      </trkpt>
      <trkpt lat="47.527666" lon="7.659776">
        <ele>283.137877</ele>
        <time>2021-11-08T21:51:49.397Z</time>
      </trkpt>
      <trkpt lat="47.527370" lon="7.658528">
        <ele>283.140358</ele>
        <time>2021-11-08T21:52:02.916Z</time>
      </trkpt>
      <trkpt lat="47.527241" lon="7.658123">
        <ele>283.141198</ele>
        <time>2021-11-08T21:52:06.758Z</time>
      </trkpt>
      <trkpt lat="47.527139" lon="7.657807">
        <ele>283.141855</ele>
        <time>2021-11-08T21:52:09.755Z</time>
      </trkpt>
      <trkpt lat="47.527042" lon="7.657604">
        <ele>283.142322</ele>
        <time>2021-11-08T21:52:11.890Z</time>
      </trkpt>
      <trkpt lat="47.526917" lon="7.657402">
        <ele>283.081413</ele>
        <time>2021-11-08T21:52:14.237Z</time>
      </trkpt>
      <trkpt lat="47.526859" lon="7.657325">
        <ele>283.047644</ele>
        <time>2021-11-08T21:52:15.175Z</time>
      </trkpt>
      <trkpt lat="47.526880" lon="7.657295">
        <ele>283.034994</ele>
        <time>2021-11-08T21:52:15.527Z</time>
      </trkpt>
      <trkpt lat="47.526883" lon="7.657129">
        <ele>282.986383</ele>
        <time>2021-11-08T21:52:17.164Z</time>
      </trkpt>
      <trkpt lat="47.526863" lon="7.657097">
        <ele>282.973618</ele>
        <time>2021-11-08T21:52:17.500Z</time>
      </trkpt>
      <trkpt lat="47.526840" lon="7.657078">
        <ele>282.962201</ele>
        <time>2021-11-08T21:52:17.822Z</time>
      </trkpt>
      <trkpt lat="47.526789" lon="7.657068">
        <ele>282.939898</ele>
        <time>2021-11-08T21:52:18.444Z</time>
      </trkpt>
      <trkpt lat="47.526764" lon="7.657078">
        <ele>282.928671</ele>
        <time>2021-11-08T21:52:18.755Z</time>
      </trkpt>
      <trkpt lat="47.526741" lon="7.657100">
        <ele>282.916801</ele>
        <time>2021-11-08T21:52:19.099Z</time>
      </trkpt>
      <trkpt lat="47.526722" lon="7.657130">
        <ele>282.904761</ele>
        <time>2021-11-08T21:52:19.420Z</time>
      </trkpt>
      <trkpt lat="47.526710" lon="7.657166">
        <ele>282.893008</ele>
        <time>2021-11-08T21:52:19.745Z</time>
      </trkpt>
      <trkpt lat="47.526706" lon="7.657209">
        <ele>282.880301</ele>
        <time>2021-11-08T21:52:20.098Z</time>
      </trkpt>
      <trkpt lat="47.526723" lon="7.657291">
        <ele>282.855191</ele>
        <time>2021-11-08T21:52:20.867Z</time>
      </trkpt>
      <trkpt lat="47.526743" lon="7.657323">
        <ele>282.842427</ele>
        <time>2021-11-08T21:52:21.386Z</time>
      </trkpt>
      <trkpt lat="47.526694" lon="7.657412">
        <ele>282.808810</ele>
        <time>2021-11-08T21:52:22.775Z</time>
      </trkpt>
      <trkpt lat="47.526672" lon="7.657453">
        <ele>282.793480</ele>
        <time>2021-11-08T21:52:23.342Z</time>
      </trkpt>
      <trkpt lat="47.526339" lon="7.657736">
        <ele>282.627033</ele>
        <time>2021-11-08T21:52:30.140Z</time>
      </trkpt>
      <trkpt lat="47.526194" lon="7.657732">
        <ele>282.564161</ele>
        <time>2021-11-08T21:52:32.591Z</time>
      </trkpt>
      <trkpt lat="47.526129" lon="7.657714">
        <ele>282.535493</ele>
        <time>2021-11-08T21:52:33.893Z</time>
      </trkpt>
      <trkpt lat="47.526058" lon="7.657663">
        <ele>282.501283</ele>
        <time>2021-11-08T21:52:35.339Z</time>
      </trkpt>
      <trkpt lat="47.525992" lon="7.657583">
        <ele>282.464308</ele>
        <time>2021-11-08T21:52:36.903Z</time>
      </trkpt>
      <trkpt lat="47.525949" lon="7.657484">
        <ele>282.429849</ele>
        <time>2021-11-08T21:52:38.573Z</time>
      </trkpt>
      <trkpt lat="47.525879" lon="7.657237">
        <ele>282.458660</ele>
        <time>2021-11-08T21:52:42.579Z</time>
      </trkpt>
      <trkpt lat="47.525864" lon="7.656858">
        <ele>283.406674</ele>
        <time>2021-11-08T21:52:48.699Z</time>
      </trkpt>
      <trkpt lat="47.525910" lon="7.656589">
        <ele>284.099590</ele>
        <time>2021-11-08T21:52:53.445Z</time>
      </trkpt>
      <trkpt lat="47.525936" lon="7.656458">
        <ele>284.440543</ele>
        <time>2021-11-08T21:52:55.899Z</time>
      </trkpt>
      <trkpt lat="47.525936" lon="7.656458">
        <ele>284.440543</ele>
        <time>2021-11-08T21:52:55.933Z</time>
      </trkpt>
      <trkpt lat="47.525829" lon="7.656401">
        <ele>284.861046</ele>
        <time>2021-11-08T21:52:59.805Z</time>
      </trkpt>
      <trkpt lat="47.525670" lon="7.656313">
        <ele>285.488741</ele>
        <time>2021-11-08T21:53:03.486Z</time>
      </trkpt>
      <trkpt lat="47.525472" lon="7.656212">
        <ele>286.263155</ele>
        <time>2021-11-08T21:53:11.485Z</time>
      </trkpt>
      <trkpt lat="47.525397" lon="7.656172">
        <ele>286.557940</ele>
        <time>2021-11-08T21:53:13.326Z</time>
      </trkpt>
      <trkpt lat="47.525220" lon="7.656078">
        <ele>287.253294</ele>
        <time>2021-11-08T21:53:20.897Z</time>
      </trkpt>
      <trkpt lat="47.524818" lon="7.655865">
        <ele>288.832159</ele>
        <time>2021-11-08T21:53:37.022Z</time>
      </trkpt>
      <trkpt lat="47.524761" lon="7.655834">
        <ele>289.098803</ele>
        <time>2021-11-08T21:53:38.866Z</time>
      </trkpt>
      <trkpt lat="47.524698" lon="7.655801">
        <ele>289.589406</ele>
        <time>2021-11-08T21:53:40.972Z</time>
      </trkpt>
      <trkpt lat="47.524663" lon="7.655783">
        <ele>289.861416</ele>
        <time>2021-11-08T21:53:42.123Z</time>
      </trkpt>
      <trkpt lat="47.524616" lon="7.655757">
        <ele>290.229761</ele>
        <time>2021-11-08T21:53:45.456Z</time>
      </trkpt>
      <trkpt lat="47.524572" lon="7.655735">
        <ele>290.570708</ele>
        <time>2021-11-08T21:53:47.213Z</time>
      </trkpt>
      <trkpt lat="47.524519" lon="7.655706">
        <ele>290.985525</ele>
        <time>2021-11-08T21:53:50.729Z</time>
      </trkpt>
      <trkpt lat="47.524305" lon="7.655610">
        <ele>292.627134</ele>
        <time>2021-11-08T21:53:58.026Z</time>
      </trkpt>
      <trkpt lat="47.524277" lon="7.655598">
        <ele>292.841134</ele>
        <time>2021-11-08T21:54:00.694Z</time>
      </trkpt>
      <trkpt lat="47.524199" lon="7.656153">
        <ele>295.651578</ele>
        <time>2021-11-08T21:54:17.035Z</time>
      </trkpt>
      <trkpt lat="47.524136" lon="7.656591">
        <ele>297.871735</ele>
        <time>2021-11-08T21:54:30.067Z</time>
      </trkpt>
      <trkpt lat="47.524059" lon="7.657248">
        <ele>301.177600</ele>
        <time>2021-11-08T21:54:53.650Z</time>
      </trkpt>
      <trkpt lat="47.523992" lon="7.657967">
        <ele>304.787242</ele>
        <time>2021-11-08T21:55:17.377Z</time>
      </trkpt>
      <trkpt lat="47.523959" lon="7.658334">
        <ele>306.630882</ele>
        <time>2021-11-08T21:55:27.040Z</time>
      </trkpt>
      <trkpt lat="47.523922" lon="7.658360">
        <ele>306.932883</ele>
        <time>2021-11-08T21:55:29.299Z</time>
      </trkpt>
      <trkpt lat="47.523798" lon="7.658569">
        <ele>308.318248</ele>
        <time>2021-11-08T21:55:36.203Z</time>
      </trkpt>
      <trkpt lat="47.523708" lon="7.658759">
        <ele>309.473934</ele>
        <time>2021-11-08T21:55:42.929Z</time>
      </trkpt>
      <trkpt lat="47.523568" lon="7.659348">
        <ele>312.583318</ele>
        <time>2021-11-08T21:56:00.767Z</time>
      </trkpt>
      <trkpt lat="47.523458" lon="7.659795">
        <ele>314.952406</ele>
        <time>2021-11-08T21:56:15.140Z</time>
      </trkpt>
      <trkpt lat="47.523087" lon="7.660471">
        <ele>319.791295</ele>
        <time>2021-11-08T21:56:42.246Z</time>
      </trkpt>
      <trkpt lat="47.522955" lon="7.660555">
        <ele>320.990175</ele>
        <time>2021-11-08T21:56:49.374Z</time>
      </trkpt>
      <trkpt lat="47.522825" lon="7.660552">
        <ele>322.075098</ele>
        <time>2021-11-08T21:56:55.258Z</time>
      </trkpt>
      <trkpt lat="47.522637" lon="7.660591">
        <ele>323.659192</ele>
        <time>2021-11-08T21:57:04.035Z</time>
      </trkpt>
      <trkpt lat="47.522462" lon="7.660628">
        <ele>325.134297</ele>
        <time>2021-11-08T21:57:12.536Z</time>
      </trkpt>
      <trkpt lat="47.521792" lon="7.660718">
        <ele>330.771914</ele>
        <time>2021-11-08T21:57:46.702Z</time>
      </trkpt>
      <trkpt lat="47.521401" lon="7.660922">
        <ele>334.551833</ele>
        <time>2021-11-08T21:58:09.146Z</time>
      </trkpt>
      <trkpt lat="47.521300" lon="7.660911">
        <ele>335.475229</ele>
        <time>2021-11-08T21:58:14.700Z</time>
      </trkpt>
      <trkpt lat="47.520800" lon="7.660492">
        <ele>340.713591</ele>
        <time>2021-11-08T21:58:44.489Z</time>
      </trkpt>
      <trkpt lat="47.520669" lon="7.660482">
        <ele>341.909623</ele>
        <time>2021-11-08T21:58:50.940Z</time>
      </trkpt>
      <trkpt lat="47.520066" lon="7.660745">
        <ele>347.748282</ele>
        <time>2021-11-08T21:59:22.218Z</time>
      </trkpt>
      <trkpt lat="47.519677" lon="7.660675">
        <ele>351.830913</ele>
        <time>2021-11-08T21:59:41.786Z</time>
      </trkpt>
      <trkpt lat="47.519249" lon="7.660964">
        <ele>356.731801</ele>
        <time>2021-11-08T22:00:06.073Z</time>
      </trkpt>
      <trkpt lat="47.519047" lon="7.661794">
        <ele>362.939399</ele>
        <time>2021-11-08T22:00:43.459Z</time>
      </trkpt>
      <trkpt lat="47.518890" lon="7.662032">
        <ele>365.280302</ele>
        <time>2021-11-08T22:00:57.765Z</time>
      </trkpt>
      <trkpt lat="47.518745" lon="7.662142">
        <ele>367.143633</ele>
        <time>2021-11-08T22:01:08.557Z</time>
      </trkpt>
      <trkpt lat="47.518615" lon="7.662152">
        <ele>368.666867</ele>
        <time>2021-11-08T22:01:16.544Z</time>
      </trkpt>
      <trkpt lat="47.518439" lon="7.662040">
        <ele>370.908452</ele>
        <time>2021-11-08T22:01:28.191Z</time>
      </trkpt>
      <trkpt lat="47.518232" lon="7.661838">
        <ele>373.809359</ele>
        <time>2021-11-08T22:01:44.062Z</time>
      </trkpt>
      <trkpt lat="47.518206" lon="7.661745">
        <ele>374.604784</ele>
        <time>2021-11-08T22:01:47.966Z</time>
      </trkpt>
      <trkpt lat="47.518196" lon="7.661624">
        <ele>375.568133</ele>
        <time>2021-11-08T22:01:54.171Z</time>
      </trkpt>
      <trkpt lat="47.518612" lon="7.660430">
        <ele>386.185452</ele>
        <time>2021-11-08T22:02:49.549Z</time>
      </trkpt>
      <trkpt lat="47.519170" lon="7.659709">
        <ele>393.801606</ele>
        <time>2021-11-08T22:03:31.004Z</time>
      </trkpt>
      <trkpt lat="47.519286" lon="7.659483">
        <ele>395.756778</ele>
        <time>2021-11-08T22:03:42.728Z</time>
      </trkpt>
      <trkpt lat="47.519400" lon="7.659051">
        <ele>398.951343</ele>
        <time>2021-11-08T22:03:58.045Z</time>
      </trkpt>
      <trkpt lat="47.519302" lon="7.658439">
        <ele>403.283474</ele>
        <time>2021-11-08T22:04:22.933Z</time>
      </trkpt>
      <trkpt lat="47.519480" lon="7.658016">
        <ele>406.444777</ele>
        <time>2021-11-08T22:04:40.951Z</time>
      </trkpt>
      <trkpt lat="47.519476" lon="7.657899">
        <ele>407.122453</ele>
        <time>2021-11-08T22:04:44.403Z</time>
      </trkpt>
      <trkpt lat="47.519469" lon="7.657858">
        <ele>407.367087</ele>
        <time>2021-11-08T22:04:46.106Z</time>
      </trkpt>
      <trkpt lat="47.519450" lon="7.657775">
        <ele>407.874050</ele>
        <time>2021-11-08T22:04:48.943Z</time>
      </trkpt>
      <trkpt lat="47.519395" lon="7.657676">
        <ele>408.615610</ele>
        <time>2021-11-08T22:04:52.969Z</time>
      </trkpt>
      <trkpt lat="47.519338" lon="7.657614">
        <ele>409.221422</ele>
        <time>2021-11-08T22:04:56.391Z</time>
      </trkpt>
      <trkpt lat="47.519298" lon="7.657596">
        <ele>409.579519</ele>
        <time>2021-11-08T22:05:00.546Z</time>
      </trkpt>
      <trkpt lat="47.519105" lon="7.657673">
        <ele>411.291636</ele>
        <time>2021-11-08T22:05:09.577Z</time>
      </trkpt>
      <trkpt lat="47.518551" lon="7.657564">
        <ele>416.078690</ele>
        <time>2021-11-08T22:05:38.866Z</time>
      </trkpt>
      <trkpt lat="47.518547" lon="7.657366">
        <ele>417.224592</ele>
        <time>2021-11-08T22:05:44.480Z</time>
      </trkpt>
      <trkpt lat="47.518934" lon="7.656766">
        <ele>420.931146</ele>
        <time>2021-11-08T22:06:11.373Z</time>
      </trkpt>
      <trkpt lat="47.518933" lon="7.656687">
        <ele>421.075348</ele>
        <time>2021-11-08T22:06:12.825Z</time>
      </trkpt>
      <trkpt lat="47.518890" lon="7.656625">
        <ele>421.237539</ele>
        <time>2021-11-08T22:06:14.481Z</time>
      </trkpt>
      <trkpt lat="47.518431" lon="7.656460">
        <ele>422.513947</ele>
        <time>2021-11-08T22:06:26.897Z</time>
      </trkpt>
      <trkpt lat="47.518291" lon="7.656407">
        <ele>422.904445</ele>
        <time>2021-11-08T22:06:30.458Z</time>
      </trkpt>
      <trkpt lat="47.518235" lon="7.656474">
        <ele>423.099004</ele>
        <time>2021-11-08T22:06:31.811Z</time>
      </trkpt>
      <trkpt lat="47.517558" lon="7.656982">
        <ele>425.150004</ele>
        <time>2021-11-08T22:06:46.224Z</time>
      </trkpt>
      <trkpt lat="47.517404" lon="7.657170">
        <ele>425.091822</ele>
        <time>2021-11-08T22:06:49.362Z</time>
      </trkpt>
      <trkpt lat="47.516801" lon="7.657775">
        <ele>424.129998</ele>
        <time>2021-11-08T22:06:58.426Z</time>
      </trkpt>
      <trkpt lat="47.516645" lon="7.657944">
        <ele>423.874757</ele>
        <time>2021-11-08T22:07:00.757Z</time>
      </trkpt>
      <trkpt lat="47.516402" lon="7.658185">
        <ele>423.488553</ele>
        <time>2021-11-08T22:07:04.238Z</time>
      </trkpt>
      <trkpt lat="47.515996" lon="7.658814">
        <ele>422.204853</ele>
        <time>2021-11-08T22:07:10.287Z</time>
      </trkpt>
      <trkpt lat="47.515528" lon="7.659851">
        <ele>418.272952</ele>
        <time>2021-11-08T22:07:18.431Z</time>
      </trkpt>
      <trkpt lat="47.515439" lon="7.660052">
        <ele>417.515245</ele>
        <time>2021-11-08T22:07:19.933Z</time>
      </trkpt>
      <trkpt lat="47.515317" lon="7.660261">
        <ele>416.644365</ele>
        <time>2021-11-08T22:07:21.648Z</time>
      </trkpt>
      <trkpt lat="47.514880" lon="7.660956">
        <ele>413.662643</ele>
        <time>2021-11-08T22:07:27.573Z</time>
      </trkpt>
      <trkpt lat="47.514659" lon="7.661283">
        <ele>412.224229</ele>
        <time>2021-11-08T22:07:30.452Z</time>
      </trkpt>
      <trkpt lat="47.514531" lon="7.661634">
        <ele>410.983890</ele>
        <time>2021-11-08T22:07:32.930Z</time>
      </trkpt>
      <trkpt lat="47.514462" lon="7.661927">
        <ele>410.019033</ele>
        <time>2021-11-08T22:07:34.866Z</time>
      </trkpt>
      <trkpt lat="47.514342" lon="7.664129">
        <ele>404.920503</ele>
        <time>2021-11-08T22:07:49.956Z</time>
      </trkpt>
      <trkpt lat="47.514221" lon="7.664480">
        <ele>404.398055</ele>
        <time>2021-11-08T22:07:53.081Z</time>
      </trkpt>
      <trkpt lat="47.513877" lon="7.665099">
        <ele>403.335323</ele>
        <time>2021-11-08T22:07:59.422Z</time>
      </trkpt>
      <trkpt lat="47.513816" lon="7.665165">
        <ele>403.187022</ele>
        <time>2021-11-08T22:08:00.492Z</time>
      </trkpt>
      <trkpt lat="47.513553" lon="7.665082">
        <ele>402.734112</ele>
        <time>2021-11-08T22:08:03.620Z</time>
      </trkpt>
      <trkpt lat="47.513423" lon="7.665985">
        <ele>403.466708</ele>
        <time>2021-11-08T22:08:11.505Z</time>
      </trkpt>
      <trkpt lat="47.513312" lon="7.667099">
        <ele>404.360198</ele>
        <time>2021-11-08T22:08:26.062Z</time>
      </trkpt>
      <trkpt lat="47.513060" lon="7.668110">
        <ele>407.700917</ele>
        <time>2021-11-08T22:08:46.907Z</time>
      </trkpt>
      <trkpt lat="47.513038" lon="7.668278">
        <ele>408.688556</ele>
        <time>2021-11-08T22:08:53.109Z</time>
      </trkpt>
      <trkpt lat="47.513022" lon="7.668624">
        <ele>410.690112</ele>
        <time>2021-11-08T22:09:02.704Z</time>
      </trkpt>
      <trkpt lat="47.513007" lon="7.669561">
        <ele>416.099371</ele>
        <time>2021-11-08T22:09:37.240Z</time>
      </trkpt>
      <trkpt lat="47.512915" lon="7.670234">
        <ele>420.062237</ele>
        <time>2021-11-08T22:10:04.463Z</time>
      </trkpt>
      <trkpt lat="47.512908" lon="7.670264">
        <ele>420.267129</ele>
        <time>2021-11-08T22:10:06.780Z</time>
      </trkpt>
      <trkpt lat="47.512552" lon="7.671184">
        <ele>428.702986</ele>
        <time>2021-11-08T22:10:52.637Z</time>
      </trkpt>
      <trkpt lat="47.512171" lon="7.672236">
        <ele>438.200293</ele>
        <time>2021-11-08T22:11:46.095Z</time>
      </trkpt>
      <trkpt lat="47.511865" lon="7.672746">
        <ele>442.573469</ele>
        <time>2021-11-08T22:12:11.022Z</time>
      </trkpt>
      <trkpt lat="47.511647" lon="7.673015">
        <ele>444.351701</ele>
        <time>2021-11-08T22:12:24.249Z</time>
      </trkpt>
      <trkpt lat="47.511583" lon="7.673092">
        <ele>444.868446</ele>
        <time>2021-11-08T22:12:27.915Z</time>
      </trkpt>
      <trkpt lat="47.511264" lon="7.673741">
        <ele>448.265551</ele>
        <time>2021-11-08T22:12:49.182Z</time>
      </trkpt>
      <trkpt lat="47.511147" lon="7.674737">
        <ele>452.544260</ele>
        <time>2021-11-08T22:13:11.500Z</time>
      </trkpt>
      <trkpt lat="47.511042" lon="7.675029">
        <ele>452.934149</ele>
        <time>2021-11-08T22:13:18.087Z</time>
      </trkpt>
      <trkpt lat="47.510866" lon="7.675314">
        <ele>453.297282</ele>
        <time>2021-11-08T22:13:23.092Z</time>
      </trkpt>
      <trkpt lat="47.510805" lon="7.675403">
        <ele>453.416515</ele>
        <time>2021-11-08T22:13:24.969Z</time>
      </trkpt>
      <trkpt lat="47.510739" lon="7.675475">
        <ele>453.530652</ele>
        <time>2021-11-08T22:13:26.308Z</time>
      </trkpt>
      <trkpt lat="47.510330" lon="7.675929">
        <ele>454.242340</ele>
        <time>2021-11-08T22:13:36.289Z</time>
      </trkpt>
      <trkpt lat="47.510114" lon="7.676177">
        <ele>454.622892</ele>
        <time>2021-11-08T22:13:41.474Z</time>
      </trkpt>
      <trkpt lat="47.509879" lon="7.676596">
        <ele>455.135036</ele>
        <time>2021-11-08T22:13:47.818Z</time>
      </trkpt>
      <trkpt lat="47.509821" lon="7.676771">
        <ele>454.763665</ele>
        <time>2021-11-08T22:13:50.354Z</time>
      </trkpt>
      <trkpt lat="47.509746" lon="7.677084">
        <ele>454.048928</ele>
        <time>2021-11-08T22:13:52.934Z</time>
      </trkpt>
      <trkpt lat="47.509545" lon="7.677432">
        <ele>453.063521</ele>
        <time>2021-11-08T22:13:56.559Z</time>
      </trkpt>
      <trkpt lat="47.509362" lon="7.677972">
        <ele>451.763315</ele>
        <time>2021-11-08T22:14:00.829Z</time>
      </trkpt>
      <trkpt lat="47.509271" lon="7.678316">
        <ele>450.968234</ele>
        <time>2021-11-08T22:14:03.528Z</time>
      </trkpt>
      <trkpt lat="47.509244" lon="7.678419">
        <ele>450.730458</ele>
        <time>2021-11-08T22:14:04.189Z</time>
      </trkpt>
      <trkpt lat="47.509059" lon="7.680504">
        <ele>439.804760</ele>
        <time>2021-11-08T22:14:16.864Z</time>
      </trkpt>
      <trkpt lat="47.509095" lon="7.680864">
        <ele>437.462091</ele>
        <time>2021-11-08T22:14:18.967Z</time>
      </trkpt>
      <trkpt lat="47.509233" lon="7.681400">
        <ele>433.769587</ele>
        <time>2021-11-08T22:14:22.225Z</time>
      </trkpt>
      <trkpt lat="47.509450" lon="7.681851">
        <ele>429.153981</ele>
        <time>2021-11-08T22:14:25.375Z</time>
      </trkpt>
      <trkpt lat="47.509678" lon="7.682278">
        <ele>423.873324</ele>
        <time>2021-11-08T22:14:28.429Z</time>
      </trkpt>
      <trkpt lat="47.509706" lon="7.682330">
        <ele>423.228155</ele>
        <time>2021-11-08T22:14:28.799Z</time>
      </trkpt>
      <trkpt lat="47.509848" lon="7.682678">
        <ele>419.283755</ele>
        <time>2021-11-08T22:14:31.092Z</time>
      </trkpt>
      <trkpt lat="47.509852" lon="7.682696">
        <ele>419.099918</ele>
        <time>2021-11-08T22:14:31.198Z</time>
      </trkpt>
      <trkpt lat="47.509891" lon="7.682887">
        <ele>417.164089</ele>
        <time>2021-11-08T22:14:32.319Z</time>
      </trkpt>
      <trkpt lat="47.509894" lon="7.683204">
        <ele>414.088368</ele>
        <time>2021-11-08T22:14:34.102Z</time>
      </trkpt>
      <trkpt lat="47.509852" lon="7.683665">
        <ele>409.575411</ele>
        <time>2021-11-08T22:14:36.715Z</time>
      </trkpt>
      <trkpt lat="47.509798" lon="7.683903">
        <ele>407.139636</ele>
        <time>2021-11-08T22:14:38.120Z</time>
      </trkpt>
      <trkpt lat="47.509798" lon="7.684144">
        <ele>404.809936</ele>
        <time>2021-11-08T22:14:39.470Z</time>
      </trkpt>
      <trkpt lat="47.509939" lon="7.685485">
        <ele>391.710682</ele>
        <time>2021-11-08T22:14:47.146Z</time>
      </trkpt>
      <trkpt lat="47.509884" lon="7.686341">
        <ele>383.411253</ele>
        <time>2021-11-08T22:14:51.962Z</time>
      </trkpt>
      <trkpt lat="47.510117" lon="7.687677">
        <ele>370.439610</ele>
        <time>2021-11-08T22:14:59.755Z</time>
      </trkpt>
      <trkpt lat="47.510130" lon="7.688042">
        <ele>367.026475</ele>
        <time>2021-11-08T22:15:01.812Z</time>
      </trkpt>
      <trkpt lat="47.510127" lon="7.688247">
        <ele>365.111718</ele>
        <time>2021-11-08T22:15:02.986Z</time>
      </trkpt>
      <trkpt lat="47.510147" lon="7.688532">
        <ele>362.436041</ele>
        <time>2021-11-08T22:15:04.596Z</time>
      </trkpt>
      <trkpt lat="47.510209" lon="7.688788">
        <ele>359.896474</ele>
        <time>2021-11-08T22:15:06.132Z</time>
      </trkpt>
      <trkpt lat="47.510313" lon="7.689084">
        <ele>356.780826</ele>
        <time>2021-11-08T22:15:08.016Z</time>
      </trkpt>
      <trkpt lat="47.510403" lon="7.689323">
        <ele>354.582091</ele>
        <time>2021-11-08T22:15:09.562Z</time>
      </trkpt>
      <trkpt lat="47.510602" lon="7.690223">
        <ele>347.648356</ele>
        <time>2021-11-08T22:15:14.953Z</time>
      </trkpt>
      <trkpt lat="47.510606" lon="7.690494">
        <ele>345.663670</ele>
        <time>2021-11-08T22:15:16.522Z</time>
      </trkpt>
      <trkpt lat="47.510637" lon="7.690723">
        <ele>343.953633</ele>
        <time>2021-11-08T22:15:17.865Z</time>
      </trkpt>
      <trkpt lat="47.510633" lon="7.690805">
        <ele>343.351681</ele>
        <time>2021-11-08T22:15:18.349Z</time>
      </trkpt>
      <trkpt lat="47.510865" lon="7.691084">
        <ele>340.111711</ele>
        <time>2021-11-08T22:15:20.934Z</time>
      </trkpt>
      <trkpt lat="47.511185" lon="7.691269">
        <ele>336.387872</ele>
        <time>2021-11-08T22:15:25.247Z</time>
      </trkpt>
      <trkpt lat="47.511548" lon="7.691477">
        <ele>333.814432</ele>
        <time>2021-11-08T22:15:30.183Z</time>
      </trkpt>
      <trkpt lat="47.511667" lon="7.691581">
        <ele>332.901973</ele>
        <time>2021-11-08T22:15:31.960Z</time>
      </trkpt>
      <trkpt lat="47.511838" lon="7.691791">
        <ele>331.434951</ele>
        <time>2021-11-08T22:15:34.703Z</time>
      </trkpt>
      <trkpt lat="47.512475" lon="7.692907">
        <ele>324.918388</ele>
        <time>2021-11-08T22:15:47.735Z</time>
      </trkpt>
      <trkpt lat="47.512654" lon="7.693072">
        <ele>323.915413</ele>
        <time>2021-11-08T22:15:50.552Z</time>
      </trkpt>
      <trkpt lat="47.512753" lon="7.693164">
        <ele>323.451224</ele>
        <time>2021-11-08T22:15:52.144Z</time>
      </trkpt>
      <trkpt lat="47.513623" lon="7.693653">
        <ele>319.755598</ele>
        <time>2021-11-08T22:16:05.499Z</time>
      </trkpt>
      <trkpt lat="47.513936" lon="7.693997">
        <ele>318.207546</ele>
        <time>2021-11-08T22:16:11.044Z</time>
      </trkpt>
      <trkpt lat="47.514389" lon="7.694538">
        <ele>315.602295</ele>
        <time>2021-11-08T22:16:19.366Z</time>
      </trkpt>
      <trkpt lat="47.514592" lon="7.694781">
        <ele>314.357400</ele>
        <time>2021-11-08T22:16:23.027Z</time>
      </trkpt>
      <trkpt lat="47.514725" lon="7.694795">
        <ele>313.721542</ele>
        <time>2021-11-08T22:16:24.793Z</time>
      </trkpt>
      <trkpt lat="47.514816" lon="7.694816">
        <ele>313.282336</ele>
        <time>2021-11-08T22:16:26.090Z</time>
      </trkpt>
      <trkpt lat="47.515054" lon="7.694872">
        <ele>312.133106</ele>
        <time>2021-11-08T22:16:29.330Z</time>
      </trkpt>
      <trkpt lat="47.515285" lon="7.694889">
        <ele>311.030140</ele>
        <time>2021-11-08T22:16:32.437Z</time>
      </trkpt>
      <trkpt lat="47.515415" lon="7.694867">
        <ele>310.406153</ele>
        <time>2021-11-08T22:16:34.133Z</time>
      </trkpt>
      <trkpt lat="47.515594" lon="7.694838">
        <ele>309.547433</ele>
        <time>2021-11-08T22:16:36.541Z</time>
      </trkpt>
      <trkpt lat="47.515914" lon="7.694689">
        <ele>308.245164</ele>
        <time>2021-11-08T22:16:41.001Z</time>
      </trkpt>
      <trkpt lat="47.516061" lon="7.694636">
        <ele>307.780744</ele>
        <time>2021-11-08T22:16:43.048Z</time>
      </trkpt>
      <trkpt lat="47.516171" lon="7.694629">
        <ele>307.442773</ele>
        <time>2021-11-08T22:16:44.448Z</time>
      </trkpt>
      <trkpt lat="47.516457" lon="7.694583">
        <ele>306.559695</ele>
        <time>2021-11-08T22:16:48.379Z</time>
      </trkpt>
      <trkpt lat="47.516523" lon="7.694583">
        <ele>306.357099</ele>
        <time>2021-11-08T22:16:49.242Z</time>
      </trkpt>
      <trkpt lat="47.516556" lon="7.694611">
        <ele>306.240348</ele>
        <time>2021-11-08T22:16:49.750Z</time>
      </trkpt>
      <trkpt lat="47.516677" lon="7.694863">
        <ele>305.599338</ele>
        <time>2021-11-08T22:16:52.970Z</time>
      </trkpt>
      <trkpt lat="47.516717" lon="7.694874">
        <ele>305.474453</ele>
        <time>2021-11-08T22:16:53.503Z</time>
      </trkpt>
      <trkpt lat="47.516661" lon="7.695043">
        <ele>305.084192</ele>
        <time>2021-11-08T22:16:55.253Z</time>
      </trkpt>
      <trkpt lat="47.516457" lon="7.695483">
        <ele>303.977748</ele>
        <time>2021-11-08T22:17:01.238Z</time>
      </trkpt>
      <trkpt lat="47.516381" lon="7.695563">
        <ele>303.691509</ele>
        <time>2021-11-08T22:17:03.779Z</time>
      </trkpt>
      <trkpt lat="47.516442" lon="7.695755">
        <ele>303.269412</ele>
        <time>2021-11-08T22:17:05.677Z</time>
      </trkpt>
      <trkpt lat="47.516675" lon="7.696120">
        <ele>304.135847</ele>
        <time>2021-11-08T22:17:12.829Z</time>
      </trkpt>
      <trkpt lat="47.516813" lon="7.696232">
        <ele>304.537827</ele>
        <time>2021-11-08T22:17:16.172Z</time>
      </trkpt>
      <trkpt lat="47.516769" lon="7.696355">
        <ele>304.777945</ele>
        <time>2021-11-08T22:17:19.843Z</time>
      </trkpt>
      <trkpt lat="47.516764" lon="7.696451">
        <ele>304.944050</ele>
        <time>2021-11-08T22:17:21.888Z</time>
      </trkpt>
      <trkpt lat="47.516782" lon="7.696820">
        <ele>305.582283</ele>
        <time>2021-11-08T22:17:30.516Z</time>
      </trkpt>
      <trkpt lat="47.516786" lon="7.696939">
        <ele>305.787829</ele>
        <time>2021-11-08T22:17:33.204Z</time>
      </trkpt>
      <trkpt lat="47.516816" lon="7.697757">
        <ele>307.201068</ele>
        <time>2021-11-08T22:17:52.051Z</time>
      </trkpt>
      <trkpt lat="47.516837" lon="7.698201">
        <ele>308.006301</ele>
        <time>2021-11-08T22:18:02.040Z</time>
      </trkpt>
      <trkpt lat="47.516858" lon="7.698414">
        <ele>308.500300</ele>
        <time>2021-11-08T22:18:07.052Z</time>
      </trkpt>
      <trkpt lat="47.516944" lon="7.698857">
        <ele>309.558116</ele>
        <time>2021-11-08T22:18:16.984Z</time>
      </trkpt>
      <trkpt lat="47.517055" lon="7.699367">
        <ele>310.787797</ele>
        <time>2021-11-08T22:18:27.968Z</time>
      </trkpt>
      <trkpt lat="47.517271" lon="7.700224">
        <ele>312.887027</ele>
        <time>2021-11-08T22:18:48.110Z</time>
      </trkpt>
      <trkpt lat="47.517302" lon="7.700251">
        <ele>313.009238</ele>
        <time>2021-11-08T22:18:49.103Z</time>
      </trkpt>
      <trkpt lat="47.517287" lon="7.700296">
        <ele>313.124402</ele>
        <time>2021-11-08T22:18:50.239Z</time>
      </trkpt>
      <trkpt lat="47.517479" lon="7.701386">
        <ele>317.666890</ele>
        <time>2021-11-08T22:19:15.827Z</time>
      </trkpt>
      <trkpt lat="47.517516" lon="7.701729">
        <ele>319.359669</ele>
        <time>2021-11-08T22:19:25.966Z</time>
      </trkpt>
      <trkpt lat="47.517522" lon="7.701805">
        <ele>319.732573</ele>
        <time>2021-11-08T22:19:27.766Z</time>
      </trkpt>
      <trkpt lat="47.517519" lon="7.701866">
        <ele>320.030640</ele>
        <time>2021-11-08T22:19:29.470Z</time>
      </trkpt>
      <trkpt lat="47.517510" lon="7.701940">
        <ele>320.397075</ele>
        <time>2021-11-08T22:19:31.733Z</time>
      </trkpt>
      <trkpt lat="47.517495" lon="7.701974">
        <ele>320.594993</ele>
        <time>2021-11-08T22:19:34.208Z</time>
      </trkpt>
      <trkpt lat="47.517412" lon="7.702061">
        <ele>321.328807</ele>
        <time>2021-11-08T22:19:38.562Z</time>
      </trkpt>
      <trkpt lat="47.517231" lon="7.702215">
        <ele>322.835181</ele>
        <time>2021-11-08T22:19:47.729Z</time>
      </trkpt>
      <trkpt lat="47.516723" lon="7.702621">
        <ele>327.004825</ele>
        <time>2021-11-08T22:20:18.276Z</time>
      </trkpt>
      <trkpt lat="47.516538" lon="7.702808">
        <ele>328.740112</ele>
        <time>2021-11-08T22:20:30.929Z</time>
      </trkpt>
      <trkpt lat="47.516419" lon="7.702927">
        <ele>329.852544</ele>
        <time>2021-11-08T22:20:38.248Z</time>
      </trkpt>
      <trkpt lat="47.516272" lon="7.703033">
        <ele>331.119201</ele>
        <time>2021-11-08T22:20:46.735Z</time>
      </trkpt>
      <trkpt lat="47.516154" lon="7.703082">
        <ele>332.068600</ele>
        <time>2021-11-08T22:20:53.769Z</time>
      </trkpt>
      <trkpt lat="47.516104" lon="7.703098">
        <ele>332.464886</ele>
        <time>2021-11-08T22:20:56.368Z</time>
      </trkpt>
      <trkpt lat="47.516014" lon="7.703140">
        <ele>333.195913</ele>
        <time>2021-11-08T22:21:00.895Z</time>
      </trkpt>
      <trkpt lat="47.515843" lon="7.703186">
        <ele>334.542312</ele>
        <time>2021-11-08T22:21:09.055Z</time>
      </trkpt>
      <trkpt lat="47.515591" lon="7.703343">
        <ele>336.660303</ele>
        <time>2021-11-08T22:21:20.890Z</time>
      </trkpt>
      <trkpt lat="47.515436" lon="7.703718">
        <ele>338.960630</ele>
        <time>2021-11-08T22:21:33.610Z</time>
      </trkpt>
      <trkpt lat="47.515041" lon="7.704901">
        <ele>343.913804</ele>
        <time>2021-11-08T22:22:03.734Z</time>
      </trkpt>
      <trkpt lat="47.514902" lon="7.705363">
        <ele>345.524095</ele>
        <time>2021-11-08T22:22:14.371Z</time>
      </trkpt>
      <trkpt lat="47.514894" lon="7.705674">
        <ele>346.514996</ele>
        <time>2021-11-08T22:22:21.571Z</time>
      </trkpt>
      <trkpt lat="47.514825" lon="7.706411">
        <ele>348.883945</ele>
        <time>2021-11-08T22:22:37.722Z</time>
      </trkpt>
      <trkpt lat="47.514814" lon="7.706527">
        <ele>349.256897</ele>
        <time>2021-11-08T22:22:40.372Z</time>
      </trkpt>
      <trkpt lat="47.514743" lon="7.706635">
        <ele>349.616576</ele>
        <time>2021-11-08T22:22:44.288Z</time>
      </trkpt>
      <trkpt lat="47.514666" lon="7.706740">
        <ele>349.952954</ele>
        <time>2021-11-08T22:22:47.720Z</time>
      </trkpt>
      <trkpt lat="47.514343" lon="7.706915">
        <ele>351.058174</ele>
        <time>2021-11-08T22:22:59.551Z</time>
      </trkpt>
      <trkpt lat="47.513734" lon="7.707203">
        <ele>353.112502</ele>
        <time>2021-11-08T22:23:18.580Z</time>
      </trkpt>
      <trkpt lat="47.513611" lon="7.707363">
        <ele>353.638622</ele>
        <time>2021-11-08T22:23:22.612Z</time>
      </trkpt>
      <trkpt lat="47.513371" lon="7.707878">
        <ele>354.996589</ele>
        <time>2021-11-08T22:23:32.857Z</time>
      </trkpt>
      <trkpt lat="47.513290" lon="7.708040">
        <ele>354.910647</ele>
        <time>2021-11-08T22:23:35.415Z</time>
      </trkpt>
      <trkpt lat="47.513067" lon="7.708501">
        <ele>353.958755</ele>
        <time>2021-11-08T22:23:41.440Z</time>
      </trkpt>
      <trkpt lat="47.512389" lon="7.709762">
        <ele>351.253054</ele>
        <time>2021-11-08T22:23:52.595Z</time>
      </trkpt>
      <trkpt lat="47.511227" lon="7.711226">
        <ele>342.864215</ele>
        <time>2021-11-08T22:24:06.399Z</time>
      </trkpt>
      <trkpt lat="47.511160" lon="7.711279">
        <ele>342.404861</ele>
        <time>2021-11-08T22:24:07.042Z</time>
      </trkpt>
      <trkpt lat="47.511059" lon="7.711359">
        <ele>341.712199</ele>
        <time>2021-11-08T22:24:08.108Z</time>
      </trkpt>
      <trkpt lat="47.510849" lon="7.711435">
        <ele>340.404940</ele>
        <time>2021-11-08T22:24:10.135Z</time>
      </trkpt>
      <trkpt lat="47.509650" lon="7.711307">
        <ele>336.577782</ele>
        <time>2021-11-08T22:24:21.739Z</time>
      </trkpt>
      <trkpt lat="47.508867" lon="7.711685">
        <ele>334.553301</ele>
        <time>2021-11-08T22:24:32.713Z</time>
      </trkpt>
      <trkpt lat="47.508298" lon="7.712040">
        <ele>334.618948</ele>
        <time>2021-11-08T22:24:42.637Z</time>
      </trkpt>
      <trkpt lat="47.507634" lon="7.712013">
        <ele>334.689570</ele>
        <time>2021-11-08T22:24:53.580Z</time>
      </trkpt>
      <trkpt lat="47.506970" lon="7.712224">
        <ele>334.569689</ele>
        <time>2021-11-08T22:25:03.887Z</time>
      </trkpt>
      <trkpt lat="47.506809" lon="7.712355">
        <ele>334.466648</ele>
        <time>2021-11-08T22:25:06.340Z</time>
      </trkpt>
      <trkpt lat="47.506715" lon="7.712479">
        <ele>334.396032</ele>
        <time>2021-11-08T22:25:07.829Z</time>
      </trkpt>
      <trkpt lat="47.506266" lon="7.713149">
        <ele>334.038464</ele>
        <time>2021-11-08T22:25:15.848Z</time>
      </trkpt>
      <trkpt lat="47.505875" lon="7.713513">
        <ele>333.779406</ele>
        <time>2021-11-08T22:25:21.716Z</time>
      </trkpt>
      <trkpt lat="47.505683" lon="7.713648">
        <ele>333.700601</ele>
        <time>2021-11-08T22:25:24.576Z</time>
      </trkpt>
      <trkpt lat="47.505568" lon="7.713717">
        <ele>333.676241</ele>
        <time>2021-11-08T22:25:26.077Z</time>
      </trkpt>
      <trkpt lat="47.505140" lon="7.713870">
        <ele>333.589804</ele>
        <time>2021-11-08T22:25:31.813Z</time>
      </trkpt>
      <trkpt lat="47.505012" lon="7.713973">
        <ele>333.561204</ele>
        <time>2021-11-08T22:25:33.538Z</time>
      </trkpt>
      <trkpt lat="47.504968" lon="7.714063">
        <ele>333.546471</ele>
        <time>2021-11-08T22:25:34.672Z</time>
      </trkpt>
      <trkpt lat="47.504908" lon="7.714006">
        <ele>333.532475</ele>
        <time>2021-11-08T22:25:35.920Z</time>
      </trkpt>
      <trkpt lat="47.504863" lon="7.713967">
        <ele>333.522238</ele>
        <time>2021-11-08T22:25:36.828Z</time>
      </trkpt>
      <trkpt lat="47.504602" lon="7.713646">
        <ele>333.455624</ele>
        <time>2021-11-08T22:25:42.048Z</time>
      </trkpt>
      <trkpt lat="47.504446" lon="7.713401">
        <ele>333.410975</ele>
        <time>2021-11-08T22:25:44.936Z</time>
      </trkpt>
      <trkpt lat="47.504394" lon="7.713320">
        <ele>333.396157</ele>
        <time>2021-11-08T22:25:46.350Z</time>
      </trkpt>
      <trkpt lat="47.504303" lon="7.713177">
        <ele>333.370103</ele>
        <time>2021-11-08T22:25:49.143Z</time>
      </trkpt>
      <trkpt lat="47.504169" lon="7.713015">
        <ele>333.175288</ele>
        <time>2021-11-08T22:25:51.610Z</time>
      </trkpt>
      <trkpt lat="47.504095" lon="7.712929">
        <ele>333.067139</ele>
        <time>2021-11-08T22:25:53.730Z</time>
      </trkpt>
      <trkpt lat="47.504032" lon="7.712855">
        <ele>332.974689</ele>
        <time>2021-11-08T22:25:55.381Z</time>
      </trkpt>
      <trkpt lat="47.503857" lon="7.712710">
        <ele>332.744152</ele>
        <time>2021-11-08T22:25:58.259Z</time>
      </trkpt>
      <trkpt lat="47.503726" lon="7.712859">
        <ele>332.554244</ele>
        <time>2021-11-08T22:26:01.714Z</time>
      </trkpt>
      <trkpt lat="47.503553" lon="7.713042">
        <ele>332.309817</ele>
        <time>2021-11-08T22:26:04.418Z</time>
      </trkpt>
      <trkpt lat="47.503496" lon="7.713114">
        <ele>332.223681</ele>
        <time>2021-11-08T22:26:05.814Z</time>
      </trkpt>
      <trkpt lat="47.503454" lon="7.713337">
        <ele>332.043903</ele>
        <time>2021-11-08T22:26:07.683Z</time>
      </trkpt>
      <trkpt lat="47.503475" lon="7.713452">
        <ele>331.951393</ele>
        <time>2021-11-08T22:26:08.527Z</time>
      </trkpt>
      <trkpt lat="47.503477" lon="7.713788">
        <ele>331.690459</ele>
        <time>2021-11-08T22:26:10.965Z</time>
      </trkpt>
      <trkpt lat="47.503465" lon="7.713906">
        <ele>331.597792</ele>
        <time>2021-11-08T22:26:11.776Z</time>
      </trkpt>
      <trkpt lat="47.503446" lon="7.714080">
        <ele>331.460916</ele>
        <time>2021-11-08T22:26:13.058Z</time>
      </trkpt>
      <trkpt lat="47.503404" lon="7.714214">
        <ele>331.346202</ele>
        <time>2021-11-08T22:26:14.158Z</time>
      </trkpt>
      <trkpt lat="47.503376" lon="7.714303">
        <ele>331.148709</ele>
        <time>2021-11-08T22:26:14.779Z</time>
      </trkpt>
      <trkpt lat="47.503352" lon="7.714379">
        <ele>330.834419</ele>
        <time>2021-11-08T22:26:15.314Z</time>
      </trkpt>
      <trkpt lat="47.503243" lon="7.714676">
        <ele>329.568176</ele>
        <time>2021-11-08T22:26:17.567Z</time>
      </trkpt>
      <trkpt lat="47.503143" lon="7.714824">
        <ele>328.783987</ele>
        <time>2021-11-08T22:26:18.805Z</time>
      </trkpt>
      <trkpt lat="47.503112" lon="7.714858">
        <ele>328.570029</ele>
        <time>2021-11-08T22:26:19.182Z</time>
      </trkpt>
      <trkpt lat="47.503047" lon="7.714929">
        <ele>328.122053</ele>
        <time>2021-11-08T22:26:19.952Z</time>
      </trkpt>
      <trkpt lat="47.502947" lon="7.715052">
        <ele>327.401034</ele>
        <time>2021-11-08T22:26:21.199Z</time>
      </trkpt>
      <trkpt lat="47.502878" lon="7.715120">
        <ele>326.941345</ele>
        <time>2021-11-08T22:26:21.933Z</time>
      </trkpt>
      <trkpt lat="47.502840" lon="7.715168">
        <ele>326.664317</ele>
        <time>2021-11-08T22:26:22.364Z</time>
      </trkpt>
      <trkpt lat="47.502768" lon="7.715262">
        <ele>326.131928</ele>
        <time>2021-11-08T22:26:23.275Z</time>
      </trkpt>
      <trkpt lat="47.502701" lon="7.715349">
        <ele>325.637678</ele>
        <time>2021-11-08T22:26:24.126Z</time>
      </trkpt>
      <trkpt lat="47.502765" lon="7.715436">
        <ele>325.155810</ele>
        <time>2021-11-08T22:26:24.909Z</time>
      </trkpt>
      <trkpt lat="47.503037" lon="7.715711">
        <ele>323.329160</ele>
        <time>2021-11-08T22:26:27.920Z</time>
      </trkpt>
      <trkpt lat="47.503190" lon="7.715883">
        <ele>322.263744</ele>
        <time>2021-11-08T22:26:29.646Z</time>
      </trkpt>
      <trkpt lat="47.503374" lon="7.716090">
        <ele>320.992100</ele>
        <time>2021-11-08T22:26:31.756Z</time>
      </trkpt>
      <trkpt lat="47.503385" lon="7.716103">
        <ele>320.916301</ele>
        <time>2021-11-08T22:26:31.868Z</time>
      </trkpt>
      <trkpt lat="47.504638" lon="7.717428">
        <ele>312.623870</ele>
        <time>2021-11-08T22:26:46.113Z</time>
      </trkpt>
      <trkpt lat="47.504768" lon="7.717551">
        <ele>311.793020</ele>
        <time>2021-11-08T22:26:47.642Z</time>
      </trkpt>
      <trkpt lat="47.505110" lon="7.717878">
        <ele>310.460067</ele>
        <time>2021-11-08T22:26:51.833Z</time>
      </trkpt>
      <trkpt lat="47.505450" lon="7.718130">
        <ele>309.274912</ele>
        <time>2021-11-08T22:26:55.826Z</time>
      </trkpt>
      <trkpt lat="47.505555" lon="7.718218">
        <ele>308.898828</ele>
        <time>2021-11-08T22:26:57.109Z</time>
      </trkpt>
      <trkpt lat="47.505679" lon="7.718354">
        <ele>308.417813</ele>
        <time>2021-11-08T22:26:58.695Z</time>
      </trkpt>
      <trkpt lat="47.505743" lon="7.718437">
        <ele>308.152609</ele>
        <time>2021-11-08T22:26:59.609Z</time>
      </trkpt>
      <trkpt lat="47.505779" lon="7.718480">
        <ele>308.008430</ele>
        <time>2021-11-08T22:27:00.102Z</time>
      </trkpt>
      <trkpt lat="47.505956" lon="7.718729">
        <ele>307.247362</ele>
        <time>2021-11-08T22:27:02.607Z</time>
      </trkpt>
      <trkpt lat="47.505997" lon="7.718795">
        <ele>307.058572</ele>
        <time>2021-11-08T22:27:03.259Z</time>
      </trkpt>
      <trkpt lat="47.506068" lon="7.718917">
        <ele>306.719519</ele>
        <time>2021-11-08T22:27:04.432Z</time>
      </trkpt>
      <trkpt lat="47.506270" lon="7.719795">
        <ele>304.275744</ele>
        <time>2021-11-08T22:27:10.777Z</time>
      </trkpt>
      <trkpt lat="47.506301" lon="7.720052">
        <ele>303.513349</ele>
        <time>2021-11-08T22:27:12.466Z</time>
      </trkpt>
      <trkpt lat="47.506392" lon="7.720766">
        <ele>301.391449</ele>
        <time>2021-11-08T22:27:17.185Z</time>
      </trkpt>
      <trkpt lat="47.506430" lon="7.721111">
        <ele>300.370633</ele>
        <time>2021-11-08T22:27:19.471Z</time>
      </trkpt>
      <trkpt lat="47.506444" lon="7.721258">
        <ele>299.937101</ele>
        <time>2021-11-08T22:27:20.388Z</time>
      </trkpt>
      <trkpt lat="47.506487" lon="7.721251">
        <ele>299.750085</ele>
        <time>2021-11-08T22:27:20.796Z</time>
      </trkpt>
      <trkpt lat="47.506629" lon="7.721483">
        <ele>298.835820</ele>
        <time>2021-11-08T22:27:23.700Z</time>
      </trkpt>
      <trkpt lat="47.506792" lon="7.721716">
        <ele>297.807549</ele>
        <time>2021-11-08T22:27:26.689Z</time>
      </trkpt>
      <trkpt lat="47.506899" lon="7.721894">
        <ele>297.027611</ele>
        <time>2021-11-08T22:27:28.835Z</time>
      </trkpt>
      <trkpt lat="47.507172" lon="7.722216">
        <ele>295.336193</ele>
        <time>2021-11-08T22:27:33.476Z</time>
      </trkpt>
      <trkpt lat="47.507374" lon="7.722336">
        <ele>294.281493</ele>
        <time>2021-11-08T22:27:36.374Z</time>
      </trkpt>
      <trkpt lat="47.507569" lon="7.722425">
        <ele>293.292695</ele>
        <time>2021-11-08T22:27:39.102Z</time>
      </trkpt>
      <trkpt lat="47.507580" lon="7.722540">
        <ele>292.912518</ele>
        <time>2021-11-08T22:27:39.831Z</time>
      </trkpt>
      <trkpt lat="47.507757" lon="7.722978">
        <ele>291.241876</ele>
        <time>2021-11-08T22:27:43.092Z</time>
      </trkpt>
      <trkpt lat="47.507789" lon="7.723088">
        <ele>290.849852</ele>
        <time>2021-11-08T22:27:43.862Z</time>
      </trkpt>
      <trkpt lat="47.507799" lon="7.723186">
        <ele>290.525437</ele>
        <time>2021-11-08T22:27:44.510Z</time>
      </trkpt>
      <trkpt lat="47.507806" lon="7.723886">
        <ele>288.963860</ele>
        <time>2021-11-08T22:27:49.298Z</time>
      </trkpt>
      <trkpt lat="47.507810" lon="7.724326">
        <ele>288.326318</ele>
        <time>2021-11-08T22:27:52.350Z</time>
      </trkpt>
      <trkpt lat="47.508175" lon="7.724311">
        <ele>287.543145</ele>
        <time>2021-11-08T22:27:57.932Z</time>
      </trkpt>
      <trkpt lat="47.508425" lon="7.724317">
        <ele>287.006860</ele>
        <time>2021-11-08T22:28:01.973Z</time>
      </trkpt>
      <trkpt lat="47.508629" lon="7.724301">
        <ele>286.568696</ele>
        <time>2021-11-08T22:28:05.466Z</time>
      </trkpt>
      <trkpt lat="47.508823" lon="7.724215">
        <ele>286.134340</ele>
        <time>2021-11-08T22:28:07.953Z</time>
      </trkpt>
      <trkpt lat="47.509150" lon="7.724070">
        <ele>285.664928</ele>
        <time>2021-11-08T22:28:12.154Z</time>
      </trkpt>
      <trkpt lat="47.509672" lon="7.723906">
        <ele>285.581082</ele>
        <time>2021-11-08T22:28:19.073Z</time>
      </trkpt>
      <trkpt lat="47.509849" lon="7.723882">
        <ele>285.553154</ele>
        <time>2021-11-08T22:28:22.677Z</time>
      </trkpt>
      <trkpt lat="47.510349" lon="7.724011">
        <ele>285.473407</ele>
        <time>2021-11-08T22:28:33.645Z</time>
      </trkpt>
      <trkpt lat="47.510952" lon="7.724263">
        <ele>285.473997</ele>
        <time>2021-11-08T22:28:47.705Z</time>
      </trkpt>
      <trkpt lat="47.511606" lon="7.724590">
        <ele>285.747462</ele>
        <time>2021-11-08T22:29:00.174Z</time>
      </trkpt>
      <trkpt lat="47.511791" lon="7.724622">
        <ele>285.821250</ele>
        <time>2021-11-08T22:29:03.744Z</time>
      </trkpt>
      <trkpt lat="47.511979" lon="7.724618">
        <ele>285.895736</ele>
        <time>2021-11-08T22:29:07.586Z</time>
      </trkpt>
      <trkpt lat="47.512214" lon="7.724543">
        <ele>285.990972</ele>
        <time>2021-11-08T22:29:13.654Z</time>
      </trkpt>
      <trkpt lat="47.512277" lon="7.724501">
        <ele>286.018343</ele>
        <time>2021-11-08T22:29:14.754Z</time>
      </trkpt>
      <trkpt lat="47.512857" lon="7.723931">
        <ele>286.701777</ele>
        <time>2021-11-08T22:29:35.511Z</time>
      </trkpt>
      <trkpt lat="47.512888" lon="7.724074">
        <ele>286.833739</ele>
        <time>2021-11-08T22:29:37.609Z</time>
      </trkpt>
      <trkpt lat="47.512910" lon="7.724174">
        <ele>286.926149</ele>
        <time>2021-11-08T22:29:39.464Z</time>
      </trkpt>
      <trkpt lat="47.512976" lon="7.724418">
        <ele>287.157097</ele>
        <time>2021-11-08T22:29:42.858Z</time>
      </trkpt>
      <trkpt lat="47.513078" lon="7.724821">
        <ele>287.535243</ele>
        <time>2021-11-08T22:29:48.771Z</time>
      </trkpt>
      <trkpt lat="47.513150" lon="7.725105">
        <ele>287.801783</ele>
        <time>2021-11-08T22:29:51.145Z</time>
      </trkpt>
      <trkpt lat="47.513193" lon="7.725244">
        <ele>287.936118</ele>
        <time>2021-11-08T22:29:54.141Z</time>
      </trkpt>
      <trkpt lat="47.513232" lon="7.725318">
        <ele>288.018591</ele>
        <time>2021-11-08T22:29:55.296Z</time>
      </trkpt>
      <trkpt lat="47.513538" lon="7.725582">
        <ele>288.443963</ele>
        <time>2021-11-08T22:30:02.395Z</time>
      </trkpt>
      <trkpt lat="47.513681" lon="7.725617">
        <ele>288.352609</ele>
        <time>2021-11-08T22:30:04.723Z</time>
      </trkpt>
      <trkpt lat="47.514143" lon="7.725538">
        <ele>288.059483</ele>
        <time>2021-11-08T22:30:14.359Z</time>
      </trkpt>
      <trkpt lat="47.515140" lon="7.725368">
        <ele>287.426937</ele>
        <time>2021-11-08T22:30:26.275Z</time>
      </trkpt>
      <trkpt lat="47.515697" lon="7.725255">
        <ele>286.415818</ele>
        <time>2021-11-08T22:30:32.076Z</time>
      </trkpt>
      <trkpt lat="47.515959" lon="7.725102">
        <ele>285.770574</ele>
        <time>2021-11-08T22:30:35.059Z</time>
      </trkpt>
      <trkpt lat="47.516416" lon="7.724623">
        <ele>284.487800</ele>
        <time>2021-11-08T22:30:41.016Z</time>
      </trkpt>
      <trkpt lat="47.517269" lon="7.723372">
        <ele>282.141221</ele>
        <time>2021-11-08T22:30:54.080Z</time>
      </trkpt>
      <trkpt lat="47.517885" lon="7.722793">
        <ele>280.930953</ele>
        <time>2021-11-08T22:31:02.414Z</time>
      </trkpt>
      <trkpt lat="47.518038" lon="7.722700">
        <ele>280.656615</ele>
        <time>2021-11-08T22:31:04.293Z</time>
      </trkpt>
      <trkpt lat="47.518237" lon="7.722578">
        <ele>280.299352</ele>
        <time>2021-11-08T22:31:06.912Z</time>
      </trkpt>
      <trkpt lat="47.519305" lon="7.722165">
        <ele>279.722335</ele>
        <time>2021-11-08T22:31:20.511Z</time>
      </trkpt>
      <trkpt lat="47.520760" lon="7.721667">
        <ele>281.427202</ele>
        <time>2021-11-08T22:31:44.509Z</time>
      </trkpt>
      <trkpt lat="47.521121" lon="7.721544">
        <ele>282.442825</ele>
        <time>2021-11-08T22:31:53.951Z</time>
      </trkpt>
      <trkpt lat="47.521455" lon="7.721426">
        <ele>283.384260</ele>
        <time>2021-11-08T22:32:05.122Z</time>
      </trkpt>
      <trkpt lat="47.521722" lon="7.721283">
        <ele>284.162708</ele>
        <time>2021-11-08T22:32:14.720Z</time>
      </trkpt>
      <trkpt lat="47.521846" lon="7.721211">
        <ele>284.821898</ele>
        <time>2021-11-08T22:32:20.995Z</time>
      </trkpt>
      <trkpt lat="47.521984" lon="7.721168">
        <ele>285.716790</ele>
        <time>2021-11-08T22:32:25.749Z</time>
      </trkpt>
      <trkpt lat="47.522249" lon="7.721165">
        <ele>287.398466</ele>
        <time>2021-11-08T22:32:37.806Z</time>
      </trkpt>
      <trkpt lat="47.522498" lon="7.721207">
        <ele>288.988778</ele>
        <time>2021-11-08T22:32:48.443Z</time>
      </trkpt>
      <trkpt lat="47.522682" lon="7.721170">
        <ele>290.167114</ele>
        <time>2021-11-08T22:32:55.895Z</time>
      </trkpt>
      <trkpt lat="47.522888" lon="7.721170">
        <ele>291.474341</ele>
        <time>2021-11-08T22:33:05.628Z</time>
      </trkpt>
      <trkpt lat="47.523111" lon="7.721224">
        <ele>292.908241</ele>
        <time>2021-11-08T22:33:13.992Z</time>
      </trkpt>
      <trkpt lat="47.523300" lon="7.721328">
        <ele>294.187716</ele>
        <time>2021-11-08T22:33:23.317Z</time>
      </trkpt>
      <trkpt lat="47.523671" lon="7.721634">
        <ele>296.212109</ele>
        <time>2021-11-08T22:33:39.233Z</time>
      </trkpt>
      <trkpt lat="47.523902" lon="7.721670">
        <ele>296.837524</ele>
        <time>2021-11-08T22:33:48.048Z</time>
      </trkpt>
      <trkpt lat="47.524263" lon="7.721598">
        <ele>297.818311</ele>
        <time>2021-11-08T22:33:59.391Z</time>
      </trkpt>
      <trkpt lat="47.524632" lon="7.721805">
        <ele>298.880762</ele>
        <time>2021-11-08T22:34:08.751Z</time>
      </trkpt>
      <trkpt lat="47.524884" lon="7.722022">
        <ele>299.665659</ele>
        <time>2021-11-08T22:34:13.998Z</time>
      </trkpt>
      <trkpt lat="47.525258" lon="7.722384">
        <ele>300.421953</ele>
        <time>2021-11-08T22:34:20.136Z</time>
      </trkpt>
      <trkpt lat="47.525373" lon="7.722545">
        <ele>300.229554</ele>
        <time>2021-11-08T22:34:22.143Z</time>
      </trkpt>
      <trkpt lat="47.526099" lon="7.723563">
        <ele>299.014034</ele>
        <time>2021-11-08T22:34:33.541Z</time>
      </trkpt>
      <trkpt lat="47.526744" lon="7.724750">
        <ele>298.226066</ele>
        <time>2021-11-08T22:34:45.477Z</time>
      </trkpt>
      <trkpt lat="47.526894" lon="7.725042">
        <ele>298.153033</ele>
        <time>2021-11-08T22:34:48.514Z</time>
      </trkpt>
      <trkpt lat="47.527862" lon="7.727114">
        <ele>298.083156</ele>
        <time>2021-11-08T22:35:16.726Z</time>
      </trkpt>
      <trkpt lat="47.528009" lon="7.727429">
        <ele>298.177861</ele>
        <time>2021-11-08T22:35:21.603Z</time>
      </trkpt>
      <trkpt lat="47.528065" lon="7.727556">
        <ele>298.215376</ele>
        <time>2021-11-08T22:35:23.387Z</time>
      </trkpt>
      <trkpt lat="47.528164" lon="7.727824">
        <ele>298.290932</ele>
        <time>2021-11-08T22:35:26.951Z</time>
      </trkpt>
      <trkpt lat="47.528320" lon="7.728136">
        <ele>298.386951</ele>
        <time>2021-11-08T22:35:31.126Z</time>
      </trkpt>
      <trkpt lat="47.528408" lon="7.728307">
        <ele>298.440127</ele>
        <time>2021-11-08T22:35:33.259Z</time>
      </trkpt>
      <trkpt lat="47.528552" lon="7.728411">
        <ele>298.498811</ele>
        <time>2021-11-08T22:35:35.515Z</time>
      </trkpt>
      <trkpt lat="47.528614" lon="7.728431">
        <ele>298.459330</ele>
        <time>2021-11-08T22:35:36.416Z</time>
      </trkpt>
      <trkpt lat="47.528688" lon="7.728441">
        <ele>298.397836</ele>
        <time>2021-11-08T22:35:37.411Z</time>
      </trkpt>
      <trkpt lat="47.528715" lon="7.728334">
        <ele>298.334008</ele>
        <time>2021-11-08T22:35:38.418Z</time>
      </trkpt>
      <trkpt lat="47.528746" lon="7.728265">
        <ele>298.287696</ele>
        <time>2021-11-08T22:35:39.185Z</time>
      </trkpt>
      <trkpt lat="47.528803" lon="7.728159">
        <ele>298.211977</ele>
        <time>2021-11-08T22:35:40.419Z</time>
      </trkpt>
      <trkpt lat="47.528848" lon="7.728118">
        <ele>298.168254</ele>
        <time>2021-11-08T22:35:41.123Z</time>
      </trkpt>
      <trkpt lat="47.528941" lon="7.728048">
        <ele>298.081921</ele>
        <time>2021-11-08T22:35:42.473Z</time>
      </trkpt>
      <trkpt lat="47.529269" lon="7.727844">
        <ele>297.787517</ele>
        <time>2021-11-08T22:35:46.937Z</time>
      </trkpt>
      <trkpt lat="47.529976" lon="7.727410">
        <ele>297.154164</ele>
        <time>2021-11-08T22:35:56.103Z</time>
      </trkpt>
      <trkpt lat="47.530372" lon="7.727161">
        <ele>296.807110</ele>
        <time>2021-11-08T22:36:01.225Z</time>
      </trkpt>
      <trkpt lat="47.530756" lon="7.726844">
        <ele>296.458396</ele>
        <time>2021-11-08T22:36:06.569Z</time>
      </trkpt>
      <trkpt lat="47.531031" lon="7.726569">
        <ele>296.195195</ele>
        <time>2021-11-08T22:36:10.732Z</time>
      </trkpt>
      <trkpt lat="47.531193" lon="7.726888">
        <ele>295.981417</ele>
        <time>2021-11-08T22:36:14.169Z</time>
      </trkpt>
      <trkpt lat="47.531296" lon="7.727089">
        <ele>295.846275</ele>
        <time>2021-11-08T22:36:16.503Z</time>
      </trkpt>
      <trkpt lat="47.531623" lon="7.727725">
        <ele>295.529947</ele>
        <time>2021-11-08T22:36:23.714Z</time>
      </trkpt>
      <trkpt lat="47.531815" lon="7.728165">
        <ele>295.434476</ele>
        <time>2021-11-08T22:36:28.463Z</time>
      </trkpt>
      <trkpt lat="47.531944" lon="7.728603">
        <ele>295.347395</ele>
        <time>2021-11-08T22:36:32.801Z</time>
      </trkpt>
      <trkpt lat="47.532193" lon="7.730459">
        <ele>295.166866</ele>
        <time>2021-11-08T22:36:51.073Z</time>
      </trkpt>
      <trkpt lat="47.532405" lon="7.731493">
        <ele>295.294817</ele>
        <time>2021-11-08T22:37:03.030Z</time>
      </trkpt>
      <trkpt lat="47.532473" lon="7.731703">
        <ele>295.322393</ele>
        <time>2021-11-08T22:37:05.498Z</time>
      </trkpt>
      <trkpt lat="47.532665" lon="7.732105">
        <ele>295.380697</ele>
        <time>2021-11-08T22:37:10.982Z</time>
      </trkpt>
      <trkpt lat="47.532776" lon="7.732283">
        <ele>295.409387</ele>
        <time>2021-11-08T22:37:13.557Z</time>
      </trkpt>
      <trkpt lat="47.532853" lon="7.732416">
        <ele>295.393103</ele>
        <time>2021-11-08T22:37:15.474Z</time>
      </trkpt>
      <trkpt lat="47.532961" lon="7.732599">
        <ele>295.336980</ele>
        <time>2021-11-08T22:37:17.764Z</time>
      </trkpt>
      <trkpt lat="47.533220" lon="7.733022">
        <ele>295.205127</ele>
        <time>2021-11-08T22:37:23.299Z</time>
      </trkpt>
      <trkpt lat="47.533324" lon="7.733190">
        <ele>295.152498</ele>
        <time>2021-11-08T22:37:25.603Z</time>
      </trkpt>
      <trkpt lat="47.533436" lon="7.733399">
        <ele>295.090887</ele>
        <time>2021-11-08T22:37:27.948Z</time>
      </trkpt>
      <trkpt lat="47.533577" lon="7.733712">
        <ele>295.004005</ele>
        <time>2021-11-08T22:37:31.461Z</time>
      </trkpt>
      <trkpt lat="47.533685" lon="7.734026">
        <ele>294.922637</ele>
        <time>2021-11-08T22:37:34.573Z</time>
      </trkpt>
      <trkpt lat="47.533860" lon="7.734479">
        <ele>294.801787</ele>
        <time>2021-11-08T22:37:39.068Z</time>
      </trkpt>
      <trkpt lat="47.534301" lon="7.735625">
        <ele>294.182091</ele>
        <time>2021-11-08T22:37:49.901Z</time>
      </trkpt>
      <trkpt lat="47.534450" lon="7.736026">
        <ele>293.967059</ele>
        <time>2021-11-08T22:37:53.679Z</time>
      </trkpt>
      <trkpt lat="47.534670" lon="7.736644">
        <ele>293.638842</ele>
        <time>2021-11-08T22:37:59.703Z</time>
      </trkpt>
      <trkpt lat="47.534765" lon="7.736911">
        <ele>293.829608</ele>
        <time>2021-11-08T22:38:02.367Z</time>
      </trkpt>
      <trkpt lat="47.534902" lon="7.737288">
        <ele>294.870793</ele>
        <time>2021-11-08T22:38:07.057Z</time>
      </trkpt>
      <trkpt lat="47.535216" lon="7.738157">
        <ele>297.267709</ele>
        <time>2021-11-08T22:38:21.787Z</time>
      </trkpt>
      <trkpt lat="47.534755" lon="7.738529">
        <ele>299.158674</ele>
        <time>2021-11-08T22:38:42.008Z</time>
      </trkpt>
      <trkpt lat="47.534011" lon="7.739126">
        <ele>304.721151</ele>
        <time>2021-11-08T22:39:23.642Z</time>
      </trkpt>
      <trkpt lat="47.533446" lon="7.739598">
        <ele>309.756604</ele>
        <time>2021-11-08T22:39:55.508Z</time>
      </trkpt>
      <trkpt lat="47.533226" lon="7.739781">
        <ele>311.715290</ele>
        <time>2021-11-08T22:40:06.777Z</time>
      </trkpt>
      <trkpt lat="47.533191" lon="7.739816">
        <ele>312.043112</ele>
        <time>2021-11-08T22:40:10.050Z</time>
      </trkpt>
      <trkpt lat="47.533352" lon="7.740430">
        <ele>314.550485</ele>
        <time>2021-11-08T22:40:28.776Z</time>
      </trkpt>
      <trkpt lat="47.533371" lon="7.740515">
        <ele>314.724835</ele>
        <time>2021-11-08T22:40:30.636Z</time>
      </trkpt>
      <trkpt lat="47.533707" lon="7.742025">
        <ele>317.820707</ele>
        <time>2021-11-08T22:41:00.924Z</time>
      </trkpt>
      <trkpt lat="47.533870" lon="7.743466">
        <ele>319.007436</ele>
        <time>2021-11-08T22:41:13.113Z</time>
      </trkpt>
      <trkpt lat="47.534043" lon="7.744207">
        <ele>318.830819</ele>
        <time>2021-11-08T22:41:20.258Z</time>
      </trkpt>
      <trkpt lat="47.534097" lon="7.744343">
        <ele>318.795278</ele>
        <time>2021-11-08T22:41:21.706Z</time>
      </trkpt>
      <trkpt lat="47.534179" lon="7.744495">
        <ele>318.751451</ele>
        <time>2021-11-08T22:41:23.585Z</time>
      </trkpt>
      <trkpt lat="47.534370" lon="7.744709">
        <ele>318.671546</ele>
        <time>2021-11-08T22:41:26.879Z</time>
      </trkpt>
      <trkpt lat="47.534429" lon="7.744856">
        <ele>318.633024</ele>
        <time>2021-11-08T22:41:28.641Z</time>
      </trkpt>
      <trkpt lat="47.534874" lon="7.746551">
        <ele>318.641927</ele>
        <time>2021-11-08T22:41:46.191Z</time>
      </trkpt>
      <trkpt lat="47.535912" lon="7.749669">
        <ele>319.255930</ele>
        <time>2021-11-08T22:42:24.531Z</time>
      </trkpt>
      <trkpt lat="47.537134" lon="7.752309">
        <ele>320.032889</ele>
        <time>2021-11-08T22:42:58.684Z</time>
      </trkpt>
      <trkpt lat="47.537371" lon="7.752851">
        <ele>320.711983</ele>
        <time>2021-11-08T22:43:05.333Z</time>
      </trkpt>
      <trkpt lat="47.537564" lon="7.753073">
        <ele>321.092622</ele>
        <time>2021-11-08T22:43:09.148Z</time>
      </trkpt>
      <trkpt lat="47.537715" lon="7.753194">
        <ele>321.360048</ele>
        <time>2021-11-08T22:43:12.992Z</time>
      </trkpt>
      <trkpt lat="47.538052" lon="7.753460">
        <ele>321.954873</ele>
        <time>2021-11-08T22:43:22.077Z</time>
      </trkpt>
      <trkpt lat="47.538359" lon="7.753900">
        <ele>322.767424</ele>
        <time>2021-11-08T22:43:33.308Z</time>
      </trkpt>
      <trkpt lat="47.538494" lon="7.754103">
        <ele>323.752376</ele>
        <time>2021-11-08T22:43:39.113Z</time>
      </trkpt>
      <trkpt lat="47.538723" lon="7.754445">
        <ele>325.417371</ele>
        <time>2021-11-08T22:43:49.306Z</time>
      </trkpt>
      <trkpt lat="47.538792" lon="7.754549">
        <ele>325.921392</ele>
        <time>2021-11-08T22:43:53.168Z</time>
      </trkpt>
      <trkpt lat="47.539079" lon="7.754976">
        <ele>328.004110</ele>
        <time>2021-11-08T22:44:08.866Z</time>
      </trkpt>
      <trkpt lat="47.539230" lon="7.755294">
        <ele>329.347951</ele>
        <time>2021-11-08T22:44:19.527Z</time>
      </trkpt>
      <trkpt lat="47.539346" lon="7.755736">
        <ele>330.987109</ele>
        <time>2021-11-08T22:44:32.817Z</time>
      </trkpt>
      <trkpt lat="47.539595" lon="7.757548">
        <ele>335.494626</ele>
        <time>2021-11-08T22:45:16.740Z</time>
      </trkpt>
      <trkpt lat="47.539722" lon="7.758107">
        <ele>336.849041</ele>
        <time>2021-11-08T22:45:25.747Z</time>
      </trkpt>
      <trkpt lat="47.539949" lon="7.758688">
        <ele>337.416300</ele>
        <time>2021-11-08T22:45:32.960Z</time>
      </trkpt>
      <trkpt lat="47.540447" lon="7.759585">
        <ele>334.959032</ele>
        <time>2021-11-08T22:45:41.483Z</time>
      </trkpt>
      <trkpt lat="47.540567" lon="7.759901">
        <ele>334.191913</ele>
        <time>2021-11-08T22:45:43.869Z</time>
      </trkpt>
      <trkpt lat="47.540921" lon="7.761599">
        <ele>327.406025</ele>
        <time>2021-11-08T22:45:54.992Z</time>
      </trkpt>
      <trkpt lat="47.541004" lon="7.762306">
        <ele>323.355533</ele>
        <time>2021-11-08T22:45:59.212Z</time>
      </trkpt>
      <trkpt lat="47.541023" lon="7.762922">
        <ele>319.874953</ele>
        <time>2021-11-08T22:46:02.796Z</time>
      </trkpt>
      <trkpt lat="47.541219" lon="7.763853">
        <ele>314.463106</ele>
        <time>2021-11-08T22:46:08.419Z</time>
      </trkpt>
      <trkpt lat="47.541334" lon="7.764020">
        <ele>313.160594</ele>
        <time>2021-11-08T22:46:09.886Z</time>
      </trkpt>
      <trkpt lat="47.541377" lon="7.764045">
        <ele>312.786979</ele>
        <time>2021-11-08T22:46:10.258Z</time>
      </trkpt>
      <trkpt lat="47.541364" lon="7.764150">
        <ele>312.204124</ele>
        <time>2021-11-08T22:46:10.870Z</time>
      </trkpt>
      <trkpt lat="47.541443" lon="7.764512">
        <ele>310.126918</ele>
        <time>2021-11-08T22:46:13.180Z</time>
      </trkpt>
      <trkpt lat="47.541552" lon="7.764869">
        <ele>307.987628</ele>
        <time>2021-11-08T22:46:15.474Z</time>
      </trkpt>
      <trkpt lat="47.541697" lon="7.765479">
        <ele>304.456640</ele>
        <time>2021-11-08T22:46:19.356Z</time>
      </trkpt>
      <trkpt lat="47.542317" lon="7.768533">
        <ele>296.272668</ele>
        <time>2021-11-08T22:46:40.830Z</time>
      </trkpt>
      <trkpt lat="47.542450" lon="7.769311">
        <ele>296.071327</ele>
        <time>2021-11-08T22:46:48.544Z</time>
      </trkpt>
      <trkpt lat="47.542720" lon="7.770771">
        <ele>295.691556</ele>
        <time>2021-11-08T22:47:05.088Z</time>
      </trkpt>
      <trkpt lat="47.543108" lon="7.773069">
        <ele>296.155151</ele>
        <time>2021-11-08T22:47:31.940Z</time>
      </trkpt>
      <trkpt lat="47.543145" lon="7.773277">
        <ele>296.203863</ele>
        <time>2021-11-08T22:47:34.066Z</time>
      </trkpt>
      <trkpt lat="47.543350" lon="7.774507">
        <ele>296.385721</ele>
        <time>2021-11-08T22:47:46.529Z</time>
      </trkpt>
      <trkpt lat="47.543402" lon="7.775016">
        <ele>296.449985</ele>
        <time>2021-11-08T22:47:51.593Z</time>
      </trkpt>
      <trkpt lat="47.543449" lon="7.775478">
        <ele>296.508309</ele>
        <time>2021-11-08T22:47:56.286Z</time>
      </trkpt>
      <trkpt lat="47.543482" lon="7.776095">
        <ele>296.585573</ele>
        <time>2021-11-08T22:48:02.994Z</time>
      </trkpt>
      <trkpt lat="47.543527" lon="7.776532">
        <ele>297.217320</ele>
        <time>2021-11-08T22:48:08.153Z</time>
      </trkpt>
      <trkpt lat="47.543707" lon="7.777394">
        <ele>298.592106</ele>
        <time>2021-11-08T22:48:20.439Z</time>
      </trkpt>
      <trkpt lat="47.543933" lon="7.778374">
        <ele>300.170003</ele>
        <time>2021-11-08T22:48:38.766Z</time>
      </trkpt>
      <trkpt lat="47.544100" lon="7.779438">
        <ele>303.735966</ele>
        <time>2021-11-08T22:49:02.966Z</time>
      </trkpt>
      <trkpt lat="47.544461" lon="7.782254">
        <ele>312.459811</ele>
        <time>2021-11-08T22:50:23.568Z</time>
      </trkpt>
      <trkpt lat="47.544469" lon="7.782455">
        <ele>312.714171</ele>
        <time>2021-11-08T22:50:28.601Z</time>
      </trkpt>
      <trkpt lat="47.544474" lon="7.782623">
        <ele>312.926607</ele>
        <time>2021-11-08T22:50:30.989Z</time>
      </trkpt>
      <trkpt lat="47.544490" lon="7.783060">
        <ele>313.479471</ele>
        <time>2021-11-08T22:50:34.880Z</time>
      </trkpt>
      <trkpt lat="47.544555" lon="7.783372">
        <ele>313.891958</ele>
        <time>2021-11-08T22:50:37.365Z</time>
      </trkpt>
      <trkpt lat="47.544627" lon="7.783499">
        <ele>314.101472</ele>
        <time>2021-11-08T22:50:38.762Z</time>
      </trkpt>
      <trkpt lat="47.544950" lon="7.784008">
        <ele>313.347151</ele>
        <time>2021-11-08T22:50:45.574Z</time>
      </trkpt>
      <trkpt lat="47.545054" lon="7.784227">
        <ele>312.286181</ele>
        <time>2021-11-08T22:50:48.147Z</time>
      </trkpt>
      <trkpt lat="47.545240" lon="7.784746">
        <ele>309.957891</ele>
        <time>2021-11-08T22:50:53.301Z</time>
      </trkpt>
      <trkpt lat="47.545250" lon="7.784778">
        <ele>309.818170</ele>
        <time>2021-11-08T22:50:53.575Z</time>
      </trkpt>
      <trkpt lat="47.545624" lon="7.785548">
        <ele>306.059465</ele>
        <time>2021-11-08T22:51:01.738Z</time>
      </trkpt>
      <trkpt lat="47.545672" lon="7.785654">
        <ele>305.553712</ele>
        <time>2021-11-08T22:51:02.747Z</time>
      </trkpt>
      <trkpt lat="47.545856" lon="7.785973">
        <ele>303.970127</ele>
        <time>2021-11-08T22:51:06.588Z</time>
      </trkpt>
      <trkpt lat="47.546102" lon="7.786217">
        <ele>303.218531</ele>
        <time>2021-11-08T22:51:10.575Z</time>
      </trkpt>
      <trkpt lat="47.546417" lon="7.786331">
        <ele>302.395293</ele>
        <time>2021-11-08T22:51:15.160Z</time>
      </trkpt>
      <trkpt lat="47.546464" lon="7.786335">
        <ele>302.275773</ele>
        <time>2021-11-08T22:51:15.927Z</time>
      </trkpt>
      <trkpt lat="47.546526" lon="7.786353">
        <ele>302.115374</ele>
        <time>2021-11-08T22:51:16.930Z</time>
      </trkpt>
      <trkpt lat="47.546913" lon="7.786470">
        <ele>301.112609</ele>
        <time>2021-11-08T22:51:23.111Z</time>
      </trkpt>
      <trkpt lat="47.546952" lon="7.786540">
        <ele>300.957068</ele>
        <time>2021-11-08T22:51:24.046Z</time>
      </trkpt>
      <trkpt lat="47.546959" lon="7.786598">
        <ele>300.856100</ele>
        <time>2021-11-08T22:51:24.744Z</time>
      </trkpt>
      <trkpt lat="47.546897" lon="7.787133">
        <ele>299.925881</ele>
        <time>2021-11-08T22:51:31.920Z</time>
      </trkpt>
      <trkpt lat="47.546745" lon="7.788362">
        <ele>299.851773</ele>
        <time>2021-11-08T22:51:49.851Z</time>
      </trkpt>
      <trkpt lat="47.546695" lon="7.788763">
        <ele>300.013177</ele>
        <time>2021-11-08T22:51:55.739Z</time>
      </trkpt>
      <trkpt lat="47.546673" lon="7.788921">
        <ele>300.077031</ele>
        <time>2021-11-08T22:51:58.383Z</time>
      </trkpt>
      <trkpt lat="47.546253" lon="7.791998">
        <ele>301.775618</ele>
        <time>2021-11-08T22:52:50.413Z</time>
      </trkpt>
      <trkpt lat="47.546132" lon="7.792672">
        <ele>302.162505</ele>
        <time>2021-11-08T22:53:01.527Z</time>
      </trkpt>
      <trkpt lat="47.546027" lon="7.793254">
        <ele>302.041188</ele>
        <time>2021-11-08T22:53:10.060Z</time>
      </trkpt>
      <trkpt lat="47.545969" lon="7.793663">
        <ele>301.957025</ele>
        <time>2021-11-08T22:53:15.215Z</time>
      </trkpt>
      <trkpt lat="47.545921" lon="7.794468">
        <ele>301.794282</ele>
        <time>2021-11-08T22:53:25.069Z</time>
      </trkpt>
      <trkpt lat="47.545947" lon="7.794710">
        <ele>301.744934</ele>
        <time>2021-11-08T22:53:27.902Z</time>
      </trkpt>
      <trkpt lat="47.546019" lon="7.795020">
        <ele>301.678914</ele>
        <time>2021-11-08T22:53:31.940Z</time>
      </trkpt>
      <trkpt lat="47.546165" lon="7.795511">
        <ele>301.615435</ele>
        <time>2021-11-08T22:53:38.866Z</time>
      </trkpt>
      <trkpt lat="47.546170" lon="7.795612">
        <ele>301.608736</ele>
        <time>2021-11-08T22:53:39.915Z</time>
      </trkpt>
      <trkpt lat="47.546154" lon="7.795747">
        <ele>301.599668</ele>
        <time>2021-11-08T22:53:41.746Z</time>
      </trkpt>
      <trkpt lat="47.546105" lon="7.795928">
        <ele>301.586767</ele>
        <time>2021-11-08T22:53:44.894Z</time>
      </trkpt>
      <trkpt lat="47.546038" lon="7.796107">
        <ele>301.573227</ele>
        <time>2021-11-08T22:53:47.209Z</time>
      </trkpt>
      <trkpt lat="47.545889" lon="7.796500">
        <ele>301.543408</ele>
        <time>2021-11-08T22:53:54.087Z</time>
      </trkpt>
      <trkpt lat="47.545788" lon="7.796748">
        <ele>301.524247</ele>
        <time>2021-11-08T22:53:57.741Z</time>
      </trkpt>
      <trkpt lat="47.545728" lon="7.796950">
        <ele>301.509647</ele>
        <time>2021-11-08T22:54:01.062Z</time>
      </trkpt>
      <trkpt lat="47.545709" lon="7.797010">
        <ele>301.505263</ele>
        <time>2021-11-08T22:54:01.715Z</time>
      </trkpt>
      <trkpt lat="47.545689" lon="7.797076">
        <ele>301.500477</ele>
        <time>2021-11-08T22:54:02.539Z</time>
      </trkpt>
      <trkpt lat="47.545670" lon="7.797142">
        <ele>301.495730</ele>
        <time>2021-11-08T22:54:03.600Z</time>
      </trkpt>
      <trkpt lat="47.545645" lon="7.797258">
        <ele>301.487674</ele>
        <time>2021-11-08T22:54:05.364Z</time>
      </trkpt>
      <trkpt lat="47.545637" lon="7.797310">
        <ele>301.484146</ele>
        <time>2021-11-08T22:54:06.711Z</time>
      </trkpt>
      <trkpt lat="47.545558" lon="7.798144">
        <ele>301.418990</ele>
        <time>2021-11-08T22:54:17.988Z</time>
      </trkpt>
      <trkpt lat="47.545511" lon="7.798680">
        <ele>301.372852</ele>
        <time>2021-11-08T22:54:26.058Z</time>
      </trkpt>
      <trkpt lat="47.545581" lon="7.798713">
        <ele>301.363563</ele>
        <time>2021-11-08T22:54:27.569Z</time>
      </trkpt>
      <trkpt lat="47.545731" lon="7.798810">
        <ele>301.342866</ele>
        <time>2021-11-08T22:54:31.574Z</time>
      </trkpt>
      <trkpt lat="47.545807" lon="7.798846">
        <ele>301.332775</ele>
        <time>2021-11-08T22:54:32.913Z</time>
      </trkpt>
      <trkpt lat="47.546418" lon="7.798980">
        <ele>301.254667</ele>
        <time>2021-11-08T22:54:44.967Z</time>
      </trkpt>
      <trkpt lat="47.547540" lon="7.799538">
        <ele>300.699268</ele>
        <time>2021-11-08T22:55:05.608Z</time>
      </trkpt>
      <trkpt lat="47.547912" lon="7.799646">
        <ele>300.499979</ele>
        <time>2021-11-08T22:55:12.989Z</time>
      </trkpt>
      <trkpt lat="47.548459" lon="7.799691">
        <ele>300.277987</ele>
        <time>2021-11-08T22:55:23.927Z</time>
      </trkpt>
      <trkpt lat="47.548535" lon="7.799720">
        <ele>300.272595</ele>
        <time>2021-11-08T22:55:25.447Z</time>
      </trkpt>
      <trkpt lat="47.548514" lon="7.799795">
        <ele>300.268829</ele>
        <time>2021-11-08T22:55:26.511Z</time>
      </trkpt>
      <trkpt lat="47.548519" lon="7.799896">
        <ele>300.264133</ele>
        <time>2021-11-08T22:55:27.865Z</time>
      </trkpt>
      <trkpt lat="47.548545" lon="7.800404">
        <ele>300.240506</ele>
        <time>2021-11-08T22:55:34.656Z</time>
      </trkpt>
      <trkpt lat="47.548560" lon="7.800672">
        <ele>300.228035</ele>
        <time>2021-11-08T22:55:38.348Z</time>
      </trkpt>
      <trkpt lat="47.548569" lon="7.800838">
        <ele>300.220312</ele>
        <time>2021-11-08T22:55:40.592Z</time>
      </trkpt>
      <trkpt lat="47.548576" lon="7.800968">
        <ele>300.214264</ele>
        <time>2021-11-08T22:55:42.368Z</time>
      </trkpt>
      <trkpt lat="47.548596" lon="7.801213">
        <ele>300.202819</ele>
        <time>2021-11-08T22:55:45.747Z</time>
      </trkpt>
      <trkpt lat="47.548607" lon="7.801690">
        <ele>300.180686</ele>
        <time>2021-11-08T22:55:52.247Z</time>
      </trkpt>
      <trkpt lat="47.548626" lon="7.802129">
        <ele>300.148183</ele>
        <time>2021-11-08T22:55:58.166Z</time>
      </trkpt>
      <trkpt lat="47.548626" lon="7.802129">
        <ele>300.148183</ele>
        <time>2021-11-08T22:55:58.171Z</time>
      </trkpt>
      <trkpt lat="47.548626" lon="7.802129">
        <ele>300.148183</ele>
        <time>2021-11-08T22:55:58.178Z</time>
      </trkpt>
      <trkpt lat="47.548877" lon="7.802168">
        <ele>300.078990</ele>
        <time>2021-11-08T22:56:03.170Z</time>
      </trkpt>
      <trkpt lat="47.549410" lon="7.802226">
        <ele>299.932467</ele>
        <time>2021-11-08T22:56:13.584Z</time>
      </trkpt>
      <trkpt lat="47.549481" lon="7.802234">
        <ele>299.912946</ele>
        <time>2021-11-08T22:56:14.921Z</time>
      </trkpt>
      <trkpt lat="47.549879" lon="7.802247">
        <ele>299.803802</ele>
        <time>2021-11-08T22:56:22.387Z</time>
      </trkpt>
      <trkpt lat="47.550146" lon="7.802262">
        <ele>299.730548</ele>
        <time>2021-11-08T22:56:27.462Z</time>
      </trkpt>
      <trkpt lat="47.550134" lon="7.803051">
        <ele>299.598775</ele>
        <time>2021-11-08T22:56:37.686Z</time>
      </trkpt>
      <trkpt lat="47.550196" lon="7.803120">
        <ele>299.581014</ele>
        <time>2021-11-08T22:56:39.145Z</time>
      </trkpt>
      <trkpt lat="47.550981" lon="7.803132">
        <ele>299.401197</ele>
        <time>2021-11-08T22:56:53.791Z</time>
      </trkpt>
      <trkpt lat="47.551163" lon="7.803129">
        <ele>299.359507</ele>
        <time>2021-11-08T22:56:57.195Z</time>
      </trkpt>
      <trkpt lat="47.551598" lon="7.803160">
        <ele>299.259753</ele>
        <time>2021-11-08T22:57:05.772Z</time>
      </trkpt>
      <trkpt lat="47.551666" lon="7.803144">
        <ele>299.307481</ele>
        <time>2021-11-08T22:57:10.517Z</time>
      </trkpt>
      <trkpt lat="47.551732" lon="7.803125">
        <ele>299.356239</ele>
        <time>2021-11-08T22:57:15.183Z</time>
      </trkpt>
      <trkpt lat="47.551744" lon="7.803277">
        <ele>299.431145</ele>
        <time>2021-11-08T22:57:16.771Z</time>
      </trkpt>
      <trkpt lat="47.551751" lon="7.803369">
        <ele>299.476460</ele>
        <time>2021-11-08T22:57:18.086Z</time>
      </trkpt>
      <trkpt lat="47.551692" lon="7.803510">
        <ele>299.557662</ele>
        <time>2021-11-08T22:57:20.631Z</time>
      </trkpt>
      <trkpt lat="47.551741" lon="7.804294">
        <ele>299.943041</ele>
        <time>2021-11-08T22:57:33.470Z</time>
      </trkpt>
      <trkpt lat="47.551744" lon="7.804473">
        <ele>300.030682</ele>
        <time>2021-11-08T22:57:36.238Z</time>
      </trkpt>
      <trkpt lat="47.551731" lon="7.804667">
        <ele>300.126104</ele>
        <time>2021-11-08T22:57:40.081Z</time>
      </trkpt>
      <trkpt lat="47.551709" lon="7.805000">
        <ele>300.289874</ele>
        <time>2021-11-08T22:57:44.709Z</time>
      </trkpt>
      <trkpt lat="47.551687" lon="7.805377">
        <ele>300.475089</ele>
        <time>2021-11-08T22:57:50.810Z</time>
      </trkpt>
      <trkpt lat="47.551681" lon="7.805477">
        <ele>300.524228</ele>
        <time>2021-11-08T22:57:52.446Z</time>
      </trkpt>
      <trkpt lat="47.551671" lon="7.806117">
        <ele>300.632125</ele>
        <time>2021-11-08T22:58:02.498Z</time>
      </trkpt>
      <trkpt lat="47.551651" lon="7.806246">
        <ele>300.648326</ele>
        <time>2021-11-08T22:58:05.308Z</time>
      </trkpt>
      <trkpt lat="47.551895" lon="7.806278">
        <ele>300.692750</ele>
        <time>2021-11-08T22:58:08.944Z</time>
      </trkpt>
      <trkpt lat="47.552015" lon="7.806307">
        <ele>300.714801</ele>
        <time>2021-11-08T22:58:11.689Z</time>
      </trkpt>
      <trkpt lat="47.552068" lon="7.806445">
        <ele>300.734235</ele>
        <time>2021-11-08T22:58:13.075Z</time>
      </trkpt>
      <trkpt lat="47.552398" lon="7.808880">
        <ele>300.379271</ele>
        <time>2021-11-08T22:58:35.371Z</time>
      </trkpt>
      <trkpt lat="47.552566" lon="7.810386">
        <ele>299.735116</ele>
        <time>2021-11-08T22:58:48.382Z</time>
      </trkpt>
      <trkpt lat="47.552711" lon="7.812955">
        <ele>298.598823</ele>
        <time>2021-11-08T22:59:10.991Z</time>
      </trkpt>
      <trkpt lat="47.552844" lon="7.816432">
        <ele>297.461093</ele>
        <time>2021-11-08T22:59:41.484Z</time>
      </trkpt>
      <trkpt lat="47.552948" lon="7.819358">
        <ele>297.827094</ele>
        <time>2021-11-08T23:00:12.714Z</time>
      </trkpt>
      <trkpt lat="47.552896" lon="7.820699">
        <ele>298.335781</ele>
        <time>2021-11-08T23:00:28.798Z</time>
      </trkpt>
      <trkpt lat="47.552567" lon="7.824508">
        <ele>300.231456</ele>
        <time>2021-11-08T23:01:15.283Z</time>
      </trkpt>
      <trkpt lat="47.552491" lon="7.827227">
        <ele>301.787651</ele>
        <time>2021-11-08T23:01:47.022Z</time>
      </trkpt>
      <trkpt lat="47.552515" lon="7.828094">
        <ele>302.471180</ele>
        <time>2021-11-08T23:01:58.732Z</time>
      </trkpt>
      <trkpt lat="47.552477" lon="7.828294">
        <ele>302.634848</ele>
        <time>2021-11-08T23:02:01.349Z</time>
      </trkpt>
      <trkpt lat="47.552421" lon="7.828481">
        <ele>302.796002</ele>
        <time>2021-11-08T23:02:04.281Z</time>
      </trkpt>
      <trkpt lat="47.552404" lon="7.828582">
        <ele>302.877999</ele>
        <time>2021-11-08T23:02:05.965Z</time>
      </trkpt>
      <trkpt lat="47.552416" lon="7.828822">
        <ele>303.067570</ele>
        <time>2021-11-08T23:02:09.199Z</time>
      </trkpt>
      <trkpt lat="47.552554" lon="7.829266">
        <ele>303.828979</ele>
        <time>2021-11-08T23:02:16.550Z</time>
      </trkpt>
      <trkpt lat="47.552645" lon="7.830686">
        <ele>306.207338</ele>
        <time>2021-11-08T23:02:39.856Z</time>
      </trkpt>
      <trkpt lat="47.552690" lon="7.832598">
        <ele>309.770736</ele>
        <time>2021-11-08T23:03:15.333Z</time>
      </trkpt>
      <trkpt lat="47.552616" lon="7.832891">
        <ele>310.398335</ele>
        <time>2021-11-08T23:03:20.697Z</time>
      </trkpt>
      <trkpt lat="47.552556" lon="7.832977">
        <ele>310.646472</ele>
        <time>2021-11-08T23:03:23.429Z</time>
      </trkpt>
      <trkpt lat="47.552511" lon="7.833072">
        <ele>310.879308</ele>
        <time>2021-11-08T23:03:25.454Z</time>
      </trkpt>
      <trkpt lat="47.552467" lon="7.833198">
        <ele>311.163910</ele>
        <time>2021-11-08T23:03:27.856Z</time>
      </trkpt>
      <trkpt lat="47.552452" lon="7.833284">
        <ele>311.342105</ele>
        <time>2021-11-08T23:03:29.467Z</time>
      </trkpt>
      <trkpt lat="47.552696" lon="7.833789">
        <ele>312.588044</ele>
        <time>2021-11-08T23:03:40.498Z</time>
      </trkpt>
      <trkpt lat="47.552700" lon="7.833938">
        <ele>312.887192</ele>
        <time>2021-11-08T23:03:43.443Z</time>
      </trkpt>
      <trkpt lat="47.552714" lon="7.835010">
        <ele>314.370361</ele>
        <time>2021-11-08T23:04:01.920Z</time>
      </trkpt>
      <trkpt lat="47.552719" lon="7.836790">
        <ele>316.755868</ele>
        <time>2021-11-08T23:04:27.203Z</time>
      </trkpt>
      <trkpt lat="47.552697" lon="7.838068">
        <ele>318.034686</ele>
        <time>2021-11-08T23:04:44.845Z</time>
      </trkpt>
      <trkpt lat="47.552736" lon="7.838578">
        <ele>318.548111</ele>
        <time>2021-11-08T23:04:51.972Z</time>
      </trkpt>
      <trkpt lat="47.552802" lon="7.839009">
        <ele>318.990204</ele>
        <time>2021-11-08T23:04:58.191Z</time>
      </trkpt>
      <trkpt lat="47.552939" lon="7.839526">
        <ele>319.572974</ele>
        <time>2021-11-08T23:05:05.981Z</time>
      </trkpt>
      <trkpt lat="47.553231" lon="7.841529">
        <ele>321.807116</ele>
        <time>2021-11-08T23:05:36.111Z</time>
      </trkpt>
      <trkpt lat="47.553216" lon="7.841849">
        <ele>322.153994</ele>
        <time>2021-11-08T23:05:40.635Z</time>
      </trkpt>
      <trkpt lat="47.553123" lon="7.842222">
        <ele>322.427290</ele>
        <time>2021-11-08T23:05:45.864Z</time>
      </trkpt>
      <trkpt lat="47.553133" lon="7.842431">
        <ele>322.571295</ele>
        <time>2021-11-08T23:05:48.994Z</time>
      </trkpt>
      <trkpt lat="47.552833" lon="7.842495">
        <ele>322.879953</ele>
        <time>2021-11-08T23:05:56.303Z</time>
      </trkpt>
      <trkpt lat="47.552380" lon="7.842592">
        <ele>323.346061</ele>
        <time>2021-11-08T23:06:07.351Z</time>
      </trkpt>
      <trkpt lat="47.551922" lon="7.842704">
        <ele>323.818779</ele>
        <time>2021-11-08T23:06:17.917Z</time>
      </trkpt>
      <trkpt lat="47.551668" lon="7.842770">
        <ele>324.068406</ele>
        <time>2021-11-08T23:06:23.876Z</time>
      </trkpt>
      <trkpt lat="47.551454" lon="7.842815">
        <ele>324.260106</ele>
        <time>2021-11-08T23:06:28.563Z</time>
      </trkpt>
      <trkpt lat="47.551344" lon="7.844621">
        <ele>325.345567</ele>
        <time>2021-11-08T23:06:51.077Z</time>
      </trkpt>
      <trkpt lat="47.551205" lon="7.846694">
        <ele>327.169096</ele>
        <time>2021-11-08T23:07:19.065Z</time>
      </trkpt>
      <trkpt lat="47.551184" lon="7.847206">
        <ele>327.650286</ele>
        <time>2021-11-08T23:07:26.451Z</time>
      </trkpt>
      <trkpt lat="47.551196" lon="7.847517">
        <ele>327.942509</ele>
        <time>2021-11-08T23:07:31.015Z</time>
      </trkpt>
      <trkpt lat="47.551669" lon="7.848083">
        <ele>328.865872</ele>
        <time>2021-11-08T23:07:44.075Z</time>
      </trkpt>
      <trkpt lat="47.551242" lon="7.848702">
        <ele>329.787552</ele>
        <time>2021-11-08T23:07:56.683Z</time>
      </trkpt>
      <trkpt lat="47.550975" lon="7.849066">
        <ele>330.347345</ele>
        <time>2021-11-08T23:08:03.999Z</time>
      </trkpt>
      <trkpt lat="47.550869" lon="7.849245">
        <ele>330.595318</ele>
        <time>2021-11-08T23:08:08.030Z</time>
      </trkpt>
      <trkpt lat="47.550810" lon="7.849346">
        <ele>330.734414</ele>
        <time>2021-11-08T23:08:10.392Z</time>
      </trkpt>
      <trkpt lat="47.550488" lon="7.850081">
        <ele>331.357031</ele>
        <time>2021-11-08T23:08:25.833Z</time>
      </trkpt>
      <trkpt lat="47.550333" lon="7.850434">
        <ele>331.635847</ele>
        <time>2021-11-08T23:08:33.179Z</time>
      </trkpt>
      <trkpt lat="47.550009" lon="7.851173">
        <ele>332.219284</ele>
        <time>2021-11-08T23:08:47.785Z</time>
      </trkpt>
      <trkpt lat="47.549652" lon="7.851969">
        <ele>332.570138</ele>
        <time>2021-11-08T23:09:01.664Z</time>
      </trkpt>
      <trkpt lat="47.549535" lon="7.852225">
        <ele>332.531009</ele>
        <time>2021-11-08T23:09:05.721Z</time>
      </trkpt>
      <trkpt lat="47.549285" lon="7.852784">
        <ele>332.446140</ele>
        <time>2021-11-08T23:09:14.354Z</time>
      </trkpt>
      <trkpt lat="47.549285" lon="7.852783">
        <ele>332.446013</ele>
        <time>2021-11-08T23:09:14.365Z</time>
      </trkpt>
      <trkpt lat="47.549285" lon="7.852784">
        <ele>332.445887</ele>
        <time>2021-11-08T23:09:14.380Z</time>
      </trkpt>
      <trkpt lat="47.549708" lon="7.853279">
        <ele>332.344813</ele>
        <time>2021-11-08T23:09:24.780Z</time>
      </trkpt>
      <trkpt lat="47.550221" lon="7.853833">
        <ele>332.123212</ele>
        <time>2021-11-08T23:09:36.701Z</time>
      </trkpt>
      <trkpt lat="47.549883" lon="7.854434">
        <ele>331.830164</ele>
        <time>2021-11-08T23:09:43.378Z</time>
      </trkpt>
      <trkpt lat="47.549566" lon="7.855225">
        <ele>331.485557</ele>
        <time>2021-11-08T23:09:54.523Z</time>
      </trkpt>
      <trkpt lat="47.549362" lon="7.855774">
        <ele>331.275220</ele>
        <time>2021-11-08T23:10:02.444Z</time>
      </trkpt>
      <trkpt lat="47.548887" lon="7.857308">
        <ele>331.174518</ele>
        <time>2021-11-08T23:10:24.552Z</time>
      </trkpt>
      <trkpt lat="47.548743" lon="7.857692">
        <ele>331.148307</ele>
        <time>2021-11-08T23:10:30.524Z</time>
      </trkpt>
      <trkpt lat="47.548701" lon="7.857893">
        <ele>331.135753</ele>
        <time>2021-11-08T23:10:33.496Z</time>
      </trkpt>
      <trkpt lat="47.548686" lon="7.857973">
        <ele>331.130799</ele>
        <time>2021-11-08T23:10:34.619Z</time>
      </trkpt>
      <trkpt lat="47.548611" lon="7.858381">
        <ele>331.275870</ele>
        <time>2021-11-08T23:10:40.833Z</time>
      </trkpt>
      <trkpt lat="47.548334" lon="7.859801">
        <ele>332.170754</ele>
        <time>2021-11-08T23:11:03.870Z</time>
      </trkpt>
      <trkpt lat="47.548049" lon="7.860929">
        <ele>333.049608</ele>
        <time>2021-11-08T23:11:24.889Z</time>
      </trkpt>
      <trkpt lat="47.547930" lon="7.861711">
        <ele>333.973055</ele>
        <time>2021-11-08T23:11:39.651Z</time>
      </trkpt>
      <trkpt lat="47.547568" lon="7.863151">
        <ele>335.743208</ele>
        <time>2021-11-08T23:12:08.780Z</time>
      </trkpt>
      <trkpt lat="47.547320" lon="7.863864">
        <ele>336.031589</ele>
        <time>2021-11-08T23:12:22.720Z</time>
      </trkpt>
      <trkpt lat="47.546974" lon="7.864423">
        <ele>336.262034</ele>
        <time>2021-11-08T23:12:33.544Z</time>
      </trkpt>
      <trkpt lat="47.546885" lon="7.864500">
        <ele>336.308427</ele>
        <time>2021-11-08T23:12:36.629Z</time>
      </trkpt>
      <trkpt lat="47.546894" lon="7.864837">
        <ele>336.410900</ele>
        <time>2021-11-08T23:12:40.512Z</time>
      </trkpt>
      <trkpt lat="47.546889" lon="7.865225">
        <ele>336.528811</ele>
        <time>2021-11-08T23:12:45.937Z</time>
      </trkpt>
      <trkpt lat="47.546819" lon="7.865489">
        <ele>336.610681</ele>
        <time>2021-11-08T23:12:49.882Z</time>
      </trkpt>
      <trkpt lat="47.546510" lon="7.865766">
        <ele>336.294687</ele>
        <time>2021-11-08T23:12:56.516Z</time>
      </trkpt>
      <trkpt lat="47.546327" lon="7.865959">
        <ele>336.098148</ele>
        <time>2021-11-08T23:13:00.031Z</time>
      </trkpt>
      <trkpt lat="47.546096" lon="7.866147">
        <ele>335.867550</ele>
        <time>2021-11-08T23:13:04.587Z</time>
      </trkpt>
      <trkpt lat="47.545240" lon="7.866887">
        <ele>335.078396</ele>
        <time>2021-11-08T23:13:21.261Z</time>
      </trkpt>
      <trkpt lat="47.545160" lon="7.866985">
        <ele>335.167250</ele>
        <time>2021-11-08T23:13:23.216Z</time>
      </trkpt>
      <trkpt lat="47.545003" lon="7.867278">
        <ele>335.383392</ele>
        <time>2021-11-08T23:13:28.885Z</time>
      </trkpt>
      <trkpt lat="47.544568" lon="7.867693">
        <ele>335.826257</ele>
        <time>2021-11-08T23:13:41.675Z</time>
      </trkpt>
      <trkpt lat="47.544469" lon="7.867776">
        <ele>335.923624</ele>
        <time>2021-11-08T23:13:44.537Z</time>
      </trkpt>
      <trkpt lat="47.544410" lon="7.867825">
        <ele>335.981520</ele>
        <time>2021-11-08T23:13:46.626Z</time>
      </trkpt>
      <trkpt lat="47.544246" lon="7.867967">
        <ele>336.144114</ele>
        <time>2021-11-08T23:13:51.309Z</time>
      </trkpt>
      <trkpt lat="47.544214" lon="7.867988">
        <ele>336.174071</ele>
        <time>2021-11-08T23:13:52.157Z</time>
      </trkpt>
      <trkpt lat="47.543801" lon="7.868269">
        <ele>336.563080</ele>
        <time>2021-11-08T23:14:03.760Z</time>
      </trkpt>
      <trkpt lat="47.543657" lon="7.868359">
        <ele>336.579386</ele>
        <time>2021-11-08T23:14:08.110Z</time>
      </trkpt>
      <trkpt lat="47.543201" lon="7.868657">
        <ele>336.579386</ele>
        <time>2021-11-08T23:14:18.310Z</time>
      </trkpt>
      <trkpt lat="47.543105" lon="7.868711">
        <ele>336.579386</ele>
        <time>2021-11-08T23:14:20.894Z</time>
      </trkpt>
      <trkpt lat="47.543049" lon="7.868759">
        <ele>336.579386</ele>
        <time>2021-11-08T23:14:22.271Z</time>
      </trkpt>
      <trkpt lat="47.542722" lon="7.869201">
        <ele>336.579386</ele>
        <time>2021-11-08T23:14:32.117Z</time>
      </trkpt>
      <trkpt lat="47.542696" lon="7.869257">
        <ele>336.579386</ele>
        <time>2021-11-08T23:14:32.954Z</time>
      </trkpt>
      <trkpt lat="47.542657" lon="7.869354">
        <ele>336.579386</ele>
        <time>2021-11-08T23:14:34.406Z</time>
      </trkpt>
      <trkpt lat="47.542372" lon="7.869746">
        <ele>336.579386</ele>
        <time>2021-11-08T23:14:41.581Z</time>
      </trkpt>
      <trkpt lat="47.542329" lon="7.869820">
        <ele>336.579386</ele>
        <time>2021-11-08T23:14:42.803Z</time>
      </trkpt>
      <trkpt lat="47.542348" lon="7.869983">
        <ele>336.579386</ele>
        <time>2021-11-08T23:14:44.451Z</time>
      </trkpt>
      <trkpt lat="47.542317" lon="7.870012">
        <ele>336.579386</ele>
        <time>2021-11-08T23:14:45.114Z</time>
      </trkpt>
      <trkpt lat="47.542181" lon="7.870131">
        <ele>336.579386</ele>
        <time>2021-11-08T23:14:47.585Z</time>
      </trkpt>
      <trkpt lat="47.542118" lon="7.870135">
        <ele>336.579386</ele>
        <time>2021-11-08T23:14:48.637Z</time>
      </trkpt>
      <trkpt lat="47.542014" lon="7.870126">
        <ele>336.579386</ele>
        <time>2021-11-08T23:14:50.071Z</time>
      </trkpt>
      <trkpt lat="47.541910" lon="7.870106">
        <ele>336.579386</ele>
        <time>2021-11-08T23:14:51.614Z</time>
      </trkpt>
      <trkpt lat="47.541767" lon="7.870256">
        <ele>336.579386</ele>
        <time>2021-11-08T23:14:54.023Z</time>
      </trkpt>
    </trkseg>
  </trk>
</gpx>